<?xml version="1.0" encoding="UTF-8" standalone="no" ?>
<gpx xmlns="http://www.topografix.com/GPX/1/1" xmlns:xsi="http://www.w3.org/2001/XMLSchema-instance" xsi:schemaLocation="http://www.topografix.com/GPX/1/1 http://www.topografix.com/GPX/1/1/gpx.xsd" version="1.1" creator="VisuGPX - https://www.visugpx.com">
  <metadata>
    <name>Circuit Charnay Morancé</name>
  </metadata>
  <trk>
    <name><![CDATA[Circuit Charnay Morancé_1]]></name>
    <trkseg>
      <trkpt lat="45.89116" lon="4.66806">
        <ele>411.77688598633</ele>
        <time>2015-02-24T06:54:02Z</time>
        <extensions>
          <visugpx:TrkExtension xmlns:visugpx="https://www.visugpx.com/editgpx/">
            <visugpx:node>10</visugpx:node>
            </visugpx:TrkExtension>
        </extensions>
      </trkpt>
      <trkpt lat="45.89112" lon="4.66805">
        <ele>411.77838134766</ele>
        <time>2015-02-24T06:54:03Z</time>
      </trkpt>
      <trkpt lat="45.89109" lon="4.66803">
        <ele>411.71255493164</ele>
        <time>2015-02-24T06:54:04Z</time>
      </trkpt>
      <trkpt lat="45.89096" lon="4.66791">
        <ele>411.23568725586</ele>
        <time>2015-02-24T06:54:09Z</time>
      </trkpt>
      <trkpt lat="45.89083" lon="4.66775">
        <ele>410.81967163086</ele>
        <time>2015-02-24T06:54:14Z</time>
      </trkpt>
      <trkpt lat="45.89077" lon="4.66775">
        <ele>411.16055297852</ele>
        <time>2015-02-24T06:54:16Z</time>
      </trkpt>
      <trkpt lat="45.89072" lon="4.66779">
        <ele>411.69396972656</ele>
        <time>2015-02-24T06:54:18Z</time>
      </trkpt>
      <trkpt lat="45.89059" lon="4.66787">
        <ele>412.81494140625</ele>
        <time>2015-02-24T06:54:23Z</time>
      </trkpt>
      <trkpt lat="45.89058" lon="4.66788">
        <ele>413.01705932617</ele>
        <time>2015-02-24T06:54:24Z</time>
      </trkpt>
      <trkpt lat="45.89056" lon="4.66791">
        <ele>413.25082397461</ele>
        <time>2015-02-24T06:54:25Z</time>
      </trkpt>
      <trkpt lat="45.89049" lon="4.66795">
        <ele>413.88766479492</ele>
        <time>2015-02-24T06:54:27Z</time>
      </trkpt>
      <trkpt lat="45.89046" lon="4.66798">
        <ele>414.16784667969</ele>
        <time>2015-02-24T06:54:28Z</time>
      </trkpt>
      <trkpt lat="45.89043" lon="4.66799">
        <ele>414.40103149414</ele>
        <time>2015-02-24T06:54:29Z</time>
      </trkpt>
      <trkpt lat="45.89033" lon="4.66804">
        <ele>415.09371948242</ele>
        <time>2015-02-24T06:54:32Z</time>
      </trkpt>
      <trkpt lat="45.8903" lon="4.66804">
        <ele>415.27301025391</ele>
        <time>2015-02-24T06:54:33Z</time>
      </trkpt>
      <trkpt lat="45.89023" lon="4.66804">
        <ele>415.53845214844</ele>
        <time>2015-02-24T06:54:35Z</time>
      </trkpt>
      <trkpt lat="45.89014" lon="4.66804">
        <ele>415.96594238281</ele>
        <time>2015-02-24T06:54:38Z</time>
      </trkpt>
      <trkpt lat="45.89002" lon="4.66812">
        <ele>416.90698242188</ele>
        <time>2015-02-24T06:54:42Z</time>
      </trkpt>
      <trkpt lat="45.88998" lon="4.66815">
        <ele>417.13494873047</ele>
        <time>2015-02-24T06:54:43Z</time>
      </trkpt>
      <trkpt lat="45.88991" lon="4.66825">
        <ele>417.79183959961</ele>
        <time>2015-02-24T06:54:46Z</time>
      </trkpt>
      <trkpt lat="45.88987" lon="4.66833">
        <ele>418.27020263672</ele>
        <time>2015-02-24T06:54:48Z</time>
      </trkpt>
      <trkpt lat="45.88981" lon="4.66844">
        <ele>417.81146240234</ele>
        <time>2015-02-24T06:54:51Z</time>
      </trkpt>
      <trkpt lat="45.8897" lon="4.66858">
        <ele>417.23239135742</ele>
        <time>2015-02-24T06:54:55Z</time>
      </trkpt>
      <trkpt lat="45.88961" lon="4.66865">
        <ele>417.02581787109</ele>
        <time>2015-02-24T06:54:58Z</time>
      </trkpt>
      <trkpt lat="45.88955" lon="4.6687">
        <ele>416.87188720703</ele>
        <time>2015-02-24T06:55:00Z</time>
      </trkpt>
      <trkpt lat="45.88938" lon="4.66883">
        <ele>416.52801513672</ele>
        <time>2015-02-24T06:55:06Z</time>
      </trkpt>
      <trkpt lat="45.88926" lon="4.66885">
        <ele>416.64587402344</ele>
        <time>2015-02-24T06:55:10Z</time>
      </trkpt>
      <trkpt lat="45.88923" lon="4.66887">
        <ele>416.66589355469</ele>
        <time>2015-02-24T06:55:11Z</time>
      </trkpt>
      <trkpt lat="45.88906" lon="4.66893">
        <ele>416.24038696289</ele>
        <time>2015-02-24T06:55:16Z</time>
      </trkpt>
      <trkpt lat="45.88891" lon="4.669">
        <ele>415.60577392578</ele>
        <time>2015-02-24T06:55:21Z</time>
      </trkpt>
      <trkpt lat="45.88887" lon="4.66902">
        <ele>415.4714050293</ele>
        <time>2015-02-24T06:55:22Z</time>
      </trkpt>
      <trkpt lat="45.88869" lon="4.66915">
        <ele>414.54373168945</ele>
        <time>2015-02-24T06:55:28Z</time>
      </trkpt>
      <trkpt lat="45.88865" lon="4.66917">
        <ele>414.31332397461</ele>
        <time>2015-02-24T06:55:29Z</time>
      </trkpt>
      <trkpt lat="45.88851" lon="4.66927">
        <ele>412.9469909668</ele>
        <time>2015-02-24T06:55:34Z</time>
      </trkpt>
      <trkpt lat="45.88842" lon="4.66933">
        <ele>412.13961791992</ele>
        <time>2015-02-24T06:55:37Z</time>
      </trkpt>
      <trkpt lat="45.88829" lon="4.6694">
        <ele>411.06164550781</ele>
        <time>2015-02-24T06:55:41Z</time>
      </trkpt>
      <trkpt lat="45.88813" lon="4.66947">
        <ele>409.84439086914</ele>
        <time>2015-02-24T06:55:46Z</time>
      </trkpt>
      <trkpt lat="45.8881" lon="4.66947">
        <ele>409.6471862793</ele>
        <time>2015-02-24T06:55:47Z</time>
      </trkpt>
      <trkpt lat="45.88796" lon="4.66949">
        <ele>409.11840820312</ele>
        <time>2015-02-24T06:55:51Z</time>
      </trkpt>
      <trkpt lat="45.88789" lon="4.66949">
        <ele>408.91610717773</ele>
        <time>2015-02-24T06:55:53Z</time>
      </trkpt>
      <trkpt lat="45.88776" lon="4.66949">
        <ele>408.42425537109</ele>
        <time>2015-02-24T06:55:57Z</time>
      </trkpt>
      <trkpt lat="45.88769" lon="4.6695">
        <ele>408.10385131836</ele>
        <time>2015-02-24T06:55:59Z</time>
      </trkpt>
      <trkpt lat="45.88766" lon="4.66951">
        <ele>407.89343261719</ele>
        <time>2015-02-24T06:56:00Z</time>
      </trkpt>
      <trkpt lat="45.88762" lon="4.66952">
        <ele>407.67596435547</ele>
        <time>2015-02-24T06:56:01Z</time>
      </trkpt>
      <trkpt lat="45.88755" lon="4.66954">
        <ele>407.25216674805</ele>
        <time>2015-02-24T06:56:03Z</time>
      </trkpt>
      <trkpt lat="45.88749" lon="4.66956">
        <ele>406.72650146484</ele>
        <time>2015-02-24T06:56:05Z</time>
      </trkpt>
      <trkpt lat="45.88749" lon="4.66956">
        <ele>406.72650146484</ele>
        <time>2015-02-24T06:56:05Z</time>
      </trkpt>
      <trkpt lat="45.88746" lon="4.66957">
        <ele>406.44708251953</ele>
        <time>2015-02-24T06:56:06Z</time>
      </trkpt>
      <trkpt lat="45.88736" lon="4.66959">
        <ele>405.40591430664</ele>
        <time>2015-02-24T06:56:09Z</time>
      </trkpt>
      <trkpt lat="45.88729" lon="4.66961">
        <ele>404.68084716797</ele>
        <time>2015-02-24T06:56:11Z</time>
      </trkpt>
      <trkpt lat="45.88725" lon="4.66962">
        <ele>404.24960327148</ele>
        <time>2015-02-24T06:56:12Z</time>
      </trkpt>
      <trkpt lat="45.88712" lon="4.66966">
        <ele>402.79736328125</ele>
        <time>2015-02-24T06:56:16Z</time>
      </trkpt>
      <trkpt lat="45.88694" lon="4.66966">
        <ele>401.44845581055</ele>
        <time>2015-02-24T06:56:21Z</time>
      </trkpt>
      <trkpt lat="45.8868" lon="4.66965">
        <ele>400.69888305664</ele>
        <time>2015-02-24T06:56:25Z</time>
      </trkpt>
      <trkpt lat="45.8867" lon="4.66965">
        <ele>399.94311523438</ele>
        <time>2015-02-24T06:56:28Z</time>
      </trkpt>
      <trkpt lat="45.88663" lon="4.66966">
        <ele>399.67828369141</ele>
        <time>2015-02-24T06:56:30Z</time>
      </trkpt>
      <trkpt lat="45.88653" lon="4.66967">
        <ele>399.63098144531</ele>
        <time>2015-02-24T06:56:33Z</time>
      </trkpt>
      <trkpt lat="45.88636" lon="4.66967">
        <ele>399.84100341797</ele>
        <time>2015-02-24T06:56:38Z</time>
      </trkpt>
      <trkpt lat="45.88616" lon="4.66968">
        <ele>399.92309570312</ele>
        <time>2015-02-24T06:56:44Z</time>
      </trkpt>
      <trkpt lat="45.8861" lon="4.66968">
        <ele>400.10690307617</ele>
        <time>2015-02-24T06:56:46Z</time>
      </trkpt>
      <trkpt lat="45.88596" lon="4.66969">
        <ele>400.12640380859</ele>
        <time>2015-02-24T06:56:50Z</time>
      </trkpt>
      <trkpt lat="45.88579" lon="4.66971">
        <ele>399.89312744141</ele>
        <time>2015-02-24T06:56:55Z</time>
      </trkpt>
      <trkpt lat="45.88575" lon="4.66972">
        <ele>399.5573425293</ele>
        <time>2015-02-24T06:56:56Z</time>
      </trkpt>
      <trkpt lat="45.88558" lon="4.66985">
        <ele>396.84872436523</ele>
        <time>2015-02-24T06:57:02Z</time>
      </trkpt>
      <trkpt lat="45.88555" lon="4.66987">
        <ele>396.38641357422</ele>
        <time>2015-02-24T06:57:03Z</time>
      </trkpt>
      <trkpt lat="45.88544" lon="4.66998">
        <ele>394.38354492188</ele>
        <time>2015-02-24T06:57:07Z</time>
      </trkpt>
      <trkpt lat="45.88539" lon="4.67004">
        <ele>393.42333984375</ele>
        <time>2015-02-24T06:57:09Z</time>
      </trkpt>
      <trkpt lat="45.88534" lon="4.67009">
        <ele>392.62524414062</ele>
        <time>2015-02-24T06:57:11Z</time>
      </trkpt>
      <trkpt lat="45.88527" lon="4.67015">
        <ele>391.67742919922</ele>
        <time>2015-02-24T06:57:13Z</time>
      </trkpt>
      <trkpt lat="45.88525" lon="4.67018">
        <ele>391.1598815918</ele>
        <time>2015-02-24T06:57:14Z</time>
      </trkpt>
      <trkpt lat="45.88516" lon="4.67028">
        <ele>389.43502807617</ele>
        <time>2015-02-24T06:57:17Z</time>
      </trkpt>
      <trkpt lat="45.88511" lon="4.67034">
        <ele>388.43298339844</ele>
        <time>2015-02-24T06:57:19Z</time>
      </trkpt>
      <trkpt lat="45.88508" lon="4.67036">
        <ele>387.99630737305</ele>
        <time>2015-02-24T06:57:20Z</time>
      </trkpt>
      <trkpt lat="45.88497" lon="4.67048">
        <ele>385.88842773438</ele>
        <time>2015-02-24T06:57:24Z</time>
      </trkpt>
      <trkpt lat="45.88488" lon="4.67057">
        <ele>384.59558105469</ele>
        <time>2015-02-24T06:57:27Z</time>
      </trkpt>
      <trkpt lat="45.88481" lon="4.67066">
        <ele>383.2370300293</ele>
        <time>2015-02-24T06:57:30Z</time>
      </trkpt>
      <trkpt lat="45.88473" lon="4.67075">
        <ele>381.89376831055</ele>
        <time>2015-02-24T06:57:33Z</time>
      </trkpt>
      <trkpt lat="45.88468" lon="4.67081">
        <ele>381.17922973633</ele>
        <time>2015-02-24T06:57:35Z</time>
      </trkpt>
      <trkpt lat="45.88463" lon="4.67087">
        <ele>380.32244873047</ele>
        <time>2015-02-24T06:57:37Z</time>
      </trkpt>
      <trkpt lat="45.88461" lon="4.67089">
        <ele>380.00259399414</ele>
        <time>2015-02-24T06:57:38Z</time>
      </trkpt>
      <trkpt lat="45.88457" lon="4.67092">
        <ele>379.58883666992</ele>
        <time>2015-02-24T06:57:39Z</time>
      </trkpt>
      <trkpt lat="45.88453" lon="4.67099">
        <ele>378.67831420898</ele>
        <time>2015-02-24T06:57:41Z</time>
      </trkpt>
      <trkpt lat="45.88444" lon="4.67108">
        <ele>377.14105224609</ele>
        <time>2015-02-24T06:57:44Z</time>
      </trkpt>
      <trkpt lat="45.88438" lon="4.67114">
        <ele>376.1867980957</ele>
        <time>2015-02-24T06:57:46Z</time>
      </trkpt>
      <trkpt lat="45.88435" lon="4.67116">
        <ele>375.75106811523</ele>
        <time>2015-02-24T06:57:47Z</time>
      </trkpt>
      <trkpt lat="45.88424" lon="4.67128">
        <ele>373.44299316406</ele>
        <time>2015-02-24T06:57:51Z</time>
      </trkpt>
      <trkpt lat="45.88418" lon="4.67134">
        <ele>372.27520751953</ele>
        <time>2015-02-24T06:57:53Z</time>
      </trkpt>
      <trkpt lat="45.88412" lon="4.67139">
        <ele>371.5305480957</ele>
        <time>2015-02-24T06:57:55Z</time>
      </trkpt>
      <trkpt lat="45.88406" lon="4.67145">
        <ele>370.73736572266</ele>
        <time>2015-02-24T06:57:57Z</time>
      </trkpt>
      <trkpt lat="45.88404" lon="4.67147">
        <ele>370.42337036133</ele>
        <time>2015-02-24T06:57:58Z</time>
      </trkpt>
      <trkpt lat="45.88394" lon="4.67155">
        <ele>369.53338623047</ele>
        <time>2015-02-24T06:58:01Z</time>
      </trkpt>
      <trkpt lat="45.88384" lon="4.67161">
        <ele>368.98220825195</ele>
        <time>2015-02-24T06:58:04Z</time>
      </trkpt>
      <trkpt lat="45.88374" lon="4.67167">
        <ele>368.56399536133</ele>
        <time>2015-02-24T06:58:07Z</time>
      </trkpt>
      <trkpt lat="45.88371" lon="4.67168">
        <ele>368.43200683594</ele>
        <time>2015-02-24T06:58:08Z</time>
      </trkpt>
      <trkpt lat="45.88358" lon="4.67172">
        <ele>368.48776245117</ele>
        <time>2015-02-24T06:58:12Z</time>
      </trkpt>
      <trkpt lat="45.88354" lon="4.67173">
        <ele>368.45101928711</ele>
        <time>2015-02-24T06:58:13Z</time>
      </trkpt>
      <trkpt lat="45.88345" lon="4.67174">
        <ele>368.75262451172</ele>
        <time>2015-02-24T06:58:16Z</time>
      </trkpt>
      <trkpt lat="45.88335" lon="4.67174">
        <ele>369.23132324219</ele>
        <time>2015-02-24T06:58:19Z</time>
      </trkpt>
      <trkpt lat="45.88326" lon="4.67173">
        <ele>369.49893188477</ele>
        <time>2015-02-24T06:58:22Z</time>
      </trkpt>
      <trkpt lat="45.88316" lon="4.67172">
        <ele>369.56518554688</ele>
        <time>2015-02-24T06:58:25Z</time>
      </trkpt>
      <trkpt lat="45.88301" lon="4.67169">
        <ele>369.85003662109</ele>
        <time>2015-02-24T06:58:30Z</time>
      </trkpt>
      <trkpt lat="45.88295" lon="4.67168">
        <ele>369.90975952148</ele>
        <time>2015-02-24T06:58:32Z</time>
      </trkpt>
      <trkpt lat="45.88282" lon="4.67166">
        <ele>369.96398925781</ele>
        <time>2015-02-24T06:58:36Z</time>
      </trkpt>
      <trkpt lat="45.88271" lon="4.67164">
        <ele>369.966796875</ele>
        <time>2015-02-24T06:58:40Z</time>
      </trkpt>
      <trkpt lat="45.8826" lon="4.67164">
        <ele>369.85208129883</ele>
        <time>2015-02-24T06:58:43Z</time>
      </trkpt>
      <trkpt lat="45.88241" lon="4.67161">
        <ele>370.47714233398</ele>
        <time>2015-02-24T06:58:49Z</time>
      </trkpt>
      <trkpt lat="45.88232" lon="4.67159">
        <ele>371.0595703125</ele>
        <time>2015-02-24T06:58:52Z</time>
      </trkpt>
      <trkpt lat="45.88219" lon="4.67158">
        <ele>371.68273925781</ele>
        <time>2015-02-24T06:58:56Z</time>
      </trkpt>
      <trkpt lat="45.88202" lon="4.67156">
        <ele>372.46859741211</ele>
        <time>2015-02-24T06:59:01Z</time>
      </trkpt>
      <trkpt lat="45.88198" lon="4.67157">
        <ele>372.53500366211</ele>
        <time>2015-02-24T06:59:02Z</time>
      </trkpt>
      <trkpt lat="45.88192" lon="4.67156">
        <ele>372.798828125</ele>
        <time>2015-02-24T06:59:04Z</time>
      </trkpt>
      <trkpt lat="45.88188" lon="4.67156">
        <ele>373.00604248047</ele>
        <time>2015-02-24T06:59:05Z</time>
      </trkpt>
      <trkpt lat="45.88182" lon="4.67155">
        <ele>373.27597045898</ele>
        <time>2015-02-24T06:59:07Z</time>
      </trkpt>
      <trkpt lat="45.88166" lon="4.67154">
        <ele>373.8342590332</ele>
        <time>2015-02-24T06:59:12Z</time>
      </trkpt>
      <trkpt lat="45.88162" lon="4.67153">
        <ele>373.82693481445</ele>
        <time>2015-02-24T06:59:13Z</time>
      </trkpt>
      <trkpt lat="45.88159" lon="4.67153">
        <ele>373.82113647461</ele>
        <time>2015-02-24T06:59:14Z</time>
      </trkpt>
      <trkpt lat="45.88147" lon="4.6715">
        <ele>374.01147460938</ele>
        <time>2015-02-24T06:59:18Z</time>
      </trkpt>
      <trkpt lat="45.88141" lon="4.6715">
        <ele>373.95941162109</ele>
        <time>2015-02-24T06:59:20Z</time>
      </trkpt>
      <trkpt lat="45.88137" lon="4.6715">
        <ele>373.83563232422</ele>
        <time>2015-02-24T06:59:21Z</time>
      </trkpt>
      <trkpt lat="45.88127" lon="4.67146">
        <ele>374.18609619141</ele>
        <time>2015-02-24T06:59:24Z</time>
      </trkpt>
      <trkpt lat="45.88111" lon="4.67143">
        <ele>374.42004394531</ele>
        <time>2015-02-24T06:59:29Z</time>
      </trkpt>
      <trkpt lat="45.88098" lon="4.67142">
        <ele>374.39266967773</ele>
        <time>2015-02-24T06:59:33Z</time>
      </trkpt>
      <trkpt lat="45.88085" lon="4.6714">
        <ele>374.42272949219</ele>
        <time>2015-02-24T06:59:37Z</time>
      </trkpt>
      <trkpt lat="45.88071" lon="4.67139">
        <ele>374.46786499023</ele>
        <time>2015-02-24T06:59:41Z</time>
      </trkpt>
      <trkpt lat="45.88068" lon="4.67138">
        <ele>374.62326049805</ele>
        <time>2015-02-24T06:59:42Z</time>
      </trkpt>
      <trkpt lat="45.88058" lon="4.67137">
        <ele>374.72952270508</ele>
        <time>2015-02-24T06:59:45Z</time>
      </trkpt>
      <trkpt lat="45.88052" lon="4.67136">
        <ele>374.93212890625</ele>
        <time>2015-02-24T06:59:47Z</time>
      </trkpt>
      <trkpt lat="45.88038" lon="4.67133">
        <ele>375.22668457031</ele>
        <time>2015-02-24T06:59:51Z</time>
      </trkpt>
      <trkpt lat="45.88035" lon="4.67134">
        <ele>375.07946777344</ele>
        <time>2015-02-24T06:59:52Z</time>
      </trkpt>
      <trkpt lat="45.88021" lon="4.67131">
        <ele>375.29284667969</ele>
        <time>2015-02-24T06:59:56Z</time>
      </trkpt>
      <trkpt lat="45.88008" lon="4.67131">
        <ele>375.26596069336</ele>
        <time>2015-02-24T07:00:00Z</time>
      </trkpt>
      <trkpt lat="45.87995" lon="4.6713">
        <ele>375.22958374023</ele>
        <time>2015-02-24T07:00:04Z</time>
      </trkpt>
      <trkpt lat="45.87981" lon="4.6713">
        <ele>375.0625</ele>
        <time>2015-02-24T07:00:08Z</time>
      </trkpt>
      <trkpt lat="45.87961" lon="4.6713">
        <ele>374.79013061523</ele>
        <time>2015-02-24T07:00:14Z</time>
      </trkpt>
      <trkpt lat="45.87957" lon="4.67131">
        <ele>374.6344909668</ele>
        <time>2015-02-24T07:00:15Z</time>
      </trkpt>
      <trkpt lat="45.87944" lon="4.67132">
        <ele>374.35754394531</ele>
        <time>2015-02-24T07:00:19Z</time>
      </trkpt>
      <trkpt lat="45.87927" lon="4.67132">
        <ele>374.07373046875</ele>
        <time>2015-02-24T07:00:24Z</time>
      </trkpt>
      <trkpt lat="45.87917" lon="4.67132">
        <ele>374.01651000977</ele>
        <time>2015-02-24T07:00:27Z</time>
      </trkpt>
      <trkpt lat="45.87915" lon="4.67133">
        <ele>373.9231262207</ele>
        <time>2015-02-24T07:00:28Z</time>
      </trkpt>
      <trkpt lat="45.8791" lon="4.67134">
        <ele>373.95971679688</ele>
        <time>2015-02-24T07:00:29Z</time>
      </trkpt>
      <trkpt lat="45.87894" lon="4.67136">
        <ele>374.36044311523</ele>
        <time>2015-02-24T07:00:34Z</time>
      </trkpt>
      <trkpt lat="45.87878" lon="4.6714">
        <ele>374.56323242188</ele>
        <time>2015-02-24T07:00:39Z</time>
      </trkpt>
      <trkpt lat="45.87864" lon="4.67141">
        <ele>375.01385498047</ele>
        <time>2015-02-24T07:00:43Z</time>
      </trkpt>
      <trkpt lat="45.87848" lon="4.67145">
        <ele>375.41439819336</ele>
        <time>2015-02-24T07:00:48Z</time>
      </trkpt>
      <trkpt lat="45.87828" lon="4.6715">
        <ele>375.91897583008</ele>
        <time>2015-02-24T07:00:54Z</time>
      </trkpt>
      <trkpt lat="45.87812" lon="4.67158">
        <ele>376.13781738281</ele>
        <time>2015-02-24T07:00:59Z</time>
      </trkpt>
      <trkpt lat="45.87798" lon="4.67165">
        <ele>376.30679321289</ele>
        <time>2015-02-24T07:01:03Z</time>
      </trkpt>
      <trkpt lat="45.87783" lon="4.67175">
        <ele>376.43865966797</ele>
        <time>2015-02-24T07:01:08Z</time>
      </trkpt>
      <trkpt lat="45.87769" lon="4.67187">
        <ele>376.72494506836</ele>
        <time>2015-02-24T07:01:12Z</time>
      </trkpt>
      <trkpt lat="45.87755" lon="4.67203">
        <ele>377.24569702148</ele>
        <time>2015-02-24T07:01:17Z</time>
      </trkpt>
      <trkpt lat="45.87749" lon="4.67209">
        <ele>377.54699707031</ele>
        <time>2015-02-24T07:01:19Z</time>
      </trkpt>
      <trkpt lat="45.87736" lon="4.67225">
        <ele>377.74725341797</ele>
        <time>2015-02-24T07:01:24Z</time>
      </trkpt>
      <trkpt lat="45.87728" lon="4.67239">
        <ele>377.73522949219</ele>
        <time>2015-02-24T07:01:28Z</time>
      </trkpt>
      <trkpt lat="45.8772" lon="4.67254">
        <ele>377.65942382812</ele>
        <time>2015-02-24T07:01:32Z</time>
      </trkpt>
      <trkpt lat="45.87716" lon="4.67263">
        <ele>377.58505249023</ele>
        <time>2015-02-24T07:01:34Z</time>
      </trkpt>
      <trkpt lat="45.87712" lon="4.67275">
        <ele>377.51803588867</ele>
        <time>2015-02-24T07:01:37Z</time>
      </trkpt>
      <trkpt lat="45.87706" lon="4.67291">
        <ele>377.42990112305</ele>
        <time>2015-02-24T07:01:41Z</time>
      </trkpt>
      <trkpt lat="45.87701" lon="4.67307">
        <ele>377.43368530273</ele>
        <time>2015-02-24T07:01:45Z</time>
      </trkpt>
      <trkpt lat="45.8769" lon="4.67331">
        <ele>377.86026000977</ele>
        <time>2015-02-24T07:01:51Z</time>
      </trkpt>
      <trkpt lat="45.87685" lon="4.67338">
        <ele>378.14691162109</ele>
        <time>2015-02-24T07:01:53Z</time>
      </trkpt>
      <trkpt lat="45.87671" lon="4.67353">
        <ele>379.19241333008</ele>
        <time>2015-02-24T07:01:59Z</time>
      </trkpt>
      <trkpt lat="45.87665" lon="4.67358">
        <ele>379.4284362793</ele>
        <time>2015-02-24T07:02:01Z</time>
      </trkpt>
      <trkpt lat="45.87656" lon="4.67362">
        <ele>379.35641479492</ele>
        <time>2015-02-24T07:02:04Z</time>
      </trkpt>
      <trkpt lat="45.8764" lon="4.67366">
        <ele>379.28573608398</ele>
        <time>2015-02-24T07:02:09Z</time>
      </trkpt>
      <trkpt lat="45.87621" lon="4.6737">
        <ele>379.19348144531</ele>
        <time>2015-02-24T07:02:15Z</time>
      </trkpt>
      <trkpt lat="45.87601" lon="4.67372">
        <ele>379.13323974609</ele>
        <time>2015-02-24T07:02:21Z</time>
      </trkpt>
      <trkpt lat="45.87581" lon="4.67374">
        <ele>379.00677490234</ele>
        <time>2015-02-24T07:02:27Z</time>
      </trkpt>
      <trkpt lat="45.87574" lon="4.67375">
        <ele>378.83227539062</ele>
        <time>2015-02-24T07:02:29Z</time>
      </trkpt>
      <trkpt lat="45.87565" lon="4.6738">
        <ele>378.43334960938</ele>
        <time>2015-02-24T07:02:32Z</time>
      </trkpt>
      <trkpt lat="45.87547" lon="4.67394">
        <ele>377.34948730469</ele>
        <time>2015-02-24T07:02:38Z</time>
      </trkpt>
      <trkpt lat="45.87544" lon="4.67396">
        <ele>377.15093994141</ele>
        <time>2015-02-24T07:02:39Z</time>
      </trkpt>
      <trkpt lat="45.87539" lon="4.67403">
        <ele>376.66262817383</ele>
        <time>2015-02-24T07:02:41Z</time>
      </trkpt>
      <trkpt lat="45.87536" lon="4.67418">
        <ele>375.79925537109</ele>
        <time>2015-02-24T07:02:44Z</time>
      </trkpt>
      <trkpt lat="45.87536" lon="4.67429">
        <ele>375.3454284668</ele>
        <time>2015-02-24T07:02:46Z</time>
      </trkpt>
      <trkpt lat="45.87538" lon="4.67445">
        <ele>374.72772216797</ele>
        <time>2015-02-24T07:02:49Z</time>
      </trkpt>
      <trkpt lat="45.87541" lon="4.67459">
        <ele>374.19943237305</ele>
        <time>2015-02-24T07:02:53Z</time>
      </trkpt>
      <trkpt lat="45.87542" lon="4.67459">
        <ele>374.21493530273</ele>
        <time>2015-02-24T07:02:54Z</time>
      </trkpt>
      <trkpt lat="45.87543" lon="4.6746">
        <ele>374.24249267578</ele>
        <time>2015-02-24T07:02:58Z</time>
      </trkpt>
      <trkpt lat="45.87545" lon="4.67461">
        <ele>374.24307250977</ele>
        <time>2015-02-24T07:02:59Z</time>
      </trkpt>
      <trkpt lat="45.87552" lon="4.6747">
        <ele>374.08685302734</ele>
        <time>2015-02-24T07:03:02Z</time>
      </trkpt>
      <trkpt lat="45.87555" lon="4.6749">
        <ele>373.35162353516</ele>
        <time>2015-02-24T07:03:06Z</time>
      </trkpt>
      <trkpt lat="45.87556" lon="4.67521">
        <ele>372.25930786133</ele>
        <time>2015-02-24T07:03:12Z</time>
      </trkpt>
      <trkpt lat="45.87559" lon="4.67524">
        <ele>372.255859375</ele>
        <time>2015-02-24T07:03:13Z</time>
      </trkpt>
      <trkpt lat="45.8757" lon="4.67526">
        <ele>372.56829833984</ele>
        <time>2015-02-24T07:03:16Z</time>
      </trkpt>
      <trkpt lat="45.87574" lon="4.67526">
        <ele>372.71078491211</ele>
        <time>2015-02-24T07:03:17Z</time>
      </trkpt>
      <trkpt lat="45.87583" lon="4.67529">
        <ele>372.94766235352</ele>
        <time>2015-02-24T07:03:19Z</time>
      </trkpt>
      <trkpt lat="45.87592" lon="4.67533">
        <ele>372.91027832031</ele>
        <time>2015-02-24T07:03:21Z</time>
      </trkpt>
      <trkpt lat="45.876" lon="4.67537">
        <ele>372.80023193359</ele>
        <time>2015-02-24T07:03:23Z</time>
      </trkpt>
      <trkpt lat="45.87607" lon="4.67539">
        <ele>372.75888061523</ele>
        <time>2015-02-24T07:03:25Z</time>
      </trkpt>
      <trkpt lat="45.87611" lon="4.6754">
        <ele>372.74960327148</ele>
        <time>2015-02-24T07:03:26Z</time>
      </trkpt>
      <trkpt lat="45.8763" lon="4.67545">
        <ele>372.60565185547</ele>
        <time>2015-02-24T07:03:31Z</time>
      </trkpt>
      <trkpt lat="45.87637" lon="4.67548">
        <ele>372.44482421875</ele>
        <time>2015-02-24T07:03:33Z</time>
      </trkpt>
      <trkpt lat="45.87644" lon="4.6755">
        <ele>372.33087158203</ele>
        <time>2015-02-24T07:03:35Z</time>
      </trkpt>
      <trkpt lat="45.87661" lon="4.67558">
        <ele>371.84936523438</ele>
        <time>2015-02-24T07:03:40Z</time>
      </trkpt>
      <trkpt lat="45.87679" lon="4.6757">
        <ele>371.05187988281</ele>
        <time>2015-02-24T07:03:45Z</time>
      </trkpt>
      <trkpt lat="45.87686" lon="4.67575">
        <ele>370.73760986328</ele>
        <time>2015-02-24T07:03:47Z</time>
      </trkpt>
      <trkpt lat="45.87702" lon="4.67588">
        <ele>370.25512695312</ele>
        <time>2015-02-24T07:03:52Z</time>
      </trkpt>
      <trkpt lat="45.87708" lon="4.67593">
        <ele>370.14950561523</ele>
        <time>2015-02-24T07:03:54Z</time>
      </trkpt>
      <trkpt lat="45.87724" lon="4.67605">
        <ele>370.0959777832</ele>
        <time>2015-02-24T07:03:59Z</time>
      </trkpt>
      <trkpt lat="45.87734" lon="4.67612">
        <ele>370.20483398438</ele>
        <time>2015-02-24T07:04:02Z</time>
      </trkpt>
      <trkpt lat="45.87754" lon="4.67622">
        <ele>370.75802612305</ele>
        <time>2015-02-24T07:04:08Z</time>
      </trkpt>
      <trkpt lat="45.87764" lon="4.67625">
        <ele>371.31198120117</ele>
        <time>2015-02-24T07:04:11Z</time>
      </trkpt>
      <trkpt lat="45.87767" lon="4.67626">
        <ele>371.5</ele>
        <time>2015-02-24T07:04:12Z</time>
      </trkpt>
      <trkpt lat="45.87788" lon="4.67632">
        <ele>372.59765625</ele>
        <time>2015-02-24T07:04:18Z</time>
      </trkpt>
      <trkpt lat="45.87791" lon="4.67633">
        <ele>372.75875854492</ele>
        <time>2015-02-24T07:04:19Z</time>
      </trkpt>
      <trkpt lat="45.87812" lon="4.67634">
        <ele>373.91873168945</ele>
        <time>2015-02-24T07:04:25Z</time>
      </trkpt>
      <trkpt lat="45.87819" lon="4.67635">
        <ele>374.30355834961</ele>
        <time>2015-02-24T07:04:27Z</time>
      </trkpt>
      <trkpt lat="45.87825" lon="4.67638">
        <ele>374.60089111328</ele>
        <time>2015-02-24T07:04:29Z</time>
      </trkpt>
      <trkpt lat="45.8784" lon="4.67641">
        <ele>374.66027832031</ele>
        <time>2015-02-24T07:04:33Z</time>
      </trkpt>
      <trkpt lat="45.8786" lon="4.67645">
        <ele>373.64025878906</ele>
        <time>2015-02-24T07:04:39Z</time>
      </trkpt>
      <trkpt lat="45.87873" lon="4.67649">
        <ele>373.02145385742</ele>
        <time>2015-02-24T07:04:43Z</time>
      </trkpt>
      <trkpt lat="45.87876" lon="4.6765">
        <ele>372.8576965332</ele>
        <time>2015-02-24T07:04:44Z</time>
      </trkpt>
      <trkpt lat="45.8789" lon="4.67658">
        <ele>372.12689208984</ele>
        <time>2015-02-24T07:04:49Z</time>
      </trkpt>
      <trkpt lat="45.87893" lon="4.67665">
        <ele>371.88729858398</ele>
        <time>2015-02-24T07:04:51Z</time>
      </trkpt>
      <trkpt lat="45.87893" lon="4.6767">
        <ele>371.74493408203</ele>
        <time>2015-02-24T07:04:52Z</time>
      </trkpt>
      <trkpt lat="45.87893" lon="4.67672">
        <ele>371.70095825195</ele>
        <time>2015-02-24T07:04:53Z</time>
      </trkpt>
      <trkpt lat="45.87892" lon="4.677">
        <ele>370.88415527344</ele>
        <time>2015-02-24T07:04:59Z</time>
      </trkpt>
      <trkpt lat="45.87886" lon="4.67727">
        <ele>370.04067993164</ele>
        <time>2015-02-24T07:05:06Z</time>
      </trkpt>
      <trkpt lat="45.87885" lon="4.67731">
        <ele>369.89358520508</ele>
        <time>2015-02-24T07:05:07Z</time>
      </trkpt>
      <trkpt lat="45.87886" lon="4.67748">
        <ele>369.33694458008</ele>
        <time>2015-02-24T07:05:11Z</time>
      </trkpt>
      <trkpt lat="45.87888" lon="4.6775">
        <ele>369.29278564453</ele>
        <time>2015-02-24T07:05:12Z</time>
      </trkpt>
      <trkpt lat="45.87894" lon="4.67753">
        <ele>369.23303222656</ele>
        <time>2015-02-24T07:05:14Z</time>
      </trkpt>
      <trkpt lat="45.87901" lon="4.67756">
        <ele>369.17059326172</ele>
        <time>2015-02-24T07:05:16Z</time>
      </trkpt>
      <trkpt lat="45.87913" lon="4.67765">
        <ele>368.84155273438</ele>
        <time>2015-02-24T07:05:20Z</time>
      </trkpt>
      <trkpt lat="45.87919" lon="4.67772">
        <ele>368.37329101562</ele>
        <time>2015-02-24T07:05:22Z</time>
      </trkpt>
      <trkpt lat="45.87925" lon="4.67783">
        <ele>367.40594482422</ele>
        <time>2015-02-24T07:05:25Z</time>
      </trkpt>
      <trkpt lat="45.87935" lon="4.67803">
        <ele>365.78405761719</ele>
        <time>2015-02-24T07:05:30Z</time>
      </trkpt>
      <trkpt lat="45.87938" lon="4.67808">
        <ele>365.38909912109</ele>
        <time>2015-02-24T07:05:31Z</time>
      </trkpt>
      <trkpt lat="45.87945" lon="4.67821">
        <ele>364.45513916016</ele>
        <time>2015-02-24T07:05:34Z</time>
      </trkpt>
      <trkpt lat="45.87948" lon="4.67823">
        <ele>364.30532836914</ele>
        <time>2015-02-24T07:05:35Z</time>
      </trkpt>
      <trkpt lat="45.87954" lon="4.67827">
        <ele>363.94201660156</ele>
        <time>2015-02-24T07:05:37Z</time>
      </trkpt>
      <trkpt lat="45.87963" lon="4.67832">
        <ele>363.5305480957</ele>
        <time>2015-02-24T07:05:40Z</time>
      </trkpt>
      <trkpt lat="45.87978" lon="4.67836">
        <ele>363.20086669922</ele>
        <time>2015-02-24T07:05:44Z</time>
      </trkpt>
      <trkpt lat="45.87981" lon="4.67837">
        <ele>363.12649536133</ele>
        <time>2015-02-24T07:05:45Z</time>
      </trkpt>
      <trkpt lat="45.87992" lon="4.67838">
        <ele>362.96362304688</ele>
        <time>2015-02-24T07:05:48Z</time>
      </trkpt>
      <trkpt lat="45.87996" lon="4.67839">
        <ele>362.90774536133</ele>
        <time>2015-02-24T07:05:49Z</time>
      </trkpt>
      <trkpt lat="45.87999" lon="4.67839">
        <ele>362.86898803711</ele>
        <time>2015-02-24T07:05:50Z</time>
      </trkpt>
      <trkpt lat="45.88007" lon="4.67841">
        <ele>362.87902832031</ele>
        <time>2015-02-24T07:05:52Z</time>
      </trkpt>
      <trkpt lat="45.8801" lon="4.67841">
        <ele>362.90158081055</ele>
        <time>2015-02-24T07:05:53Z</time>
      </trkpt>
      <trkpt lat="45.88017" lon="4.67842">
        <ele>362.92379760742</ele>
        <time>2015-02-24T07:05:55Z</time>
      </trkpt>
      <trkpt lat="45.88035" lon="4.67844">
        <ele>363.01779174805</ele>
        <time>2015-02-24T07:06:00Z</time>
      </trkpt>
      <trkpt lat="45.88038" lon="4.67844">
        <ele>363.03411865234</ele>
        <time>2015-02-24T07:06:01Z</time>
      </trkpt>
      <trkpt lat="45.88049" lon="4.67846">
        <ele>363.00384521484</ele>
        <time>2015-02-24T07:06:04Z</time>
      </trkpt>
      <trkpt lat="45.88058" lon="4.67848">
        <ele>362.95495605469</ele>
        <time>2015-02-24T07:06:07Z</time>
      </trkpt>
      <trkpt lat="45.88062" lon="4.6785">
        <ele>362.91131591797</ele>
        <time>2015-02-24T07:06:08Z</time>
      </trkpt>
      <trkpt lat="45.88068" lon="4.67852">
        <ele>362.80841064453</ele>
        <time>2015-02-24T07:06:10Z</time>
      </trkpt>
      <trkpt lat="45.88071" lon="4.67852">
        <ele>362.80307006836</ele>
        <time>2015-02-24T07:06:11Z</time>
      </trkpt>
      <trkpt lat="45.88074" lon="4.67855">
        <ele>362.67697143555</ele>
        <time>2015-02-24T07:06:12Z</time>
      </trkpt>
      <trkpt lat="45.8809" lon="4.67862">
        <ele>362.0612487793</ele>
        <time>2015-02-24T07:06:17Z</time>
      </trkpt>
      <trkpt lat="45.88097" lon="4.67866">
        <ele>361.63024902344</ele>
        <time>2015-02-24T07:06:19Z</time>
      </trkpt>
      <trkpt lat="45.88115" lon="4.67875">
        <ele>360.52548217773</ele>
        <time>2015-02-24T07:06:25Z</time>
      </trkpt>
      <trkpt lat="45.88118" lon="4.67878">
        <ele>360.27334594727</ele>
        <time>2015-02-24T07:06:26Z</time>
      </trkpt>
      <trkpt lat="45.8813" lon="4.67887">
        <ele>359.47012329102</ele>
        <time>2015-02-24T07:06:30Z</time>
      </trkpt>
      <trkpt lat="45.88142" lon="4.67897">
        <ele>358.60333251953</ele>
        <time>2015-02-24T07:06:34Z</time>
      </trkpt>
      <trkpt lat="45.88145" lon="4.67898">
        <ele>358.46136474609</ele>
        <time>2015-02-24T07:06:35Z</time>
      </trkpt>
      <trkpt lat="45.8816" lon="4.67911">
        <ele>357.43862915039</ele>
        <time>2015-02-24T07:06:40Z</time>
      </trkpt>
      <trkpt lat="45.88172" lon="4.67922">
        <ele>356.34167480469</ele>
        <time>2015-02-24T07:06:44Z</time>
      </trkpt>
      <trkpt lat="45.88174" lon="4.67923">
        <ele>356.05133056641</ele>
        <time>2015-02-24T07:06:45Z</time>
      </trkpt>
      <trkpt lat="45.88178" lon="4.67926">
        <ele>355.64025878906</ele>
        <time>2015-02-24T07:06:46Z</time>
      </trkpt>
      <trkpt lat="45.88181" lon="4.67928">
        <ele>355.35668945312</ele>
        <time>2015-02-24T07:06:47Z</time>
      </trkpt>
      <trkpt lat="45.88184" lon="4.67931">
        <ele>354.96871948242</ele>
        <time>2015-02-24T07:06:48Z</time>
      </trkpt>
      <trkpt lat="45.88187" lon="4.67934">
        <ele>354.62213134766</ele>
        <time>2015-02-24T07:06:49Z</time>
      </trkpt>
      <trkpt lat="45.8819" lon="4.67935">
        <ele>354.36392211914</ele>
        <time>2015-02-24T07:06:50Z</time>
      </trkpt>
      <trkpt lat="45.88197" lon="4.67939">
        <ele>353.68280029297</ele>
        <time>2015-02-24T07:06:52Z</time>
      </trkpt>
      <trkpt lat="45.882" lon="4.67941">
        <ele>353.35946655273</ele>
        <time>2015-02-24T07:06:53Z</time>
      </trkpt>
      <trkpt lat="45.8821" lon="4.67948">
        <ele>352.39730834961</ele>
        <time>2015-02-24T07:06:56Z</time>
      </trkpt>
      <trkpt lat="45.88212" lon="4.67949">
        <ele>352.18258666992</ele>
        <time>2015-02-24T07:06:57Z</time>
      </trkpt>
      <trkpt lat="45.88215" lon="4.67951">
        <ele>351.90832519531</ele>
        <time>2015-02-24T07:06:58Z</time>
      </trkpt>
      <trkpt lat="45.88224" lon="4.67955">
        <ele>351.22106933594</ele>
        <time>2015-02-24T07:07:01Z</time>
      </trkpt>
      <trkpt lat="45.88227" lon="4.67955">
        <ele>351.02453613281</ele>
        <time>2015-02-24T07:07:02Z</time>
      </trkpt>
      <trkpt lat="45.88231" lon="4.67956">
        <ele>350.775390625</ele>
        <time>2015-02-24T07:07:03Z</time>
      </trkpt>
      <trkpt lat="45.88234" lon="4.67957">
        <ele>350.52230834961</ele>
        <time>2015-02-24T07:07:04Z</time>
      </trkpt>
      <trkpt lat="45.88237" lon="4.67958">
        <ele>350.31140136719</ele>
        <time>2015-02-24T07:07:05Z</time>
      </trkpt>
      <trkpt lat="45.88241" lon="4.67959">
        <ele>349.99252319336</ele>
        <time>2015-02-24T07:07:06Z</time>
      </trkpt>
      <trkpt lat="45.88248" lon="4.67961">
        <ele>349.54568481445</ele>
        <time>2015-02-24T07:07:08Z</time>
      </trkpt>
      <trkpt lat="45.88251" lon="4.67961">
        <ele>349.33319091797</ele>
        <time>2015-02-24T07:07:09Z</time>
      </trkpt>
      <trkpt lat="45.88255" lon="4.67963">
        <ele>349.00338745117</ele>
        <time>2015-02-24T07:07:10Z</time>
      </trkpt>
      <trkpt lat="45.88261" lon="4.67966">
        <ele>348.38238525391</ele>
        <time>2015-02-24T07:07:12Z</time>
      </trkpt>
      <trkpt lat="45.88265" lon="4.67968">
        <ele>348.04504394531</ele>
        <time>2015-02-24T07:07:13Z</time>
      </trkpt>
      <trkpt lat="45.88268" lon="4.6797">
        <ele>347.77844238281</ele>
        <time>2015-02-24T07:07:14Z</time>
      </trkpt>
      <trkpt lat="45.88271" lon="4.67972">
        <ele>347.47027587891</ele>
        <time>2015-02-24T07:07:15Z</time>
      </trkpt>
      <trkpt lat="45.88283" lon="4.67984">
        <ele>346.3664855957</ele>
        <time>2015-02-24T07:07:19Z</time>
      </trkpt>
      <trkpt lat="45.88286" lon="4.67988">
        <ele>346.10021972656</ele>
        <time>2015-02-24T07:07:20Z</time>
      </trkpt>
      <trkpt lat="45.88293" lon="4.67999">
        <ele>345.41586303711</ele>
        <time>2015-02-24T07:07:23Z</time>
      </trkpt>
      <trkpt lat="45.88299" lon="4.68007">
        <ele>345.07214355469</ele>
        <time>2015-02-24T07:07:25Z</time>
      </trkpt>
      <trkpt lat="45.88301" lon="4.68011">
        <ele>344.95770263672</ele>
        <time>2015-02-24T07:07:26Z</time>
      </trkpt>
      <trkpt lat="45.88307" lon="4.68019">
        <ele>344.59149169922</ele>
        <time>2015-02-24T07:07:28Z</time>
      </trkpt>
      <trkpt lat="45.88309" lon="4.68022">
        <ele>344.45416259766</ele>
        <time>2015-02-24T07:07:29Z</time>
      </trkpt>
      <trkpt lat="45.88312" lon="4.68025">
        <ele>344.27105712891</ele>
        <time>2015-02-24T07:07:30Z</time>
      </trkpt>
      <trkpt lat="45.88315" lon="4.68028">
        <ele>344.11083984375</ele>
        <time>2015-02-24T07:07:31Z</time>
      </trkpt>
      <trkpt lat="45.88318" lon="4.68032">
        <ele>343.927734375</ele>
        <time>2015-02-24T07:07:32Z</time>
      </trkpt>
      <trkpt lat="45.88326" lon="4.6804">
        <ele>343.46997070312</ele>
        <time>2015-02-24T07:07:35Z</time>
      </trkpt>
      <trkpt lat="45.88329" lon="4.68043">
        <ele>343.24108886719</ele>
        <time>2015-02-24T07:07:36Z</time>
      </trkpt>
      <trkpt lat="45.88332" lon="4.68046">
        <ele>343.10375976562</ele>
        <time>2015-02-24T07:07:37Z</time>
      </trkpt>
      <trkpt lat="45.88335" lon="4.68048">
        <ele>342.87197875977</ele>
        <time>2015-02-24T07:07:38Z</time>
      </trkpt>
      <trkpt lat="45.88338" lon="4.68052">
        <ele>342.67788696289</ele>
        <time>2015-02-24T07:07:39Z</time>
      </trkpt>
      <trkpt lat="45.8834" lon="4.68054">
        <ele>342.48794555664</ele>
        <time>2015-02-24T07:07:40Z</time>
      </trkpt>
      <trkpt lat="45.88344" lon="4.68058">
        <ele>342.25521850586</ele>
        <time>2015-02-24T07:07:41Z</time>
      </trkpt>
      <trkpt lat="45.8835" lon="4.68063">
        <ele>341.88284301758</ele>
        <time>2015-02-24T07:07:43Z</time>
      </trkpt>
      <trkpt lat="45.88353" lon="4.68066">
        <ele>341.69659423828</ele>
        <time>2015-02-24T07:07:44Z</time>
      </trkpt>
      <trkpt lat="45.88362" lon="4.68072">
        <ele>341.15927124023</ele>
        <time>2015-02-24T07:07:47Z</time>
      </trkpt>
      <trkpt lat="45.88365" lon="4.68074">
        <ele>340.98742675781</ele>
        <time>2015-02-24T07:07:48Z</time>
      </trkpt>
      <trkpt lat="45.88367" lon="4.68077">
        <ele>340.87646484375</ele>
        <time>2015-02-24T07:07:49Z</time>
      </trkpt>
      <trkpt lat="45.88383" lon="4.68088">
        <ele>340.29998779297</ele>
        <time>2015-02-24T07:07:54Z</time>
      </trkpt>
      <trkpt lat="45.88398" lon="4.68101">
        <ele>340.16839599609</ele>
        <time>2015-02-24T07:07:59Z</time>
      </trkpt>
      <trkpt lat="45.88411" lon="4.6811">
        <ele>339.9938659668</ele>
        <time>2015-02-24T07:08:03Z</time>
      </trkpt>
      <trkpt lat="45.88414" lon="4.68112">
        <ele>339.92807006836</ele>
        <time>2015-02-24T07:08:04Z</time>
      </trkpt>
      <trkpt lat="45.88422" lon="4.68119">
        <ele>339.65612792969</ele>
        <time>2015-02-24T07:08:07Z</time>
      </trkpt>
      <trkpt lat="45.88432" lon="4.68125">
        <ele>339.25616455078</ele>
        <time>2015-02-24T07:08:10Z</time>
      </trkpt>
      <trkpt lat="45.88447" lon="4.68137">
        <ele>338.63189697266</ele>
        <time>2015-02-24T07:08:15Z</time>
      </trkpt>
      <trkpt lat="45.88462" lon="4.68148">
        <ele>338.09231567383</ele>
        <time>2015-02-24T07:08:20Z</time>
      </trkpt>
      <trkpt lat="45.88477" lon="4.68159">
        <ele>337.47088623047</ele>
        <time>2015-02-24T07:08:25Z</time>
      </trkpt>
      <trkpt lat="45.88481" lon="4.68162">
        <ele>337.31982421875</ele>
        <time>2015-02-24T07:08:26Z</time>
      </trkpt>
      <trkpt lat="45.88496" lon="4.68175">
        <ele>336.88745117188</ele>
        <time>2015-02-24T07:08:31Z</time>
      </trkpt>
      <trkpt lat="45.88514" lon="4.68191">
        <ele>336.50186157227</ele>
        <time>2015-02-24T07:08:37Z</time>
      </trkpt>
      <trkpt lat="45.88517" lon="4.68194">
        <ele>336.49737548828</ele>
        <time>2015-02-24T07:08:38Z</time>
      </trkpt>
      <trkpt lat="45.88519" lon="4.68197">
        <ele>336.48376464844</ele>
        <time>2015-02-24T07:08:39Z</time>
      </trkpt>
      <trkpt lat="45.88534" lon="4.68213">
        <ele>336.29431152344</ele>
        <time>2015-02-24T07:08:44Z</time>
      </trkpt>
      <trkpt lat="45.88539" lon="4.68219">
        <ele>336.23715209961</ele>
        <time>2015-02-24T07:08:46Z</time>
      </trkpt>
      <trkpt lat="45.88549" lon="4.68231">
        <ele>336.08673095703</ele>
        <time>2015-02-24T07:08:50Z</time>
      </trkpt>
      <trkpt lat="45.88562" lon="4.68247">
        <ele>335.81723022461</ele>
        <time>2015-02-24T07:08:55Z</time>
      </trkpt>
      <trkpt lat="45.88575" lon="4.68261">
        <ele>335.13201904297</ele>
        <time>2015-02-24T07:09:00Z</time>
      </trkpt>
      <trkpt lat="45.8858" lon="4.68276">
        <ele>335.27487182617</ele>
        <time>2015-02-24T07:09:04Z</time>
        <extensions>
          <visugpx:TrkExtension xmlns:visugpx="https://www.visugpx.com/editgpx/">
            <visugpx:node>1</visugpx:node>
            </visugpx:TrkExtension>
        </extensions>
      </trkpt>
      <trkpt lat="45.8858" lon="4.68268">
        <ele>336.6</ele>
      </trkpt>
      <trkpt lat="45.88603" lon="4.683">
        <ele>331</ele>
      </trkpt>
      <trkpt lat="45.88625" lon="4.6834">
        <ele>329.5</ele>
      </trkpt>
      <trkpt lat="45.88644" lon="4.6837">
        <ele>327.8</ele>
      </trkpt>
      <trkpt lat="45.88682" lon="4.68395">
        <ele>319.3</ele>
      </trkpt>
      <trkpt lat="45.88741" lon="4.68444">
        <ele>314.1</ele>
      </trkpt>
      <trkpt lat="45.88771" lon="4.68485">
        <ele>307.7</ele>
      </trkpt>
      <trkpt lat="45.88795" lon="4.68523">
        <ele>303.5</ele>
      </trkpt>
      <trkpt lat="45.88833" lon="4.68566">
        <ele>299.4</ele>
      </trkpt>
      <trkpt lat="45.88852" lon="4.68593">
        <ele>294.2</ele>
      </trkpt>
      <trkpt lat="45.88881" lon="4.68632">
        <ele>292.5</ele>
      </trkpt>
      <trkpt lat="45.88879" lon="4.68633">
        <ele>292.5</ele>
        <extensions>
          <visugpx:TrkExtension xmlns:visugpx="https://www.visugpx.com/editgpx/">
            <visugpx:node>2</visugpx:node>
            </visugpx:TrkExtension>
        </extensions>
      </trkpt>
      <trkpt lat="45.88881" lon="4.68632">
        <ele>292.5</ele>
      </trkpt>
      <trkpt lat="45.88915" lon="4.68685">
        <ele>288.6</ele>
      </trkpt>
      <trkpt lat="45.8893" lon="4.6871">
        <ele>288.3</ele>
      </trkpt>
      <trkpt lat="45.8895" lon="4.68758">
        <ele>286.3</ele>
      </trkpt>
      <trkpt lat="45.8897" lon="4.68807">
        <ele>285.8</ele>
        <extensions>
          <visugpx:TrkExtension xmlns:visugpx="https://www.visugpx.com/editgpx/">
            <visugpx:node>4</visugpx:node>
            </visugpx:TrkExtension>
        </extensions>
      </trkpt>
      <trkpt lat="45.8897" lon="4.68807">
        <ele>285.8</ele>
        <extensions>
          <visugpx:TrkExtension xmlns:visugpx="https://www.visugpx.com/editgpx/">
            <visugpx:node>4</visugpx:node>
            </visugpx:TrkExtension>
        </extensions>
      </trkpt>
      <trkpt lat="45.88969" lon="4.68807">
        <ele>285.8</ele>
        <extensions>
          <visugpx:TrkExtension xmlns:visugpx="https://www.visugpx.com/editgpx/">
            <visugpx:node>3</visugpx:node>
            </visugpx:TrkExtension>
        </extensions>
      </trkpt>
      <trkpt lat="45.8887" lon="4.68896">
        <ele>281.5</ele>
      </trkpt>
      <trkpt lat="45.88837" lon="4.68936">
        <ele>279.2</ele>
      </trkpt>
      <trkpt lat="45.8882" lon="4.68973">
        <ele>277.5</ele>
      </trkpt>
      <trkpt lat="45.88817" lon="4.68997">
        <ele>276.9</ele>
        <extensions>
          <visugpx:TrkExtension xmlns:visugpx="https://www.visugpx.com/editgpx/">
            <visugpx:node>4</visugpx:node>
            </visugpx:TrkExtension>
        </extensions>
      </trkpt>
      <trkpt lat="45.8881" lon="4.69039">
        <ele>274.8</ele>
      </trkpt>
      <trkpt lat="45.88805" lon="4.69132">
        <ele>272.7</ele>
      </trkpt>
      <trkpt lat="45.88802" lon="4.6921">
        <ele>271.6</ele>
      </trkpt>
      <trkpt lat="45.88804" lon="4.69279">
        <ele>270.8</ele>
        <extensions>
          <visugpx:TrkExtension xmlns:visugpx="https://www.visugpx.com/editgpx/">
            <visugpx:node>5</visugpx:node>
            </visugpx:TrkExtension>
        </extensions>
      </trkpt>
      <trkpt lat="45.88804" lon="4.69293">
        <ele>270.7</ele>
        <extensions>
          <visugpx:TrkExtension xmlns:visugpx="https://www.visugpx.com/editgpx/">
            <visugpx:node>7</visugpx:node>
            </visugpx:TrkExtension>
        </extensions>
      </trkpt>
      <trkpt lat="45.88808" lon="4.69305">
        <ele>271.00561523438</ele>
        <time>2015-02-24T06:04:12Z</time>
      </trkpt>
      <trkpt lat="45.88825" lon="4.69303">
        <ele>271.6819152832</ele>
        <time>2015-02-24T06:04:18Z</time>
      </trkpt>
      <trkpt lat="45.88834" lon="4.693">
        <ele>271.99453735352</ele>
        <time>2015-02-24T06:04:21Z</time>
      </trkpt>
      <trkpt lat="45.88836" lon="4.69298">
        <ele>271.94390869141</ele>
        <time>2015-02-24T06:04:22Z</time>
      </trkpt>
      <trkpt lat="45.88845" lon="4.69292">
        <ele>271.79516601562</ele>
        <time>2015-02-24T06:04:25Z</time>
      </trkpt>
      <trkpt lat="45.88852" lon="4.69285">
        <ele>271.67712402344</ele>
        <time>2015-02-24T06:04:28Z</time>
      </trkpt>
      <trkpt lat="45.88855" lon="4.69283">
        <ele>271.63125610352</ele>
        <time>2015-02-24T06:04:29Z</time>
      </trkpt>
      <trkpt lat="45.88858" lon="4.69281">
        <ele>271.59994506836</ele>
        <time>2015-02-24T06:04:30Z</time>
      </trkpt>
      <trkpt lat="45.88865" lon="4.69274">
        <ele>271.5055847168</ele>
        <time>2015-02-24T06:04:33Z</time>
      </trkpt>
      <trkpt lat="45.88874" lon="4.69267">
        <ele>271.41586303711</ele>
        <time>2015-02-24T06:04:36Z</time>
      </trkpt>
      <trkpt lat="45.88889" lon="4.69253">
        <ele>271.31530761719</ele>
        <time>2015-02-24T06:04:42Z</time>
      </trkpt>
      <trkpt lat="45.88891" lon="4.6925">
        <ele>271.30407714844</ele>
        <time>2015-02-24T06:04:43Z</time>
      </trkpt>
      <trkpt lat="45.88894" lon="4.69248">
        <ele>271.31634521484</ele>
        <time>2015-02-24T06:04:44Z</time>
      </trkpt>
      <trkpt lat="45.88896" lon="4.69245">
        <ele>271.33453369141</ele>
        <time>2015-02-24T06:04:45Z</time>
      </trkpt>
      <trkpt lat="45.88901" lon="4.69241">
        <ele>271.36770629883</ele>
        <time>2015-02-24T06:04:47Z</time>
      </trkpt>
      <trkpt lat="45.88912" lon="4.69232">
        <ele>271.46640014648</ele>
        <time>2015-02-24T06:04:51Z</time>
      </trkpt>
      <trkpt lat="45.88927" lon="4.69226">
        <ele>271.66323852539</ele>
        <time>2015-02-24T06:04:56Z</time>
      </trkpt>
      <trkpt lat="45.8893" lon="4.69225">
        <ele>271.70510864258</ele>
        <time>2015-02-24T06:04:57Z</time>
      </trkpt>
      <trkpt lat="45.88945" lon="4.69223">
        <ele>271.88244628906</ele>
        <time>2015-02-24T06:05:02Z</time>
      </trkpt>
      <trkpt lat="45.8896" lon="4.69219">
        <ele>272.07141113281</ele>
        <time>2015-02-24T06:05:07Z</time>
      </trkpt>
      <trkpt lat="45.88967" lon="4.69218">
        <ele>272.14077758789</ele>
        <time>2015-02-24T06:05:09Z</time>
      </trkpt>
      <trkpt lat="45.88973" lon="4.69215">
        <ele>272.22900390625</ele>
        <time>2015-02-24T06:05:11Z</time>
      </trkpt>
      <trkpt lat="45.88973" lon="4.69215">
        <ele>272.22900390625</ele>
        <time>2015-02-24T06:05:11Z</time>
      </trkpt>
      <trkpt lat="45.88992" lon="4.69209">
        <ele>272.44421386719</ele>
        <time>2015-02-24T06:05:17Z</time>
      </trkpt>
      <trkpt lat="45.8901" lon="4.69202">
        <ele>272.54626464844</ele>
        <time>2015-02-24T06:05:23Z</time>
      </trkpt>
      <trkpt lat="45.89019" lon="4.692">
        <ele>272.55935668945</ele>
        <time>2015-02-24T06:05:26Z</time>
      </trkpt>
      <trkpt lat="45.89034" lon="4.69198">
        <ele>272.57806396484</ele>
        <time>2015-02-24T06:05:31Z</time>
      </trkpt>
      <trkpt lat="45.89052" lon="4.69204">
        <ele>272.32345581055</ele>
        <time>2015-02-24T06:05:37Z</time>
      </trkpt>
      <trkpt lat="45.89065" lon="4.69217">
        <ele>271.75457763672</ele>
        <time>2015-02-24T06:05:42Z</time>
      </trkpt>
      <trkpt lat="45.8908" lon="4.69233">
        <ele>270.84707641602</ele>
        <time>2015-02-24T06:05:48Z</time>
      </trkpt>
      <trkpt lat="45.89083" lon="4.69236">
        <ele>270.67657470703</ele>
        <time>2015-02-24T06:05:49Z</time>
      </trkpt>
      <trkpt lat="45.89093" lon="4.69247">
        <ele>270.0163269043</ele>
        <time>2015-02-24T06:05:53Z</time>
      </trkpt>
      <trkpt lat="45.89096" lon="4.6925">
        <ele>269.86358642578</ele>
        <time>2015-02-24T06:05:54Z</time>
      </trkpt>
      <trkpt lat="45.89111" lon="4.69265">
        <ele>268.93688964844</ele>
        <time>2015-02-24T06:06:00Z</time>
      </trkpt>
      <trkpt lat="45.89114" lon="4.69268">
        <ele>268.79040527344</ele>
        <time>2015-02-24T06:06:01Z</time>
      </trkpt>
      <trkpt lat="45.89116" lon="4.6927">
        <ele>268.68222045898</ele>
        <time>2015-02-24T06:06:02Z</time>
      </trkpt>
      <trkpt lat="45.89129" lon="4.69281">
        <ele>268.20123291016</ele>
        <time>2015-02-24T06:06:07Z</time>
      </trkpt>
      <trkpt lat="45.89142" lon="4.69291">
        <ele>267.8669128418</ele>
        <time>2015-02-24T06:06:12Z</time>
      </trkpt>
      <trkpt lat="45.89145" lon="4.69293">
        <ele>267.82800292969</ele>
        <time>2015-02-24T06:06:13Z</time>
      </trkpt>
      <trkpt lat="45.89156" lon="4.69298">
        <ele>267.74746704102</ele>
        <time>2015-02-24T06:06:17Z</time>
      </trkpt>
      <trkpt lat="45.89163" lon="4.69301">
        <ele>267.73907470703</ele>
        <time>2015-02-24T06:06:19Z</time>
      </trkpt>
      <trkpt lat="45.89165" lon="4.69302">
        <ele>267.74826049805</ele>
        <time>2015-02-24T06:06:20Z</time>
      </trkpt>
      <trkpt lat="45.89172" lon="4.69305">
        <ele>267.47604370117</ele>
        <time>2015-02-24T06:06:22Z</time>
      </trkpt>
      <trkpt lat="45.89175" lon="4.69306">
        <ele>267.33834838867</ele>
        <time>2015-02-24T06:06:23Z</time>
      </trkpt>
      <trkpt lat="45.89181" lon="4.69309">
        <ele>267.03067016602</ele>
        <time>2015-02-24T06:06:25Z</time>
      </trkpt>
      <trkpt lat="45.8919" lon="4.69313">
        <ele>266.56237792969</ele>
        <time>2015-02-24T06:06:28Z</time>
      </trkpt>
      <trkpt lat="45.89193" lon="4.69315">
        <ele>266.42672729492</ele>
        <time>2015-02-24T06:06:29Z</time>
      </trkpt>
      <trkpt lat="45.89202" lon="4.6932">
        <ele>265.96099853516</ele>
        <time>2015-02-24T06:06:32Z</time>
      </trkpt>
      <trkpt lat="45.89205" lon="4.69322">
        <ele>265.82894897461</ele>
        <time>2015-02-24T06:06:33Z</time>
      </trkpt>
      <trkpt lat="45.89211" lon="4.69324">
        <ele>265.55874633789</ele>
        <time>2015-02-24T06:06:35Z</time>
      </trkpt>
      <trkpt lat="45.8922" lon="4.69328">
        <ele>265.17272949219</ele>
        <time>2015-02-24T06:06:38Z</time>
      </trkpt>
      <trkpt lat="45.89225" lon="4.69331">
        <ele>264.9211730957</ele>
        <time>2015-02-24T06:06:40Z</time>
      </trkpt>
      <trkpt lat="45.89234" lon="4.69335">
        <ele>264.51593017578</ele>
        <time>2015-02-24T06:06:43Z</time>
      </trkpt>
      <trkpt lat="45.89243" lon="4.69339">
        <ele>264.04901123047</ele>
        <time>2015-02-24T06:06:46Z</time>
      </trkpt>
      <trkpt lat="45.89258" lon="4.69346">
        <ele>263.37561035156</ele>
        <time>2015-02-24T06:06:51Z</time>
      </trkpt>
      <trkpt lat="45.89267" lon="4.6935">
        <ele>263.04318237305</ele>
        <time>2015-02-24T06:06:54Z</time>
      </trkpt>
      <trkpt lat="45.89273" lon="4.69352">
        <ele>262.85202026367</ele>
        <time>2015-02-24T06:06:56Z</time>
      </trkpt>
      <trkpt lat="45.89291" lon="4.6936">
        <ele>262.22344970703</ele>
        <time>2015-02-24T06:07:02Z</time>
      </trkpt>
      <trkpt lat="45.89306" lon="4.69366">
        <ele>261.75704956055</ele>
        <time>2015-02-24T06:07:07Z</time>
      </trkpt>
      <trkpt lat="45.89312" lon="4.69367">
        <ele>261.619140625</ele>
        <time>2015-02-24T06:07:09Z</time>
      </trkpt>
      <trkpt lat="45.89324" lon="4.69372">
        <ele>261.23583984375</ele>
        <time>2015-02-24T06:07:13Z</time>
      </trkpt>
      <trkpt lat="45.89336" lon="4.69378">
        <ele>260.65383911133</ele>
        <time>2015-02-24T06:07:17Z</time>
      </trkpt>
      <trkpt lat="45.89342" lon="4.69381">
        <ele>260.0149230957</ele>
        <time>2015-02-24T06:07:19Z</time>
      </trkpt>
      <trkpt lat="45.89348" lon="4.69385">
        <ele>259.30740356445</ele>
        <time>2015-02-24T06:07:21Z</time>
      </trkpt>
      <trkpt lat="45.89359" lon="4.69391">
        <ele>258.14950561523</ele>
        <time>2015-02-24T06:07:25Z</time>
      </trkpt>
      <trkpt lat="45.89362" lon="4.69392">
        <ele>257.84609985352</ele>
        <time>2015-02-24T06:07:26Z</time>
      </trkpt>
      <trkpt lat="45.89374" lon="4.694">
        <ele>256.67910766602</ele>
        <time>2015-02-24T06:07:30Z</time>
      </trkpt>
      <trkpt lat="45.89377" lon="4.69403">
        <ele>256.41772460938</ele>
        <time>2015-02-24T06:07:31Z</time>
      </trkpt>
      <trkpt lat="45.89384" lon="4.69413">
        <ele>255.74578857422</ele>
        <time>2015-02-24T06:07:34Z</time>
      </trkpt>
      <trkpt lat="45.89389" lon="4.69419">
        <ele>255.24462890625</ele>
        <time>2015-02-24T06:07:36Z</time>
      </trkpt>
      <trkpt lat="45.89395" lon="4.6943">
        <ele>254.40635681152</ele>
        <time>2015-02-24T06:07:39Z</time>
      </trkpt>
      <trkpt lat="45.89402" lon="4.69441">
        <ele>253.53425598144</ele>
        <time>2015-02-24T06:07:42Z</time>
      </trkpt>
      <trkpt lat="45.89411" lon="4.69456">
        <ele>252.447265625</ele>
        <time>2015-02-24T06:07:46Z</time>
      </trkpt>
      <trkpt lat="45.89413" lon="4.6946">
        <ele>252.18251037598</ele>
        <time>2015-02-24T06:07:47Z</time>
      </trkpt>
      <trkpt lat="45.8942" lon="4.69472">
        <ele>251.52667236328</ele>
        <time>2015-02-24T06:07:50Z</time>
      </trkpt>
      <trkpt lat="45.89425" lon="4.69483">
        <ele>250.99406433106</ele>
        <time>2015-02-24T06:07:53Z</time>
      </trkpt>
      <trkpt lat="45.89431" lon="4.69495">
        <ele>250.45053100586</ele>
        <time>2015-02-24T06:07:56Z</time>
      </trkpt>
      <trkpt lat="45.89437" lon="4.69506">
        <ele>249.91819763184</ele>
        <time>2015-02-24T06:07:59Z</time>
      </trkpt>
      <trkpt lat="45.89438" lon="4.6951">
        <ele>249.76052856445</ele>
        <time>2015-02-24T06:08:00Z</time>
      </trkpt>
      <trkpt lat="45.89446" lon="4.69523">
        <ele>249.12747192383</ele>
        <time>2015-02-24T06:08:04Z</time>
      </trkpt>
      <trkpt lat="45.89448" lon="4.69527">
        <ele>248.9708404541</ele>
        <time>2015-02-24T06:08:05Z</time>
      </trkpt>
      <trkpt lat="45.8945" lon="4.69532">
        <ele>248.80790710449</ele>
        <time>2015-02-24T06:08:06Z</time>
      </trkpt>
      <trkpt lat="45.8946" lon="4.69553">
        <ele>248.00137329102</ele>
        <time>2015-02-24T06:08:12Z</time>
      </trkpt>
      <trkpt lat="45.89462" lon="4.69557">
        <ele>247.85568237305</ele>
        <time>2015-02-24T06:08:13Z</time>
      </trkpt>
      <trkpt lat="45.89466" lon="4.69568">
        <ele>247.48161315918</ele>
        <time>2015-02-24T06:08:16Z</time>
      </trkpt>
      <trkpt lat="45.89468" lon="4.69571">
        <ele>247.35011291504</ele>
        <time>2015-02-24T06:08:17Z</time>
      </trkpt>
      <trkpt lat="45.8947" lon="4.69575">
        <ele>247.23004150391</ele>
        <time>2015-02-24T06:08:18Z</time>
      </trkpt>
      <trkpt lat="45.89474" lon="4.69587">
        <ele>246.78842163086</ele>
        <time>2015-02-24T06:08:21Z</time>
      </trkpt>
      <trkpt lat="45.89484" lon="4.69604">
        <ele>245.77040100098</ele>
        <time>2015-02-24T06:08:26Z</time>
      </trkpt>
      <trkpt lat="45.89489" lon="4.69611">
        <ele>245.35787963867</ele>
        <time>2015-02-24T06:08:28Z</time>
      </trkpt>
      <trkpt lat="45.89495" lon="4.6962">
        <ele>244.83778381348</ele>
        <time>2015-02-24T06:08:31Z</time>
      </trkpt>
      <trkpt lat="45.89498" lon="4.69628">
        <ele>244.45831298828</ele>
        <time>2015-02-24T06:08:33Z</time>
      </trkpt>
      <trkpt lat="45.89505" lon="4.69638">
        <ele>243.85946655273</ele>
        <time>2015-02-24T06:08:36Z</time>
      </trkpt>
      <trkpt lat="45.89507" lon="4.69642">
        <ele>243.62728881836</ele>
        <time>2015-02-24T06:08:37Z</time>
      </trkpt>
      <trkpt lat="45.89512" lon="4.69648">
        <ele>243.19375610352</ele>
        <time>2015-02-24T06:08:39Z</time>
      </trkpt>
      <trkpt lat="45.89514" lon="4.69652">
        <ele>243.01310729981</ele>
        <time>2015-02-24T06:08:40Z</time>
      </trkpt>
      <trkpt lat="45.89516" lon="4.69655">
        <ele>242.81172180176</ele>
        <time>2015-02-24T06:08:41Z</time>
      </trkpt>
      <trkpt lat="45.89521" lon="4.69661">
        <ele>242.41592407227</ele>
        <time>2015-02-24T06:08:43Z</time>
      </trkpt>
      <trkpt lat="45.89524" lon="4.69664">
        <ele>242.22764587402</ele>
        <time>2015-02-24T06:08:44Z</time>
      </trkpt>
      <trkpt lat="45.89525" lon="4.69667">
        <ele>242.06996154785</ele>
        <time>2015-02-24T06:08:45Z</time>
      </trkpt>
      <trkpt lat="45.89529" lon="4.69673">
        <ele>241.46067810059</ele>
        <time>2015-02-24T06:08:47Z</time>
      </trkpt>
      <trkpt lat="45.89532" lon="4.69676">
        <ele>241.11334228516</ele>
        <time>2015-02-24T06:08:48Z</time>
      </trkpt>
      <trkpt lat="45.89533" lon="4.69679">
        <ele>240.88418579102</ele>
        <time>2015-02-24T06:08:49Z</time>
      </trkpt>
      <trkpt lat="45.89536" lon="4.69682">
        <ele>240.51481628418</ele>
        <time>2015-02-24T06:08:50Z</time>
      </trkpt>
      <trkpt lat="45.89539" lon="4.69685">
        <ele>240.15388488769</ele>
        <time>2015-02-24T06:08:51Z</time>
      </trkpt>
      <trkpt lat="45.8954" lon="4.69688">
        <ele>239.931640625</ele>
        <time>2015-02-24T06:08:52Z</time>
      </trkpt>
      <trkpt lat="45.89543" lon="4.69691">
        <ele>239.54423522949</ele>
        <time>2015-02-24T06:08:53Z</time>
      </trkpt>
      <trkpt lat="45.89547" lon="4.69698">
        <ele>238.87884521484</ele>
        <time>2015-02-24T06:08:55Z</time>
      </trkpt>
      <trkpt lat="45.89553" lon="4.69706">
        <ele>237.95913696289</ele>
        <time>2015-02-24T06:08:58Z</time>
      </trkpt>
      <trkpt lat="45.89558" lon="4.6971">
        <ele>237.39225769043</ele>
        <time>2015-02-24T06:09:00Z</time>
      </trkpt>
      <trkpt lat="45.89561" lon="4.69713">
        <ele>237.02806091309</ele>
        <time>2015-02-24T06:09:01Z</time>
      </trkpt>
      <trkpt lat="45.89573" lon="4.69723">
        <ele>235.74197387695</ele>
        <time>2015-02-24T06:09:05Z</time>
      </trkpt>
      <trkpt lat="45.89578" lon="4.69727">
        <ele>235.15998840332</ele>
        <time>2015-02-24T06:09:07Z</time>
      </trkpt>
      <trkpt lat="45.8959" lon="4.69735">
        <ele>234.22448730469</ele>
        <time>2015-02-24T06:09:11Z</time>
      </trkpt>
      <trkpt lat="45.89596" lon="4.69737">
        <ele>234.0166015625</ele>
        <time>2015-02-24T06:09:13Z</time>
      </trkpt>
      <trkpt lat="45.89611" lon="4.69742">
        <ele>233.53199768066</ele>
        <time>2015-02-24T06:09:18Z</time>
      </trkpt>
      <trkpt lat="45.89614" lon="4.69744">
        <ele>233.41740417481</ele>
        <time>2015-02-24T06:09:19Z</time>
      </trkpt>
      <trkpt lat="45.89624" lon="4.69746">
        <ele>233.2188873291</ele>
        <time>2015-02-24T06:09:22Z</time>
      </trkpt>
      <trkpt lat="45.89627" lon="4.69748">
        <ele>233.12202453613</ele>
        <time>2015-02-24T06:09:23Z</time>
      </trkpt>
      <trkpt lat="45.89636" lon="4.69752">
        <ele>232.88999938965</ele>
        <time>2015-02-24T06:09:26Z</time>
      </trkpt>
      <trkpt lat="45.89648" lon="4.69758">
        <ele>232.55087280273</ele>
        <time>2015-02-24T06:09:30Z</time>
      </trkpt>
      <trkpt lat="45.89654" lon="4.69763">
        <ele>232.24105834961</ele>
        <time>2015-02-24T06:09:32Z</time>
      </trkpt>
      <trkpt lat="45.89658" lon="4.6977">
        <ele>231.8518371582</ele>
        <time>2015-02-24T06:09:34Z</time>
      </trkpt>
      <trkpt lat="45.89665" lon="4.6978">
        <ele>231.21098327637</ele>
        <time>2015-02-24T06:09:37Z</time>
      </trkpt>
      <trkpt lat="45.89668" lon="4.69783">
        <ele>230.98045349121</ele>
        <time>2015-02-24T06:09:38Z</time>
      </trkpt>
      <trkpt lat="45.89682" lon="4.69802">
        <ele>229.61578369141</ele>
        <time>2015-02-24T06:09:44Z</time>
      </trkpt>
      <trkpt lat="45.89688" lon="4.69811">
        <ele>229.06170654297</ele>
        <time>2015-02-24T06:09:47Z</time>
      </trkpt>
      <trkpt lat="45.89694" lon="4.69821">
        <ele>228.54745483398</ele>
        <time>2015-02-24T06:09:50Z</time>
      </trkpt>
      <trkpt lat="45.89697" lon="4.69824">
        <ele>228.38822937012</ele>
        <time>2015-02-24T06:09:51Z</time>
      </trkpt>
      <trkpt lat="45.89702" lon="4.6983">
        <ele>228.11965942383</ele>
        <time>2015-02-24T06:09:53Z</time>
      </trkpt>
      <trkpt lat="45.89713" lon="4.69848">
        <ele>227.58108520508</ele>
        <time>2015-02-24T06:09:58Z</time>
      </trkpt>
      <trkpt lat="45.89721" lon="4.69858">
        <ele>227.30393981934</ele>
        <time>2015-02-24T06:10:01Z</time>
      </trkpt>
      <trkpt lat="45.89724" lon="4.69861">
        <ele>227.23655700684</ele>
        <time>2015-02-24T06:10:02Z</time>
      </trkpt>
      <trkpt lat="45.89726" lon="4.69865">
        <ele>227.1434173584</ele>
        <time>2015-02-24T06:10:03Z</time>
      </trkpt>
      <trkpt lat="45.8973" lon="4.69866">
        <ele>227.11047363281</ele>
        <time>2015-02-24T06:10:04Z</time>
      </trkpt>
      <trkpt lat="45.89733" lon="4.69873">
        <ele>226.9582824707</ele>
        <time>2015-02-24T06:10:06Z</time>
      </trkpt>
      <trkpt lat="45.89735" lon="4.69876">
        <ele>226.87785339356</ele>
        <time>2015-02-24T06:10:07Z</time>
      </trkpt>
      <trkpt lat="45.89738" lon="4.6988">
        <ele>226.80941772461</ele>
        <time>2015-02-24T06:10:08Z</time>
      </trkpt>
      <trkpt lat="45.89743" lon="4.69891">
        <ele>226.55009460449</ele>
        <time>2015-02-24T06:10:11Z</time>
      </trkpt>
      <trkpt lat="45.8975" lon="4.69903">
        <ele>226.31884765625</ele>
        <time>2015-02-24T06:10:14Z</time>
      </trkpt>
      <trkpt lat="45.89753" lon="4.69911">
        <ele>226.09239196777</ele>
        <time>2015-02-24T06:10:16Z</time>
      </trkpt>
      <trkpt lat="45.89755" lon="4.69914">
        <ele>225.99168395996</ele>
        <time>2015-02-24T06:10:17Z</time>
      </trkpt>
      <trkpt lat="45.89761" lon="4.69921">
        <ele>225.70980834961</ele>
        <time>2015-02-24T06:10:19Z</time>
      </trkpt>
      <trkpt lat="45.89766" lon="4.69932">
        <ele>225.27436828613</ele>
        <time>2015-02-24T06:10:21Z</time>
      </trkpt>
      <trkpt lat="45.89769" lon="4.69936">
        <ele>225.12657165527</ele>
        <time>2015-02-24T06:10:22Z</time>
      </trkpt>
      <trkpt lat="45.89771" lon="4.6994">
        <ele>224.96710205078</ele>
        <time>2015-02-24T06:10:23Z</time>
      </trkpt>
      <trkpt lat="45.89778" lon="4.6995">
        <ele>224.5983581543</ele>
        <time>2015-02-24T06:10:26Z</time>
      </trkpt>
      <trkpt lat="45.89783" lon="4.69963">
        <ele>224.15727233887</ele>
        <time>2015-02-24T06:10:29Z</time>
      </trkpt>
      <trkpt lat="45.89787" lon="4.69967">
        <ele>224.01637268066</ele>
        <time>2015-02-24T06:10:31Z</time>
      </trkpt>
      <trkpt lat="45.89801" lon="4.69982">
        <ele>223.5224609375</ele>
        <time>2015-02-24T06:10:37Z</time>
      </trkpt>
      <trkpt lat="45.89806" lon="4.69984">
        <ele>223.4446105957</ele>
        <time>2015-02-24T06:10:39Z</time>
      </trkpt>
      <trkpt lat="45.8981" lon="4.69987">
        <ele>223.34330749512</ele>
        <time>2015-02-24T06:10:41Z</time>
      </trkpt>
      <trkpt lat="45.89813" lon="4.69989">
        <ele>223.30444335938</ele>
        <time>2015-02-24T06:10:42Z</time>
      </trkpt>
      <trkpt lat="45.89822" lon="4.69989">
        <ele>223.28343200684</ele>
        <time>2015-02-24T06:10:45Z</time>
      </trkpt>
      <trkpt lat="45.89829" lon="4.69989">
        <ele>223.26602172852</ele>
        <time>2015-02-24T06:10:47Z</time>
      </trkpt>
      <trkpt lat="45.89831" lon="4.69991">
        <ele>223.23001098633</ele>
        <time>2015-02-24T06:10:48Z</time>
      </trkpt>
      <trkpt lat="45.89835" lon="4.6999">
        <ele>223.23391723633</ele>
        <time>2015-02-24T06:10:49Z</time>
      </trkpt>
      <trkpt lat="45.89849" lon="4.69991">
        <ele>223.21789550781</ele>
        <time>2015-02-24T06:10:53Z</time>
      </trkpt>
      <trkpt lat="45.89861" lon="4.69992">
        <ele>223.18241882324</ele>
        <time>2015-02-24T06:10:57Z</time>
      </trkpt>
      <trkpt lat="45.89867" lon="4.69994">
        <ele>223.15037536621</ele>
        <time>2015-02-24T06:10:59Z</time>
      </trkpt>
      <trkpt lat="45.89872" lon="4.69995">
        <ele>223.10917663574</ele>
        <time>2015-02-24T06:11:01Z</time>
      </trkpt>
      <trkpt lat="45.89877" lon="4.69997">
        <ele>223.08056640625</ele>
        <time>2015-02-24T06:11:03Z</time>
      </trkpt>
      <trkpt lat="45.89881" lon="4.69996">
        <ele>223.08514404297</ele>
        <time>2015-02-24T06:11:04Z</time>
      </trkpt>
      <trkpt lat="45.89884" lon="4.69998">
        <ele>223.0553894043</ele>
        <time>2015-02-24T06:11:05Z</time>
      </trkpt>
      <trkpt lat="45.89887" lon="4.69999">
        <ele>223.01647949219</ele>
        <time>2015-02-24T06:11:06Z</time>
      </trkpt>
      <trkpt lat="45.89899" lon="4.70007">
        <ele>222.81829833984</ele>
        <time>2015-02-24T06:11:10Z</time>
      </trkpt>
      <trkpt lat="45.89902" lon="4.70009">
        <ele>222.76856994629</ele>
        <time>2015-02-24T06:11:11Z</time>
      </trkpt>
      <trkpt lat="45.89908" lon="4.70012">
        <ele>222.70283508301</ele>
        <time>2015-02-24T06:11:13Z</time>
      </trkpt>
      <trkpt lat="45.8991" lon="4.70012">
        <ele>222.70671081543</ele>
        <time>2015-02-24T06:11:14Z</time>
      </trkpt>
      <trkpt lat="45.89914" lon="4.70013">
        <ele>222.67289733887</ele>
        <time>2015-02-24T06:11:15Z</time>
      </trkpt>
      <trkpt lat="45.89919" lon="4.70017">
        <ele>222.6862487793</ele>
        <time>2015-02-24T06:11:17Z</time>
      </trkpt>
      <trkpt lat="45.89927" lon="4.70023">
        <ele>222.86299133301</ele>
        <time>2015-02-24T06:11:20Z</time>
      </trkpt>
      <trkpt lat="45.89946" lon="4.70027">
        <ele>223.40089416504</ele>
        <time>2015-02-24T06:11:26Z</time>
      </trkpt>
      <trkpt lat="45.89952" lon="4.70028">
        <ele>223.57037353516</ele>
        <time>2015-02-24T06:11:28Z</time>
      </trkpt>
      <trkpt lat="45.89955" lon="4.70028">
        <ele>223.6891784668</ele>
        <time>2015-02-24T06:11:29Z</time>
      </trkpt>
      <trkpt lat="45.89962" lon="4.70028">
        <ele>223.93719482422</ele>
        <time>2015-02-24T06:11:31Z</time>
      </trkpt>
      <trkpt lat="45.89973" lon="4.70028">
        <ele>224.35192871094</ele>
        <time>2015-02-24T06:11:35Z</time>
      </trkpt>
      <trkpt lat="45.89977" lon="4.70029">
        <ele>224.43576049805</ele>
        <time>2015-02-24T06:11:36Z</time>
      </trkpt>
      <trkpt lat="45.8998" lon="4.7003">
        <ele>224.52635192871</ele>
        <time>2015-02-24T06:11:37Z</time>
      </trkpt>
      <trkpt lat="45.89983" lon="4.7003">
        <ele>224.60850524902</ele>
        <time>2015-02-24T06:11:38Z</time>
      </trkpt>
      <trkpt lat="45.89989" lon="4.70031">
        <ele>224.77169799805</ele>
        <time>2015-02-24T06:11:40Z</time>
      </trkpt>
      <trkpt lat="45.89992" lon="4.70031">
        <ele>224.86134338379</ele>
        <time>2015-02-24T06:11:41Z</time>
      </trkpt>
      <trkpt lat="45.90001" lon="4.70032">
        <ele>225.09915161133</ele>
        <time>2015-02-24T06:11:44Z</time>
      </trkpt>
      <trkpt lat="45.90017" lon="4.70032">
        <ele>225.63101196289</ele>
        <time>2015-02-24T06:11:49Z</time>
      </trkpt>
      <trkpt lat="45.9002" lon="4.70031">
        <ele>225.73892211914</ele>
        <time>2015-02-24T06:11:50Z</time>
      </trkpt>
      <trkpt lat="45.90038" lon="4.70028">
        <ele>226.51560974121</ele>
        <time>2015-02-24T06:11:56Z</time>
      </trkpt>
      <trkpt lat="45.90041" lon="4.70028">
        <ele>226.61904907227</ele>
        <time>2015-02-24T06:11:57Z</time>
      </trkpt>
      <trkpt lat="45.90053" lon="4.70027">
        <ele>227.10578918457</ele>
        <time>2015-02-24T06:12:01Z</time>
      </trkpt>
      <trkpt lat="45.90059" lon="4.70025">
        <ele>227.39352416992</ele>
        <time>2015-02-24T06:12:03Z</time>
      </trkpt>
      <trkpt lat="45.90068" lon="4.70024">
        <ele>227.78955078125</ele>
        <time>2015-02-24T06:12:06Z</time>
      </trkpt>
      <trkpt lat="45.90081" lon="4.70022">
        <ele>228.34967041016</ele>
        <time>2015-02-24T06:12:10Z</time>
      </trkpt>
      <trkpt lat="45.9009" lon="4.7002">
        <ele>228.52578735352</ele>
        <time>2015-02-24T06:12:13Z</time>
      </trkpt>
      <trkpt lat="45.90093" lon="4.70018">
        <ele>228.62626647949</ele>
        <time>2015-02-24T06:12:14Z</time>
      </trkpt>
      <trkpt lat="45.90099" lon="4.70016">
        <ele>228.71304321289</ele>
        <time>2015-02-24T06:12:16Z</time>
      </trkpt>
      <trkpt lat="45.90112" lon="4.70011">
        <ele>228.97399902344</ele>
        <time>2015-02-24T06:12:21Z</time>
      </trkpt>
      <trkpt lat="45.90111" lon="4.70007">
        <ele>229.21574401856</ele>
        <time>2015-02-24T06:12:22Z</time>
      </trkpt>
      <trkpt lat="45.90111" lon="4.7">
        <ele>229.66577148438</ele>
        <time>2015-02-24T06:12:24Z</time>
      </trkpt>
      <trkpt lat="45.90109" lon="4.69993">
        <ele>230.35565185547</ele>
        <time>2015-02-24T06:12:26Z</time>
      </trkpt>
      <trkpt lat="45.9011" lon="4.69987">
        <ele>230.92611694336</ele>
        <time>2015-02-24T06:12:28Z</time>
      </trkpt>
      <trkpt lat="45.90108" lon="4.6998">
        <ele>231.53672790527</ele>
        <time>2015-02-24T06:12:30Z</time>
      </trkpt>
      <trkpt lat="45.90108" lon="4.69973">
        <ele>232.18589782715</ele>
        <time>2015-02-24T06:12:32Z</time>
      </trkpt>
      <trkpt lat="45.90108" lon="4.6997">
        <ele>232.4723815918</ele>
        <time>2015-02-24T06:12:33Z</time>
      </trkpt>
      <trkpt lat="45.90107" lon="4.69967">
        <ele>232.7628326416</ele>
        <time>2015-02-24T06:12:34Z</time>
      </trkpt>
      <trkpt lat="45.90105" lon="4.69953">
        <ele>234.06057739258</ele>
        <time>2015-02-24T06:12:38Z</time>
      </trkpt>
      <trkpt lat="45.90105" lon="4.69951">
        <ele>234.30400085449</ele>
        <time>2015-02-24T06:12:39Z</time>
      </trkpt>
      <trkpt lat="45.90107" lon="4.69941">
        <ele>235.16133117676</ele>
        <time>2015-02-24T06:12:42Z</time>
      </trkpt>
      <trkpt lat="45.90107" lon="4.69935">
        <ele>235.71937561035</ele>
        <time>2015-02-24T06:12:44Z</time>
      </trkpt>
      <trkpt lat="45.90108" lon="4.69929">
        <ele>236.31983947754</ele>
        <time>2015-02-24T06:12:46Z</time>
      </trkpt>
      <trkpt lat="45.90108" lon="4.69926">
        <ele>236.57121276856</ele>
        <time>2015-02-24T06:12:47Z</time>
      </trkpt>
      <trkpt lat="45.90108" lon="4.6992">
        <ele>237.11790466309</ele>
        <time>2015-02-24T06:12:49Z</time>
      </trkpt>
      <trkpt lat="45.90108" lon="4.69917">
        <ele>237.37826538086</ele>
        <time>2015-02-24T06:12:50Z</time>
      </trkpt>
      <trkpt lat="45.90108" lon="4.69903">
        <ele>238.91815185547</ele>
        <time>2015-02-24T06:12:55Z</time>
      </trkpt>
      <trkpt lat="45.90108" lon="4.69898">
        <ele>239.54028320312</ele>
        <time>2015-02-24T06:12:57Z</time>
      </trkpt>
      <trkpt lat="45.90108" lon="4.69892">
        <ele>240.14114379883</ele>
        <time>2015-02-24T06:12:59Z</time>
      </trkpt>
      <trkpt lat="45.90108" lon="4.6989">
        <ele>240.41764831543</ele>
        <time>2015-02-24T06:13:00Z</time>
      </trkpt>
      <trkpt lat="45.90107" lon="4.69887">
        <ele>240.74641418457</ele>
        <time>2015-02-24T06:13:01Z</time>
      </trkpt>
      <trkpt lat="45.90107" lon="4.69882">
        <ele>241.24771118164</ele>
        <time>2015-02-24T06:13:03Z</time>
      </trkpt>
      <trkpt lat="45.90107" lon="4.6988">
        <ele>241.50787353516</ele>
        <time>2015-02-24T06:13:04Z</time>
      </trkpt>
      <trkpt lat="45.90105" lon="4.6987">
        <ele>242.63206481934</ele>
        <time>2015-02-24T06:13:08Z</time>
      </trkpt>
      <trkpt lat="45.90105" lon="4.69865">
        <ele>243.17385864258</ele>
        <time>2015-02-24T06:13:10Z</time>
      </trkpt>
      <trkpt lat="45.90105" lon="4.6986">
        <ele>243.75750732422</ele>
        <time>2015-02-24T06:13:12Z</time>
      </trkpt>
      <trkpt lat="45.90104" lon="4.6985">
        <ele>244.9338684082</ele>
        <time>2015-02-24T06:13:16Z</time>
      </trkpt>
      <trkpt lat="45.90103" lon="4.69844">
        <ele>245.58422851562</ele>
        <time>2015-02-24T06:13:18Z</time>
      </trkpt>
      <trkpt lat="45.90102" lon="4.69841">
        <ele>245.88497924805</ele>
        <time>2015-02-24T06:13:19Z</time>
      </trkpt>
      <trkpt lat="45.90101" lon="4.69827">
        <ele>247.34230041504</ele>
        <time>2015-02-24T06:13:24Z</time>
      </trkpt>
      <trkpt lat="45.901" lon="4.69822">
        <ele>247.83294677734</ele>
        <time>2015-02-24T06:13:26Z</time>
      </trkpt>
      <trkpt lat="45.901" lon="4.69819">
        <ele>248.07737731934</ele>
        <time>2015-02-24T06:13:27Z</time>
      </trkpt>
      <trkpt lat="45.901" lon="4.69811">
        <ele>248.82192993164</ele>
        <time>2015-02-24T06:13:30Z</time>
      </trkpt>
      <trkpt lat="45.901" lon="4.69802">
        <ele>249.55380249023</ele>
        <time>2015-02-24T06:13:33Z</time>
      </trkpt>
      <trkpt lat="45.901" lon="4.698">
        <ele>249.80339050293</ele>
        <time>2015-02-24T06:13:34Z</time>
      </trkpt>
      <trkpt lat="45.901" lon="4.6979">
        <ele>250.64100646973</ele>
        <time>2015-02-24T06:13:37Z</time>
      </trkpt>
      <trkpt lat="45.901" lon="4.69781">
        <ele>251.47137451172</ele>
        <time>2015-02-24T06:13:40Z</time>
      </trkpt>
      <trkpt lat="45.90102" lon="4.69767">
        <ele>252.66802978516</ele>
        <time>2015-02-24T06:13:44Z</time>
      </trkpt>
      <trkpt lat="45.90102" lon="4.69764">
        <ele>252.96600341797</ele>
        <time>2015-02-24T06:13:45Z</time>
      </trkpt>
      <trkpt lat="45.90104" lon="4.6975">
        <ele>254.21058654785</ele>
        <time>2015-02-24T06:13:49Z</time>
      </trkpt>
      <trkpt lat="45.90105" lon="4.69743">
        <ele>254.19500732422</ele>
        <time>2015-02-24T06:13:52Z</time>
      </trkpt>
      <trkpt lat="45.90106" lon="4.69731">
        <ele>254.10563659668</ele>
        <time>2015-02-24T06:13:56Z</time>
      </trkpt>
      <trkpt lat="45.90108" lon="4.69718">
        <ele>254.02688598633</ele>
        <time>2015-02-24T06:14:00Z</time>
      </trkpt>
      <trkpt lat="45.9011" lon="4.69692">
        <ele>253.85357666016</ele>
        <time>2015-02-24T06:14:07Z</time>
      </trkpt>
      <trkpt lat="45.90111" lon="4.69687">
        <ele>253.82144165039</ele>
        <time>2015-02-24T06:14:08Z</time>
      </trkpt>
      <trkpt lat="45.90112" lon="4.69679">
        <ele>253.77355957031</ele>
        <time>2015-02-24T06:14:10Z</time>
      </trkpt>
      <trkpt lat="45.90113" lon="4.69675">
        <ele>253.76751708984</ele>
        <time>2015-02-24T06:14:11Z</time>
      </trkpt>
      <trkpt lat="45.90113" lon="4.69671">
        <ele>253.75570678711</ele>
        <time>2015-02-24T06:14:12Z</time>
      </trkpt>
      <trkpt lat="45.90115" lon="4.69645">
        <ele>253.96054077148</ele>
        <time>2015-02-24T06:14:18Z</time>
      </trkpt>
      <trkpt lat="45.90117" lon="4.69618">
        <ele>254.28956604004</ele>
        <time>2015-02-24T06:14:24Z</time>
      </trkpt>
      <trkpt lat="45.90121" lon="4.69606">
        <ele>254.54524230957</ele>
        <time>2015-02-24T06:14:27Z</time>
      </trkpt>
      <trkpt lat="45.90126" lon="4.69601">
        <ele>254.82652282715</ele>
        <time>2015-02-24T06:14:29Z</time>
      </trkpt>
      <trkpt lat="45.90129" lon="4.696">
        <ele>254.9619140625</ele>
        <time>2015-02-24T06:14:30Z</time>
      </trkpt>
      <trkpt lat="45.90134" lon="4.69595">
        <ele>255.24063110352</ele>
        <time>2015-02-24T06:14:32Z</time>
      </trkpt>
      <trkpt lat="45.90141" lon="4.69588">
        <ele>255.69885253906</ele>
        <time>2015-02-24T06:14:35Z</time>
      </trkpt>
      <trkpt lat="45.90145" lon="4.69582">
        <ele>255.98658752441</ele>
        <time>2015-02-24T06:14:37Z</time>
      </trkpt>
      <trkpt lat="45.90147" lon="4.69579">
        <ele>256.2170715332</ele>
        <time>2015-02-24T06:14:38Z</time>
      </trkpt>
      <trkpt lat="45.90148" lon="4.69576">
        <ele>256.37292480469</ele>
        <time>2015-02-24T06:14:39Z</time>
      </trkpt>
      <trkpt lat="45.90152" lon="4.69563">
        <ele>256.98205566406</ele>
        <time>2015-02-24T06:14:42Z</time>
      </trkpt>
      <trkpt lat="45.90154" lon="4.69554">
        <ele>257.4069519043</ele>
        <time>2015-02-24T06:14:44Z</time>
      </trkpt>
      <trkpt lat="45.90155" lon="4.69551">
        <ele>257.58801269531</ele>
        <time>2015-02-24T06:14:45Z</time>
      </trkpt>
      <trkpt lat="45.90157" lon="4.69543">
        <ele>257.96618652344</ele>
        <time>2015-02-24T06:14:47Z</time>
      </trkpt>
      <trkpt lat="45.9016" lon="4.69534">
        <ele>258.37142944336</ele>
        <time>2015-02-24T06:14:49Z</time>
      </trkpt>
      <trkpt lat="45.90166" lon="4.69513">
        <ele>259.48544311523</ele>
        <time>2015-02-24T06:14:55Z</time>
      </trkpt>
      <trkpt lat="45.90166" lon="4.69508">
        <ele>259.68762207031</ele>
        <time>2015-02-24T06:14:56Z</time>
      </trkpt>
      <trkpt lat="45.9017" lon="4.69492">
        <ele>260.31805419922</ele>
        <time>2015-02-24T06:15:00Z</time>
      </trkpt>
      <trkpt lat="45.90171" lon="4.69487">
        <ele>260.4616394043</ele>
        <time>2015-02-24T06:15:01Z</time>
      </trkpt>
      <trkpt lat="45.90175" lon="4.69473">
        <ele>260.92260742188</ele>
        <time>2015-02-24T06:15:05Z</time>
      </trkpt>
      <trkpt lat="45.90176" lon="4.69457">
        <ele>261.31143188477</ele>
        <time>2015-02-24T06:15:09Z</time>
      </trkpt>
      <trkpt lat="45.90178" lon="4.69453">
        <ele>261.45260620117</ele>
        <time>2015-02-24T06:15:10Z</time>
      </trkpt>
      <trkpt lat="45.90179" lon="4.69449">
        <ele>261.57400512695</ele>
        <time>2015-02-24T06:15:11Z</time>
      </trkpt>
      <trkpt lat="45.90181" lon="4.69442">
        <ele>261.7971496582</ele>
        <time>2015-02-24T06:15:13Z</time>
      </trkpt>
      <trkpt lat="45.90184" lon="4.69429">
        <ele>262.15570068359</ele>
        <time>2015-02-24T06:15:16Z</time>
      </trkpt>
      <trkpt lat="45.90185" lon="4.69425">
        <ele>262.25982666016</ele>
        <time>2015-02-24T06:15:17Z</time>
      </trkpt>
      <trkpt lat="45.90189" lon="4.69414">
        <ele>262.63092041016</ele>
        <time>2015-02-24T06:15:20Z</time>
      </trkpt>
      <trkpt lat="45.90191" lon="4.69409">
        <ele>262.82006835938</ele>
        <time>2015-02-24T06:15:21Z</time>
      </trkpt>
      <trkpt lat="45.90201" lon="4.69394">
        <ele>263.54611206055</ele>
        <time>2015-02-24T06:15:26Z</time>
      </trkpt>
      <trkpt lat="45.90203" lon="4.69391">
        <ele>263.67645263672</ele>
        <time>2015-02-24T06:15:27Z</time>
      </trkpt>
      <trkpt lat="45.9021" lon="4.69383">
        <ele>264.06259155273</ele>
        <time>2015-02-24T06:15:30Z</time>
      </trkpt>
      <trkpt lat="45.90213" lon="4.6938">
        <ele>264.19033813477</ele>
        <time>2015-02-24T06:15:31Z</time>
      </trkpt>
      <trkpt lat="45.90224" lon="4.69367">
        <ele>264.7453918457</ele>
        <time>2015-02-24T06:15:36Z</time>
      </trkpt>
      <trkpt lat="45.90227" lon="4.69365">
        <ele>264.86575317383</ele>
        <time>2015-02-24T06:15:37Z</time>
      </trkpt>
      <trkpt lat="45.90235" lon="4.69363">
        <ele>265.05307006836</ele>
        <time>2015-02-24T06:15:40Z</time>
      </trkpt>
      <trkpt lat="45.90238" lon="4.69364">
        <ele>265.06094360352</ele>
        <time>2015-02-24T06:15:41Z</time>
      </trkpt>
      <trkpt lat="45.90252" lon="4.69378">
        <ele>264.94442749023</ele>
        <time>2015-02-24T06:15:46Z</time>
      </trkpt>
      <trkpt lat="45.90255" lon="4.6938">
        <ele>264.8984375</ele>
        <time>2015-02-24T06:15:47Z</time>
      </trkpt>
      <trkpt lat="45.90266" lon="4.69394">
        <ele>264.59213256836</ele>
        <time>2015-02-24T06:15:52Z</time>
      </trkpt>
      <trkpt lat="45.90282" lon="4.69412">
        <ele>264.12307739258</ele>
        <time>2015-02-24T06:15:59Z</time>
      </trkpt>
      <trkpt lat="45.90292" lon="4.69423">
        <ele>263.83847045898</ele>
        <time>2015-02-24T06:16:03Z</time>
      </trkpt>
      <trkpt lat="45.903" lon="4.69431">
        <ele>263.61199951172</ele>
        <time>2015-02-24T06:16:06Z</time>
      </trkpt>
      <trkpt lat="45.90309" lon="4.6944">
        <ele>263.33135986328</ele>
        <time>2015-02-24T06:16:09Z</time>
      </trkpt>
      <trkpt lat="45.90321" lon="4.69449">
        <ele>262.95129394531</ele>
        <time>2015-02-24T06:16:13Z</time>
      </trkpt>
      <trkpt lat="45.90335" lon="4.69458">
        <ele>262.50875854492</ele>
        <time>2015-02-24T06:16:18Z</time>
      </trkpt>
      <trkpt lat="45.9035" lon="4.6947">
        <ele>261.94515991211</ele>
        <time>2015-02-24T06:16:23Z</time>
      </trkpt>
      <trkpt lat="45.90352" lon="4.69473">
        <ele>261.81008911133</ele>
        <time>2015-02-24T06:16:24Z</time>
      </trkpt>
      <trkpt lat="45.90364" lon="4.69488">
        <ele>261.11233520508</ele>
        <time>2015-02-24T06:16:29Z</time>
      </trkpt>
      <trkpt lat="45.90368" lon="4.69496">
        <ele>260.77261352539</ele>
        <time>2015-02-24T06:16:31Z</time>
      </trkpt>
      <trkpt lat="45.90371" lon="4.69497">
        <ele>260.66799926758</ele>
        <time>2015-02-24T06:16:32Z</time>
      </trkpt>
      <trkpt lat="45.90375" lon="4.69498">
        <ele>260.56774902344</ele>
        <time>2015-02-24T06:16:33Z</time>
      </trkpt>
      <trkpt lat="45.90384" lon="4.69505">
        <ele>260.11566162109</ele>
        <time>2015-02-24T06:16:36Z</time>
      </trkpt>
      <trkpt lat="45.90396" lon="4.69507">
        <ele>259.84216308594</ele>
        <time>2015-02-24T06:16:40Z</time>
      </trkpt>
      <trkpt lat="45.904" lon="4.69508">
        <ele>259.73913574219</ele>
        <time>2015-02-24T06:16:41Z</time>
      </trkpt>
      <trkpt lat="45.90406" lon="4.69509">
        <ele>259.59439086914</ele>
        <time>2015-02-24T06:16:43Z</time>
      </trkpt>
      <trkpt lat="45.90413" lon="4.69512">
        <ele>259.3489074707</ele>
        <time>2015-02-24T06:16:45Z</time>
      </trkpt>
      <trkpt lat="45.90429" lon="4.69517">
        <ele>258.7190246582</ele>
        <time>2015-02-24T06:16:50Z</time>
      </trkpt>
      <trkpt lat="45.90449" lon="4.69525">
        <ele>257.82131958008</ele>
        <time>2015-02-24T06:16:56Z</time>
      </trkpt>
      <trkpt lat="45.90457" lon="4.69535">
        <ele>257.13092041016</ele>
        <time>2015-02-24T06:16:59Z</time>
      </trkpt>
      <trkpt lat="45.90458" lon="4.69539">
        <ele>256.88681030273</ele>
        <time>2015-02-24T06:17:00Z</time>
      </trkpt>
      <trkpt lat="45.90459" lon="4.6955">
        <ele>256.29348754883</ele>
        <time>2015-02-24T06:17:02Z</time>
      </trkpt>
      <trkpt lat="45.9046" lon="4.69558">
        <ele>255.82669067383</ele>
        <time>2015-02-24T06:17:04Z</time>
      </trkpt>
      <trkpt lat="45.90461" lon="4.69572">
        <ele>255.09027099609</ele>
        <time>2015-02-24T06:17:07Z</time>
      </trkpt>
      <trkpt lat="45.90462" lon="4.69576">
        <ele>254.83753967285</ele>
        <time>2015-02-24T06:17:08Z</time>
      </trkpt>
      <trkpt lat="45.90462" lon="4.69584">
        <ele>254.41069030762</ele>
        <time>2015-02-24T06:17:10Z</time>
      </trkpt>
      <trkpt lat="45.90466" lon="4.69602">
        <ele>253.7862701416</ele>
        <time>2015-02-24T06:17:14Z</time>
      </trkpt>
      <trkpt lat="45.90468" lon="4.6961">
        <ele>253.49340820312</ele>
        <time>2015-02-24T06:17:16Z</time>
      </trkpt>
      <trkpt lat="45.9047" lon="4.6962">
        <ele>253.17951965332</ele>
        <time>2015-02-24T06:17:18Z</time>
      </trkpt>
      <trkpt lat="45.90472" lon="4.69632">
        <ele>252.76393127441</ele>
        <time>2015-02-24T06:17:21Z</time>
      </trkpt>
      <trkpt lat="45.90475" lon="4.69655">
        <ele>252.06921386719</ele>
        <time>2015-02-24T06:17:26Z</time>
      </trkpt>
      <trkpt lat="45.90477" lon="4.69667">
        <ele>251.70138549805</ele>
        <time>2015-02-24T06:17:29Z</time>
      </trkpt>
      <trkpt lat="45.90478" lon="4.69677">
        <ele>251.34661865234</ele>
        <time>2015-02-24T06:17:31Z</time>
      </trkpt>
      <trkpt lat="45.90475" lon="4.69695">
        <ele>250.67370605469</ele>
        <time>2015-02-24T06:17:35Z</time>
      </trkpt>
      <trkpt lat="45.90467" lon="4.69712">
        <ele>249.98075866699</ele>
        <time>2015-02-24T06:17:39Z</time>
      </trkpt>
      <trkpt lat="45.90462" lon="4.69735">
        <ele>249.10070800781</ele>
        <time>2015-02-24T06:17:44Z</time>
      </trkpt>
      <trkpt lat="45.90462" lon="4.69744">
        <ele>248.76368713379</ele>
        <time>2015-02-24T06:17:46Z</time>
      </trkpt>
      <trkpt lat="45.90465" lon="4.69757">
        <ele>248.1475982666</ele>
        <time>2015-02-24T06:17:49Z</time>
      </trkpt>
      <trkpt lat="45.90474" lon="4.69768">
        <ele>247.62535095215</ele>
        <time>2015-02-24T06:17:53Z</time>
      </trkpt>
      <trkpt lat="45.90481" lon="4.69772">
        <ele>247.51214599609</ele>
        <time>2015-02-24T06:17:55Z</time>
      </trkpt>
      <trkpt lat="45.90487" lon="4.69775">
        <ele>247.49078369141</ele>
        <time>2015-02-24T06:17:57Z</time>
      </trkpt>
      <trkpt lat="45.90503" lon="4.69779">
        <ele>247.50006103516</ele>
        <time>2015-02-24T06:18:02Z</time>
      </trkpt>
      <trkpt lat="45.90506" lon="4.69779">
        <ele>247.43092346191</ele>
        <time>2015-02-24T06:18:03Z</time>
      </trkpt>
      <trkpt lat="45.90522" lon="4.69782">
        <ele>246.85998535156</ele>
        <time>2015-02-24T06:18:08Z</time>
      </trkpt>
      <trkpt lat="45.90528" lon="4.69785">
        <ele>246.56359863281</ele>
        <time>2015-02-24T06:18:10Z</time>
      </trkpt>
      <trkpt lat="45.90536" lon="4.69793">
        <ele>246.05847167969</ele>
        <time>2015-02-24T06:18:13Z</time>
      </trkpt>
      <trkpt lat="45.90553" lon="4.6981">
        <ele>245.1262512207</ele>
        <time>2015-02-24T06:18:19Z</time>
      </trkpt>
      <trkpt lat="45.90571" lon="4.69821">
        <ele>244.48977661133</ele>
        <time>2015-02-24T06:18:25Z</time>
      </trkpt>
      <trkpt lat="45.90575" lon="4.69822">
        <ele>244.39508056641</ele>
        <time>2015-02-24T06:18:26Z</time>
      </trkpt>
      <trkpt lat="45.90593" lon="4.6983">
        <ele>243.65574645996</ele>
        <time>2015-02-24T06:18:32Z</time>
      </trkpt>
      <trkpt lat="45.90599" lon="4.69833">
        <ele>243.27311706543</ele>
        <time>2015-02-24T06:18:34Z</time>
      </trkpt>
      <trkpt lat="45.90602" lon="4.69833">
        <ele>243.12133789062</ele>
        <time>2015-02-24T06:18:35Z</time>
      </trkpt>
      <trkpt lat="45.90612" lon="4.69832">
        <ele>242.66586303711</ele>
        <time>2015-02-24T06:18:38Z</time>
      </trkpt>
      <trkpt lat="45.90622" lon="4.6983">
        <ele>242.25440979004</ele>
        <time>2015-02-24T06:18:41Z</time>
      </trkpt>
      <trkpt lat="45.90631" lon="4.69826">
        <ele>241.96345520019</ele>
        <time>2015-02-24T06:18:44Z</time>
      </trkpt>
      <trkpt lat="45.90638" lon="4.69824">
        <ele>241.74510192871</ele>
        <time>2015-02-24T06:18:46Z</time>
      </trkpt>
      <trkpt lat="45.90644" lon="4.69821">
        <ele>241.57429504394</ele>
        <time>2015-02-24T06:18:48Z</time>
      </trkpt>
      <trkpt lat="45.90648" lon="4.69822">
        <ele>241.37690734863</ele>
        <time>2015-02-24T06:18:49Z</time>
      </trkpt>
      <trkpt lat="45.90651" lon="4.69824">
        <ele>241.16560363769</ele>
        <time>2015-02-24T06:18:50Z</time>
      </trkpt>
      <trkpt lat="45.90668" lon="4.69833">
        <ele>240.01635742188</ele>
        <time>2015-02-24T06:18:55Z</time>
      </trkpt>
      <trkpt lat="45.90681" lon="4.69835">
        <ele>239.91719055176</ele>
        <time>2015-02-24T06:18:59Z</time>
      </trkpt>
      <trkpt lat="45.90693" lon="4.69839">
        <ele>239.59025573731</ele>
        <time>2015-02-24T06:19:03Z</time>
      </trkpt>
      <trkpt lat="45.90698" lon="4.69857">
        <ele>238.39739990234</ele>
        <time>2015-02-24T06:19:07Z</time>
      </trkpt>
      <trkpt lat="45.90697" lon="4.69865">
        <ele>237.85484313965</ele>
        <time>2015-02-24T06:19:09Z</time>
      </trkpt>
      <trkpt lat="45.90698" lon="4.69874">
        <ele>237.27395629883</ele>
        <time>2015-02-24T06:19:11Z</time>
      </trkpt>
      <trkpt lat="45.90698" lon="4.69884">
        <ele>236.57820129394</ele>
        <time>2015-02-24T06:19:13Z</time>
      </trkpt>
      <trkpt lat="45.90699" lon="4.69897">
        <ele>235.71354675293</ele>
        <time>2015-02-24T06:19:16Z</time>
      </trkpt>
      <trkpt lat="45.90702" lon="4.69901">
        <ele>235.49588012695</ele>
        <time>2015-02-24T06:19:17Z</time>
      </trkpt>
      <trkpt lat="45.90704" lon="4.69905">
        <ele>235.25701904297</ele>
        <time>2015-02-24T06:19:18Z</time>
      </trkpt>
      <trkpt lat="45.90707" lon="4.69906">
        <ele>235.18098449707</ele>
        <time>2015-02-24T06:19:19Z</time>
      </trkpt>
      <trkpt lat="45.90715" lon="4.69908">
        <ele>235.15643310547</ele>
        <time>2015-02-24T06:19:22Z</time>
      </trkpt>
      <trkpt lat="45.90718" lon="4.69908">
        <ele>235.1922454834</ele>
        <time>2015-02-24T06:19:23Z</time>
      </trkpt>
      <trkpt lat="45.90731" lon="4.69904">
        <ele>235.56546020508</ele>
        <time>2015-02-24T06:19:28Z</time>
      </trkpt>
      <trkpt lat="45.90743" lon="4.69902">
        <ele>235.81387329102</ele>
        <time>2015-02-24T06:19:32Z</time>
      </trkpt>
      <trkpt lat="45.90746" lon="4.69901">
        <ele>235.87493896484</ele>
        <time>2015-02-24T06:19:33Z</time>
      </trkpt>
      <trkpt lat="45.90756" lon="4.699">
        <ele>236.12924194336</ele>
        <time>2015-02-24T06:19:37Z</time>
      </trkpt>
      <trkpt lat="45.90762" lon="4.699">
        <ele>236.25073242188</ele>
        <time>2015-02-24T06:19:39Z</time>
      </trkpt>
      <trkpt lat="45.90769" lon="4.69899">
        <ele>236.46705627441</ele>
        <time>2015-02-24T06:19:42Z</time>
      </trkpt>
      <trkpt lat="45.90777" lon="4.69899">
        <ele>236.59506225586</ele>
        <time>2015-02-24T06:19:45Z</time>
      </trkpt>
      <trkpt lat="45.90786" lon="4.69899">
        <ele>236.72752380371</ele>
        <time>2015-02-24T06:19:48Z</time>
      </trkpt>
      <trkpt lat="45.90797" lon="4.69898">
        <ele>237.10333251953</ele>
        <time>2015-02-24T06:19:52Z</time>
      </trkpt>
      <trkpt lat="45.90802" lon="4.69898">
        <ele>237.20375061035</ele>
        <time>2015-02-24T06:19:54Z</time>
      </trkpt>
      <trkpt lat="45.90811" lon="4.69896">
        <ele>237.50903320312</ele>
        <time>2015-02-24T06:19:57Z</time>
      </trkpt>
      <trkpt lat="45.90818" lon="4.69896">
        <ele>237.62678527832</ele>
        <time>2015-02-24T06:19:59Z</time>
      </trkpt>
      <trkpt lat="45.90828" lon="4.69895">
        <ele>237.95397949219</ele>
        <time>2015-02-24T06:20:02Z</time>
      </trkpt>
      <trkpt lat="45.90833" lon="4.69894">
        <ele>238.17680358887</ele>
        <time>2015-02-24T06:20:04Z</time>
      </trkpt>
      <trkpt lat="45.90852" lon="4.69899">
        <ele>238.07119750977</ele>
        <time>2015-02-24T06:20:10Z</time>
      </trkpt>
      <trkpt lat="45.90865" lon="4.69906">
        <ele>237.77806091309</ele>
        <time>2015-02-24T06:20:14Z</time>
      </trkpt>
      <trkpt lat="45.90868" lon="4.69906">
        <ele>237.75535583496</ele>
        <time>2015-02-24T06:20:15Z</time>
      </trkpt>
      <trkpt lat="45.90884" lon="4.69913">
        <ele>237.50308227539</ele>
        <time>2015-02-24T06:20:20Z</time>
      </trkpt>
      <trkpt lat="45.90897" lon="4.69916">
        <ele>237.54661560059</ele>
        <time>2015-02-24T06:20:24Z</time>
      </trkpt>
      <trkpt lat="45.909" lon="4.69917">
        <ele>237.54193115234</ele>
        <time>2015-02-24T06:20:25Z</time>
      </trkpt>
      <trkpt lat="45.90914" lon="4.69922">
        <ele>237.26614379883</ele>
        <time>2015-02-24T06:20:30Z</time>
      </trkpt>
      <trkpt lat="45.9092" lon="4.69922">
        <ele>237.1544342041</ele>
        <time>2015-02-24T06:20:32Z</time>
      </trkpt>
      <trkpt lat="45.9093" lon="4.69922">
        <ele>236.62828063965</ele>
        <time>2015-02-24T06:20:35Z</time>
      </trkpt>
      <trkpt lat="45.90944" lon="4.69924">
        <ele>235.84834289551</ele>
        <time>2015-02-24T06:20:40Z</time>
      </trkpt>
      <trkpt lat="45.90955" lon="4.69924">
        <ele>235.33985900879</ele>
        <time>2015-02-24T06:20:43Z</time>
      </trkpt>
      <trkpt lat="45.90958" lon="4.69923">
        <ele>235.33435058594</ele>
        <time>2015-02-24T06:20:44Z</time>
      </trkpt>
      <trkpt lat="45.90973" lon="4.69924">
        <ele>234.5446472168</ele>
        <time>2015-02-24T06:20:49Z</time>
      </trkpt>
      <trkpt lat="45.9099" lon="4.69923">
        <ele>233.87132263184</ele>
        <time>2015-02-24T06:20:54Z</time>
      </trkpt>
      <trkpt lat="45.91007" lon="4.69922">
        <ele>233.36978149414</ele>
        <time>2015-02-24T06:20:59Z</time>
      </trkpt>
      <trkpt lat="45.91022" lon="4.69925">
        <ele>233.00344848633</ele>
        <time>2015-02-24T06:21:04Z</time>
      </trkpt>
      <trkpt lat="45.91029" lon="4.69927">
        <ele>232.76942443848</ele>
        <time>2015-02-24T06:21:06Z</time>
      </trkpt>
      <trkpt lat="45.91042" lon="4.69932">
        <ele>232.24723815918</ele>
        <time>2015-02-24T06:21:10Z</time>
      </trkpt>
      <trkpt lat="45.91045" lon="4.69932">
        <ele>232.18913269043</ele>
        <time>2015-02-24T06:21:11Z</time>
      </trkpt>
      <trkpt lat="45.91051" lon="4.69936">
        <ele>231.83943176269</ele>
        <time>2015-02-24T06:21:13Z</time>
      </trkpt>
      <trkpt lat="45.91054" lon="4.69937">
        <ele>231.68151855469</ele>
        <time>2015-02-24T06:21:14Z</time>
      </trkpt>
      <trkpt lat="45.91063" lon="4.69942">
        <ele>231.27780151367</ele>
        <time>2015-02-24T06:21:17Z</time>
      </trkpt>
      <trkpt lat="45.91067" lon="4.69944">
        <ele>231.08949279785</ele>
        <time>2015-02-24T06:21:18Z</time>
      </trkpt>
      <trkpt lat="45.91074" lon="4.69953">
        <ele>230.42297363281</ele>
        <time>2015-02-24T06:21:21Z</time>
      </trkpt>
      <trkpt lat="45.91074" lon="4.69956">
        <ele>230.17279052734</ele>
        <time>2015-02-24T06:21:22Z</time>
      </trkpt>
      <trkpt lat="45.91074" lon="4.69962">
        <ele>229.73181152344</ele>
        <time>2015-02-24T06:21:23Z</time>
      </trkpt>
      <trkpt lat="45.91074" lon="4.69976">
        <ele>228.65740966797</ele>
        <time>2015-02-24T06:21:26Z</time>
      </trkpt>
      <trkpt lat="45.91074" lon="4.6998">
        <ele>228.38633728027</ele>
        <time>2015-02-24T06:21:27Z</time>
      </trkpt>
      <trkpt lat="45.91073" lon="4.69994">
        <ele>227.29769897461</ele>
        <time>2015-02-24T06:21:30Z</time>
      </trkpt>
      <trkpt lat="45.91071" lon="4.70014">
        <ele>226.06018066406</ele>
        <time>2015-02-24T06:21:34Z</time>
      </trkpt>
      <trkpt lat="45.9107" lon="4.70018">
        <ele>225.78482055664</ele>
        <time>2015-02-24T06:21:35Z</time>
      </trkpt>
      <trkpt lat="45.91068" lon="4.70033">
        <ele>224.93132019043</ele>
        <time>2015-02-24T06:21:38Z</time>
      </trkpt>
      <trkpt lat="45.91065" lon="4.70046">
        <ele>224.12368774414</ele>
        <time>2015-02-24T06:21:41Z</time>
      </trkpt>
      <trkpt lat="45.91064" lon="4.70051">
        <ele>223.84921264648</ele>
        <time>2015-02-24T06:21:42Z</time>
      </trkpt>
      <trkpt lat="45.91063" lon="4.7006">
        <ele>223.33331298828</ele>
        <time>2015-02-24T06:21:44Z</time>
      </trkpt>
      <trkpt lat="45.91061" lon="4.70074">
        <ele>222.53674316406</ele>
        <time>2015-02-24T06:21:47Z</time>
      </trkpt>
      <trkpt lat="45.91061" lon="4.70078">
        <ele>222.29008483887</ele>
        <time>2015-02-24T06:21:48Z</time>
      </trkpt>
      <trkpt lat="45.91061" lon="4.70082">
        <ele>222.07867431641</ele>
        <time>2015-02-24T06:21:49Z</time>
      </trkpt>
      <trkpt lat="45.9106" lon="4.70091">
        <ele>221.51092529297</ele>
        <time>2015-02-24T06:21:51Z</time>
      </trkpt>
      <trkpt lat="45.91059" lon="4.701">
        <ele>220.96562194824</ele>
        <time>2015-02-24T06:21:53Z</time>
      </trkpt>
      <trkpt lat="45.91059" lon="4.70123">
        <ele>219.49949645996</ele>
        <time>2015-02-24T06:21:58Z</time>
      </trkpt>
      <trkpt lat="45.91063" lon="4.70137">
        <ele>218.65080261231</ele>
        <time>2015-02-24T06:22:01Z</time>
      </trkpt>
      <trkpt lat="45.91065" lon="4.70138">
        <ele>218.59370422363</ele>
        <time>2015-02-24T06:22:02Z</time>
      </trkpt>
      <trkpt lat="45.91068" lon="4.70141">
        <ele>218.42176818848</ele>
        <time>2015-02-24T06:22:03Z</time>
      </trkpt>
      <trkpt lat="45.91078" lon="4.70149">
        <ele>218.00817871094</ele>
        <time>2015-02-24T06:22:06Z</time>
      </trkpt>
      <trkpt lat="45.91088" lon="4.7015">
        <ele>218.00352478027</ele>
        <time>2015-02-24T06:22:09Z</time>
      </trkpt>
      <trkpt lat="45.91092" lon="4.70149">
        <ele>218.00769042969</ele>
        <time>2015-02-24T06:22:10Z</time>
      </trkpt>
      <trkpt lat="45.91113" lon="4.70148">
        <ele>217.95414733887</ele>
        <time>2015-02-24T06:22:16Z</time>
      </trkpt>
      <trkpt lat="45.91116" lon="4.70148">
        <ele>217.94026184082</ele>
        <time>2015-02-24T06:22:17Z</time>
      </trkpt>
      <trkpt lat="45.91132" lon="4.70145">
        <ele>217.99032592773</ele>
        <time>2015-02-24T06:22:22Z</time>
      </trkpt>
      <trkpt lat="45.91152" lon="4.70136">
        <ele>218.22901916504</ele>
        <time>2015-02-24T06:22:28Z</time>
      </trkpt>
      <trkpt lat="45.91167" lon="4.70133">
        <ele>218.20640563965</ele>
        <time>2015-02-24T06:22:33Z</time>
      </trkpt>
      <trkpt lat="45.91181" lon="4.70128">
        <ele>218.45422363281</ele>
        <time>2015-02-24T06:22:37Z</time>
      </trkpt>
      <trkpt lat="45.91191" lon="4.70127">
        <ele>218.55744934082</ele>
        <time>2015-02-24T06:22:40Z</time>
      </trkpt>
      <trkpt lat="45.91194" lon="4.70127">
        <ele>218.56338500977</ele>
        <time>2015-02-24T06:22:41Z</time>
      </trkpt>
      <trkpt lat="45.91208" lon="4.7013">
        <ele>218.51702880859</ele>
        <time>2015-02-24T06:22:46Z</time>
      </trkpt>
      <trkpt lat="45.91219" lon="4.7013">
        <ele>218.59547424316</ele>
        <time>2015-02-24T06:22:50Z</time>
      </trkpt>
      <trkpt lat="45.91232" lon="4.70127">
        <ele>218.79809570312</ele>
        <time>2015-02-24T06:22:54Z</time>
      </trkpt>
      <trkpt lat="45.91245" lon="4.70125">
        <ele>218.97348022461</ele>
        <time>2015-02-24T06:22:58Z</time>
      </trkpt>
      <trkpt lat="45.91248" lon="4.70126">
        <ele>218.94401550293</ele>
        <time>2015-02-24T06:22:59Z</time>
      </trkpt>
      <trkpt lat="45.91257" lon="4.70125">
        <ele>219.15618896484</ele>
        <time>2015-02-24T06:23:02Z</time>
      </trkpt>
      <trkpt lat="45.91274" lon="4.70127">
        <ele>219.45373535156</ele>
        <time>2015-02-24T06:23:07Z</time>
      </trkpt>
      <trkpt lat="45.91291" lon="4.70131">
        <ele>219.71466064453</ele>
        <time>2015-02-24T06:23:13Z</time>
      </trkpt>
      <trkpt lat="45.91302" lon="4.70134">
        <ele>219.83139038086</ele>
        <time>2015-02-24T06:23:17Z</time>
      </trkpt>
      <trkpt lat="45.91315" lon="4.70139">
        <ele>219.91607666016</ele>
        <time>2015-02-24T06:23:22Z</time>
      </trkpt>
      <trkpt lat="45.91319" lon="4.70138">
        <ele>220.05340576172</ele>
        <time>2015-02-24T06:23:23Z</time>
      </trkpt>
      <trkpt lat="45.91326" lon="4.70137">
        <ele>220.26397705078</ele>
        <time>2015-02-24T06:23:26Z</time>
      </trkpt>
      <trkpt lat="45.91332" lon="4.70136">
        <ele>220.45623779297</ele>
        <time>2015-02-24T06:23:28Z</time>
      </trkpt>
      <trkpt lat="45.91341" lon="4.70135">
        <ele>220.44651794434</ele>
        <time>2015-02-24T06:23:31Z</time>
      </trkpt>
      <trkpt lat="45.91345" lon="4.70133">
        <ele>220.53820800781</ele>
        <time>2015-02-24T06:23:32Z</time>
      </trkpt>
      <trkpt lat="45.91354" lon="4.70131">
        <ele>220.58190917969</ele>
        <time>2015-02-24T06:23:35Z</time>
      </trkpt>
      <trkpt lat="45.91357" lon="4.7013">
        <ele>220.67774963379</ele>
        <time>2015-02-24T06:23:36Z</time>
      </trkpt>
      <trkpt lat="45.91364" lon="4.70131">
        <ele>220.57173156738</ele>
        <time>2015-02-24T06:23:38Z</time>
      </trkpt>
      <trkpt lat="45.91367" lon="4.7013">
        <ele>220.64088439941</ele>
        <time>2015-02-24T06:23:39Z</time>
      </trkpt>
      <trkpt lat="45.91373" lon="4.70128">
        <ele>220.7725982666</ele>
        <time>2015-02-24T06:23:41Z</time>
      </trkpt>
      <trkpt lat="45.91382" lon="4.70122">
        <ele>221.26081848144</ele>
        <time>2015-02-24T06:23:44Z</time>
      </trkpt>
      <trkpt lat="45.91397" lon="4.70118">
        <ele>221.74639892578</ele>
        <time>2015-02-24T06:23:49Z</time>
      </trkpt>
      <trkpt lat="45.91413" lon="4.70109">
        <ele>222.85061645508</ele>
        <time>2015-02-24T06:23:54Z</time>
      </trkpt>
      <trkpt lat="45.9143" lon="4.70104">
        <ele>223.49382019043</ele>
        <time>2015-02-24T06:23:59Z</time>
      </trkpt>
      <trkpt lat="45.91438" lon="4.70102">
        <ele>223.65403747559</ele>
        <time>2015-02-24T06:24:02Z</time>
      </trkpt>
      <trkpt lat="45.91441" lon="4.70102">
        <ele>223.70350646973</ele>
        <time>2015-02-24T06:24:03Z</time>
      </trkpt>
      <trkpt lat="45.91449" lon="4.70098">
        <ele>224.00447082519</ele>
        <time>2015-02-24T06:24:06Z</time>
      </trkpt>
      <trkpt lat="45.91455" lon="4.70098">
        <ele>223.98315429688</ele>
        <time>2015-02-24T06:24:08Z</time>
      </trkpt>
      <trkpt lat="45.91463" lon="4.70096">
        <ele>224.17059326172</ele>
        <time>2015-02-24T06:24:11Z</time>
      </trkpt>
      <trkpt lat="45.91475" lon="4.70094">
        <ele>224.27182006836</ele>
        <time>2015-02-24T06:24:15Z</time>
      </trkpt>
      <trkpt lat="45.91487" lon="4.70091">
        <ele>224.4884185791</ele>
        <time>2015-02-24T06:24:19Z</time>
      </trkpt>
      <trkpt lat="45.91491" lon="4.7009">
        <ele>224.54713439941</ele>
        <time>2015-02-24T06:24:20Z</time>
      </trkpt>
      <trkpt lat="45.91502" lon="4.70088">
        <ele>224.71696472168</ele>
        <time>2015-02-24T06:24:24Z</time>
      </trkpt>
      <trkpt lat="45.91516" lon="4.70084">
        <ele>225.71992492676</ele>
        <time>2015-02-24T06:24:29Z</time>
      </trkpt>
      <trkpt lat="45.91523" lon="4.70083">
        <ele>226.15885925293</ele>
        <time>2015-02-24T06:24:31Z</time>
      </trkpt>
      <trkpt lat="45.91531" lon="4.7008">
        <ele>226.76498413086</ele>
        <time>2015-02-24T06:24:34Z</time>
      </trkpt>
      <trkpt lat="45.91539" lon="4.70081">
        <ele>227.07019042969</ele>
        <time>2015-02-24T06:24:37Z</time>
      </trkpt>
      <trkpt lat="45.9155" lon="4.70081">
        <ele>227.65333557129</ele>
        <time>2015-02-24T06:24:41Z</time>
      </trkpt>
      <trkpt lat="45.91557" lon="4.70081">
        <ele>227.97575378418</ele>
        <time>2015-02-24T06:24:43Z</time>
      </trkpt>
      <trkpt lat="45.91558" lon="4.7008">
        <ele>228.15954589844</ele>
        <time>2015-02-24T06:24:44Z</time>
      </trkpt>
      <trkpt lat="45.91578" lon="4.70079">
        <ele>229.22465515137</ele>
        <time>2015-02-24T06:24:50Z</time>
      </trkpt>
      <trkpt lat="45.91597" lon="4.70078">
        <ele>229.84582519531</ele>
        <time>2015-02-24T06:24:56Z</time>
      </trkpt>
      <trkpt lat="45.91614" lon="4.70077">
        <ele>230.19778442383</ele>
        <time>2015-02-24T06:25:02Z</time>
      </trkpt>
      <trkpt lat="45.91626" lon="4.70074">
        <ele>230.58297729492</ele>
        <time>2015-02-24T06:25:06Z</time>
      </trkpt>
      <trkpt lat="45.91637" lon="4.70072">
        <ele>231.00375366211</ele>
        <time>2015-02-24T06:25:10Z</time>
      </trkpt>
      <trkpt lat="45.91641" lon="4.70071">
        <ele>231.10501098633</ele>
        <time>2015-02-24T06:25:11Z</time>
      </trkpt>
      <trkpt lat="45.91652" lon="4.70067">
        <ele>231.62690734863</ele>
        <time>2015-02-24T06:25:15Z</time>
      </trkpt>
      <trkpt lat="45.91659" lon="4.70051">
        <ele>233.4494934082</ele>
        <time>2015-02-24T06:25:20Z</time>
      </trkpt>
      <trkpt lat="45.91658" lon="4.70047">
        <ele>233.88531494141</ele>
        <time>2015-02-24T06:25:21Z</time>
      </trkpt>
      <trkpt lat="45.91657" lon="4.70041">
        <ele>234.60681152344</ele>
        <time>2015-02-24T06:25:23Z</time>
      </trkpt>
      <trkpt lat="45.91656" lon="4.70038">
        <ele>234.86152648926</ele>
        <time>2015-02-24T06:25:24Z</time>
      </trkpt>
      <trkpt lat="45.91654" lon="4.70036">
        <ele>235.15029907227</ele>
        <time>2015-02-24T06:25:25Z</time>
      </trkpt>
      <trkpt lat="45.91649" lon="4.70024">
        <ele>236.54020690918</ele>
        <time>2015-02-24T06:25:29Z</time>
      </trkpt>
      <trkpt lat="45.91642" lon="4.70006">
        <ele>238.55725097656</ele>
        <time>2015-02-24T06:25:35Z</time>
      </trkpt>
      <trkpt lat="45.9164" lon="4.70004">
        <ele>238.87992858887</ele>
        <time>2015-02-24T06:25:36Z</time>
      </trkpt>
      <trkpt lat="45.91634" lon="4.69992">
        <ele>239.96801757812</ele>
        <time>2015-02-24T06:25:40Z</time>
      </trkpt>
      <trkpt lat="45.91632" lon="4.69989">
        <ele>240.17172241211</ele>
        <time>2015-02-24T06:25:41Z</time>
      </trkpt>
      <trkpt lat="45.91625" lon="4.69977">
        <ele>241.11929321289</ele>
        <time>2015-02-24T06:25:45Z</time>
      </trkpt>
      <trkpt lat="45.91621" lon="4.6997">
        <ele>241.67318725586</ele>
        <time>2015-02-24T06:25:47Z</time>
      </trkpt>
      <trkpt lat="45.91619" lon="4.69967">
        <ele>241.90893554688</ele>
        <time>2015-02-24T06:25:48Z</time>
      </trkpt>
      <trkpt lat="45.91616" lon="4.69961">
        <ele>242.39645385742</ele>
        <time>2015-02-24T06:25:50Z</time>
      </trkpt>
      <trkpt lat="45.91613" lon="4.69955">
        <ele>242.91830444336</ele>
        <time>2015-02-24T06:25:52Z</time>
      </trkpt>
      <trkpt lat="45.91604" lon="4.69938">
        <ele>244.18287658691</ele>
        <time>2015-02-24T06:25:57Z</time>
      </trkpt>
      <trkpt lat="45.91601" lon="4.69931">
        <ele>244.77911376953</ele>
        <time>2015-02-24T06:25:59Z</time>
      </trkpt>
      <trkpt lat="45.91594" lon="4.69917">
        <ele>245.86859130859</ele>
        <time>2015-02-24T06:26:03Z</time>
      </trkpt>
      <trkpt lat="45.91591" lon="4.69909">
        <ele>246.28437805176</ele>
        <time>2015-02-24T06:26:05Z</time>
      </trkpt>
      <trkpt lat="45.9159" lon="4.69905">
        <ele>246.5106048584</ele>
        <time>2015-02-24T06:26:06Z</time>
      </trkpt>
      <trkpt lat="45.91588" lon="4.69898">
        <ele>246.89808654785</ele>
        <time>2015-02-24T06:26:08Z</time>
      </trkpt>
      <trkpt lat="45.91587" lon="4.69893">
        <ele>247.10676574707</ele>
        <time>2015-02-24T06:26:09Z</time>
      </trkpt>
      <trkpt lat="45.91586" lon="4.69883">
        <ele>247.63499450684</ele>
        <time>2015-02-24T06:26:12Z</time>
      </trkpt>
      <trkpt lat="45.91586" lon="4.69872">
        <ele>248.17654418945</ele>
        <time>2015-02-24T06:26:15Z</time>
      </trkpt>
      <trkpt lat="45.91585" lon="4.69868">
        <ele>248.33317565918</ele>
        <time>2015-02-24T06:26:16Z</time>
      </trkpt>
      <trkpt lat="45.91585" lon="4.69853">
        <ele>249.07403564453</ele>
        <time>2015-02-24T06:26:20Z</time>
      </trkpt>
      <trkpt lat="45.91585" lon="4.69849">
        <ele>249.25364685059</ele>
        <time>2015-02-24T06:26:21Z</time>
      </trkpt>
      <trkpt lat="45.91584" lon="4.69841">
        <ele>249.64227294922</ele>
        <time>2015-02-24T06:26:23Z</time>
      </trkpt>
      <trkpt lat="45.91584" lon="4.69834">
        <ele>249.98918151856</ele>
        <time>2015-02-24T06:26:25Z</time>
      </trkpt>
      <trkpt lat="45.91583" lon="4.69822">
        <ele>250.81625366211</ele>
        <time>2015-02-24T06:26:28Z</time>
      </trkpt>
      <trkpt lat="45.91582" lon="4.6981">
        <ele>251.70300292969</ele>
        <time>2015-02-24T06:26:31Z</time>
      </trkpt>
      <trkpt lat="45.91582" lon="4.69806">
        <ele>251.93342590332</ele>
        <time>2015-02-24T06:26:32Z</time>
      </trkpt>
      <trkpt lat="45.91583" lon="4.69788">
        <ele>253.29046630859</ele>
        <time>2015-02-24T06:26:37Z</time>
      </trkpt>
      <trkpt lat="45.91581" lon="4.69769">
        <ele>254.63233947754</ele>
        <time>2015-02-24T06:26:42Z</time>
      </trkpt>
      <trkpt lat="45.91577" lon="4.69758">
        <ele>255.38961791992</ele>
        <time>2015-02-24T06:26:45Z</time>
      </trkpt>
      <trkpt lat="45.91574" lon="4.69753">
        <ele>255.77453613281</ele>
        <time>2015-02-24T06:26:47Z</time>
      </trkpt>
      <trkpt lat="45.91571" lon="4.69743">
        <ele>256.39813232422</ele>
        <time>2015-02-24T06:26:50Z</time>
      </trkpt>
      <trkpt lat="45.91568" lon="4.69737">
        <ele>256.77377319336</ele>
        <time>2015-02-24T06:26:52Z</time>
      </trkpt>
      <trkpt lat="45.91567" lon="4.69733">
        <ele>256.95492553711</ele>
        <time>2015-02-24T06:26:53Z</time>
      </trkpt>
      <trkpt lat="45.91567" lon="4.6973">
        <ele>257.15277099609</ele>
        <time>2015-02-24T06:26:54Z</time>
      </trkpt>
      <trkpt lat="45.91565" lon="4.69722">
        <ele>257.58087158203</ele>
        <time>2015-02-24T06:26:56Z</time>
      </trkpt>
      <trkpt lat="45.91565" lon="4.69716">
        <ele>257.94396972656</ele>
        <time>2015-02-24T06:26:58Z</time>
      </trkpt>
      <trkpt lat="45.91566" lon="4.69705">
        <ele>258.57424926758</ele>
        <time>2015-02-24T06:27:01Z</time>
      </trkpt>
      <trkpt lat="45.91567" lon="4.69698">
        <ele>259.01031494141</ele>
        <time>2015-02-24T06:27:03Z</time>
      </trkpt>
      <trkpt lat="45.9157" lon="4.69688">
        <ele>259.59469604492</ele>
        <time>2015-02-24T06:27:06Z</time>
      </trkpt>
      <trkpt lat="45.91573" lon="4.69676">
        <ele>260.31845092773</ele>
        <time>2015-02-24T06:27:10Z</time>
      </trkpt>
      <trkpt lat="45.91574" lon="4.69672">
        <ele>260.55316162109</ele>
        <time>2015-02-24T06:27:11Z</time>
      </trkpt>
      <trkpt lat="45.91577" lon="4.69663">
        <ele>261.13122558594</ele>
        <time>2015-02-24T06:27:14Z</time>
      </trkpt>
      <trkpt lat="45.9158" lon="4.69657">
        <ele>261.54193115234</ele>
        <time>2015-02-24T06:27:16Z</time>
      </trkpt>
      <trkpt lat="45.91582" lon="4.6965">
        <ele>261.96606445312</ele>
        <time>2015-02-24T06:27:18Z</time>
      </trkpt>
      <trkpt lat="45.9159" lon="4.69638">
        <ele>262.80966186523</ele>
        <time>2015-02-24T06:27:22Z</time>
      </trkpt>
      <trkpt lat="45.91592" lon="4.69636">
        <ele>263.01388549805</ele>
        <time>2015-02-24T06:27:23Z</time>
      </trkpt>
      <trkpt lat="45.91595" lon="4.69629">
        <ele>263.51657104492</ele>
        <time>2015-02-24T06:27:25Z</time>
      </trkpt>
      <trkpt lat="45.91602" lon="4.69617">
        <ele>264.49053955078</ele>
        <time>2015-02-24T06:27:29Z</time>
      </trkpt>
      <trkpt lat="45.91605" lon="4.69615">
        <ele>264.73803710938</ele>
        <time>2015-02-24T06:27:30Z</time>
      </trkpt>
      <trkpt lat="45.91613" lon="4.69605">
        <ele>265.73065185547</ele>
        <time>2015-02-24T06:27:34Z</time>
      </trkpt>
      <trkpt lat="45.91618" lon="4.696">
        <ele>266.31823730469</ele>
        <time>2015-02-24T06:27:36Z</time>
      </trkpt>
      <trkpt lat="45.91626" lon="4.69591">
        <ele>267.44369506836</ele>
        <time>2015-02-24T06:27:40Z</time>
      </trkpt>
      <trkpt lat="45.91635" lon="4.69581">
        <ele>268.61053466797</ele>
        <time>2015-02-24T06:27:44Z</time>
      </trkpt>
      <trkpt lat="45.91639" lon="4.69576">
        <ele>269.02481079102</ele>
        <time>2015-02-24T06:27:46Z</time>
      </trkpt>
      <trkpt lat="45.91648" lon="4.69567">
        <ele>269.91744995117</ele>
        <time>2015-02-24T06:27:50Z</time>
      </trkpt>
      <trkpt lat="45.91651" lon="4.69565">
        <ele>270.13488769531</ele>
        <time>2015-02-24T06:27:51Z</time>
      </trkpt>
      <trkpt lat="45.91655" lon="4.69559">
        <ele>270.60409545898</ele>
        <time>2015-02-24T06:27:53Z</time>
      </trkpt>
      <trkpt lat="45.91661" lon="4.69551">
        <ele>271.28387451172</ele>
        <time>2015-02-24T06:27:56Z</time>
      </trkpt>
      <trkpt lat="45.91665" lon="4.69546">
        <ele>271.73706054688</ele>
        <time>2015-02-24T06:27:58Z</time>
      </trkpt>
      <trkpt lat="45.91673" lon="4.69538">
        <ele>272.14669799805</ele>
        <time>2015-02-24T06:28:01Z</time>
      </trkpt>
      <trkpt lat="45.91676" lon="4.69532">
        <ele>272.42904663086</ele>
        <time>2015-02-24T06:28:03Z</time>
      </trkpt>
      <trkpt lat="45.91682" lon="4.69525">
        <ele>272.82870483398</ele>
        <time>2015-02-24T06:28:06Z</time>
      </trkpt>
      <trkpt lat="45.91688" lon="4.69516">
        <ele>273.34808349609</ele>
        <time>2015-02-24T06:28:09Z</time>
      </trkpt>
      <trkpt lat="45.91694" lon="4.69509">
        <ele>273.77557373047</ele>
        <time>2015-02-24T06:28:12Z</time>
      </trkpt>
      <trkpt lat="45.91698" lon="4.69505">
        <ele>274.08432006836</ele>
        <time>2015-02-24T06:28:14Z</time>
      </trkpt>
      <trkpt lat="45.91703" lon="4.69496">
        <ele>274.68142700195</ele>
        <time>2015-02-24T06:28:17Z</time>
      </trkpt>
      <trkpt lat="45.91705" lon="4.69493">
        <ele>274.87310791016</ele>
        <time>2015-02-24T06:28:18Z</time>
      </trkpt>
      <trkpt lat="45.91718" lon="4.69483">
        <ele>275.63528442383</ele>
        <time>2015-02-24T06:28:23Z</time>
      </trkpt>
      <trkpt lat="45.91721" lon="4.69483">
        <ele>275.6701965332</ele>
        <time>2015-02-24T06:28:24Z</time>
      </trkpt>
      <trkpt lat="45.91728" lon="4.69486">
        <ele>275.58721923828</ele>
        <time>2015-02-24T06:28:27Z</time>
      </trkpt>
      <trkpt lat="45.91736" lon="4.69489">
        <ele>275.46878051758</ele>
        <time>2015-02-24T06:28:30Z</time>
      </trkpt>
      <trkpt lat="45.91742" lon="4.69494">
        <ele>275.2873840332</ele>
        <time>2015-02-24T06:28:32Z</time>
      </trkpt>
      <trkpt lat="45.91753" lon="4.69498">
        <ele>275.1181640625</ele>
        <time>2015-02-24T06:28:36Z</time>
      </trkpt>
      <trkpt lat="45.91759" lon="4.695">
        <ele>275.02883911133</ele>
        <time>2015-02-24T06:28:38Z</time>
      </trkpt>
      <trkpt lat="45.91774" lon="4.69496">
        <ele>275.26409912109</ele>
        <time>2015-02-24T06:28:43Z</time>
      </trkpt>
      <trkpt lat="45.9178" lon="4.69484">
        <ele>276.0810546875</ele>
        <time>2015-02-24T06:28:47Z</time>
      </trkpt>
      <trkpt lat="45.91782" lon="4.69481">
        <ele>276.30908203125</ele>
        <time>2015-02-24T06:28:48Z</time>
      </trkpt>
      <trkpt lat="45.91787" lon="4.69473">
        <ele>276.92523193359</ele>
        <time>2015-02-24T06:28:51Z</time>
      </trkpt>
      <trkpt lat="45.91792" lon="4.69467">
        <ele>277.33898925781</ele>
        <time>2015-02-24T06:28:53Z</time>
      </trkpt>
      <trkpt lat="45.91793" lon="4.69464">
        <ele>277.578125</ele>
        <time>2015-02-24T06:28:54Z</time>
      </trkpt>
      <trkpt lat="45.918" lon="4.69453">
        <ele>278.49380493164</ele>
        <time>2015-02-24T06:28:58Z</time>
      </trkpt>
      <trkpt lat="45.91802" lon="4.69451">
        <ele>278.70733642578</ele>
        <time>2015-02-24T06:28:59Z</time>
      </trkpt>
      <trkpt lat="45.91814" lon="4.69434">
        <ele>280.17526245117</ele>
        <time>2015-02-24T06:29:05Z</time>
      </trkpt>
      <trkpt lat="45.91817" lon="4.69432">
        <ele>280.41510009766</ele>
        <time>2015-02-24T06:29:06Z</time>
      </trkpt>
      <trkpt lat="45.91822" lon="4.69424">
        <ele>281.17938232422</ele>
        <time>2015-02-24T06:29:09Z</time>
      </trkpt>
      <trkpt lat="45.91824" lon="4.69421">
        <ele>281.40292358398</ele>
        <time>2015-02-24T06:29:10Z</time>
      </trkpt>
      <trkpt lat="45.91826" lon="4.69418">
        <ele>281.68930053711</ele>
        <time>2015-02-24T06:29:11Z</time>
      </trkpt>
      <trkpt lat="45.9183" lon="4.69413">
        <ele>282.39483642578</ele>
        <time>2015-02-24T06:29:13Z</time>
      </trkpt>
      <trkpt lat="45.91838" lon="4.69402">
        <ele>284.18960571289</ele>
        <time>2015-02-24T06:29:17Z</time>
      </trkpt>
      <trkpt lat="45.91841" lon="4.69397">
        <ele>285.1354675293</ele>
        <time>2015-02-24T06:29:19Z</time>
      </trkpt>
      <trkpt lat="45.91847" lon="4.69388">
        <ele>286.82748413086</ele>
        <time>2015-02-24T06:29:22Z</time>
      </trkpt>
      <trkpt lat="45.9185" lon="4.69385">
        <ele>287.36993408203</ele>
        <time>2015-02-24T06:29:23Z</time>
      </trkpt>
      <trkpt lat="45.91862" lon="4.69378">
        <ele>289.11114501953</ele>
        <time>2015-02-24T06:29:28Z</time>
      </trkpt>
      <trkpt lat="45.91864" lon="4.69378">
        <ele>289.25076293945</ele>
        <time>2015-02-24T06:29:29Z</time>
      </trkpt>
      <trkpt lat="45.91871" lon="4.6938">
        <ele>289.55859375</ele>
        <time>2015-02-24T06:29:32Z</time>
      </trkpt>
      <trkpt lat="45.91877" lon="4.69384">
        <ele>289.49224853516</ele>
        <time>2015-02-24T06:29:34Z</time>
      </trkpt>
      <trkpt lat="45.91878" lon="4.69384">
        <ele>289.54315185547</ele>
        <time>2015-02-24T06:29:35Z</time>
      </trkpt>
      <trkpt lat="45.91886" lon="4.69386">
        <ele>289.76516723633</ele>
        <time>2015-02-24T06:29:38Z</time>
      </trkpt>
      <trkpt lat="45.91891" lon="4.6939">
        <ele>289.59979248047</ele>
        <time>2015-02-24T06:29:40Z</time>
      </trkpt>
      <trkpt lat="45.91896" lon="4.69391">
        <ele>289.86474609375</ele>
        <time>2015-02-24T06:29:42Z</time>
      </trkpt>
      <trkpt lat="45.91899" lon="4.69387">
        <ele>290.68243408203</ele>
        <time>2015-02-24T06:29:44Z</time>
      </trkpt>
      <trkpt lat="45.919" lon="4.6938">
        <ele>291.60824584961</ele>
        <time>2015-02-24T06:29:46Z</time>
      </trkpt>
      <trkpt lat="45.91901" lon="4.69368">
        <ele>293.31857299805</ele>
        <time>2015-02-24T06:29:50Z</time>
      </trkpt>
      <trkpt lat="45.91901" lon="4.69364">
        <ele>293.86215209961</ele>
        <time>2015-02-24T06:29:51Z</time>
      </trkpt>
      <trkpt lat="45.91903" lon="4.69354">
        <ele>295.30410766602</ele>
        <time>2015-02-24T06:29:54Z</time>
      </trkpt>
      <trkpt lat="45.91903" lon="4.69344">
        <ele>296.65567016602</ele>
        <time>2015-02-24T06:29:57Z</time>
      </trkpt>
      <trkpt lat="45.91904" lon="4.69342">
        <ele>296.97265625</ele>
        <time>2015-02-24T06:29:58Z</time>
      </trkpt>
      <trkpt lat="45.91904" lon="4.69335">
        <ele>297.84585571289</ele>
        <time>2015-02-24T06:30:00Z</time>
      </trkpt>
      <trkpt lat="45.91904" lon="4.69327">
        <ele>299.35275268555</ele>
        <time>2015-02-24T06:30:03Z</time>
      </trkpt>
      <trkpt lat="45.91903" lon="4.69325">
        <ele>299.67901611328</ele>
        <time>2015-02-24T06:30:04Z</time>
      </trkpt>
      <trkpt lat="45.91894" lon="4.69313">
        <ele>301.39495849609</ele>
        <time>2015-02-24T06:30:08Z</time>
      </trkpt>
      <trkpt lat="45.91892" lon="4.69309">
        <ele>301.92520141602</ele>
        <time>2015-02-24T06:30:09Z</time>
      </trkpt>
      <trkpt lat="45.91882" lon="4.69299">
        <ele>303.23620605469</ele>
        <time>2015-02-24T06:30:13Z</time>
      </trkpt>
      <trkpt lat="45.9188" lon="4.69298">
        <ele>303.42129516602</ele>
        <time>2015-02-24T06:30:14Z</time>
      </trkpt>
      <trkpt lat="45.91869" lon="4.6929">
        <ele>304.29046630859</ele>
        <time>2015-02-24T06:30:18Z</time>
      </trkpt>
      <trkpt lat="45.91854" lon="4.69277">
        <ele>305.76522827148</ele>
        <time>2015-02-24T06:30:24Z</time>
      </trkpt>
      <trkpt lat="45.91852" lon="4.69275">
        <ele>306.00814819336</ele>
        <time>2015-02-24T06:30:25Z</time>
      </trkpt>
      <trkpt lat="45.91843" lon="4.69267">
        <ele>307.12106323242</ele>
        <time>2015-02-24T06:30:29Z</time>
      </trkpt>
      <trkpt lat="45.91841" lon="4.69266">
        <ele>307.27807617188</ele>
        <time>2015-02-24T06:30:30Z</time>
      </trkpt>
      <trkpt lat="45.9183" lon="4.69256">
        <ele>308.36486816406</ele>
        <time>2015-02-24T06:30:35Z</time>
      </trkpt>
      <trkpt lat="45.91828" lon="4.69254">
        <ele>308.54858398438</ele>
        <time>2015-02-24T06:30:36Z</time>
      </trkpt>
      <trkpt lat="45.91819" lon="4.69246">
        <ele>308.96664428711</ele>
        <time>2015-02-24T06:30:40Z</time>
      </trkpt>
      <trkpt lat="45.91817" lon="4.69245">
        <ele>309.11801147461</ele>
        <time>2015-02-24T06:30:41Z</time>
      </trkpt>
      <trkpt lat="45.91808" lon="4.69237">
        <ele>309.75534057617</ele>
        <time>2015-02-24T06:30:45Z</time>
      </trkpt>
      <trkpt lat="45.91804" lon="4.69233">
        <ele>310.09811401367</ele>
        <time>2015-02-24T06:30:47Z</time>
      </trkpt>
      <trkpt lat="45.91797" lon="4.69228">
        <ele>310.34796142578</ele>
        <time>2015-02-24T06:30:50Z</time>
      </trkpt>
      <trkpt lat="45.91793" lon="4.69224">
        <ele>310.77618408203</ele>
        <time>2015-02-24T06:30:52Z</time>
      </trkpt>
      <trkpt lat="45.91784" lon="4.69217">
        <ele>311.24591064453</ele>
        <time>2015-02-24T06:30:56Z</time>
      </trkpt>
      <trkpt lat="45.91779" lon="4.69213">
        <ele>311.54675292969</ele>
        <time>2015-02-24T06:30:58Z</time>
      </trkpt>
      <trkpt lat="45.91772" lon="4.69208">
        <ele>311.88510131836</ele>
        <time>2015-02-24T06:31:01Z</time>
      </trkpt>
      <trkpt lat="45.9177" lon="4.69205">
        <ele>312.36822509766</ele>
        <time>2015-02-24T06:31:02Z</time>
      </trkpt>
      <trkpt lat="45.91765" lon="4.69202">
        <ele>312.58410644531</ele>
        <time>2015-02-24T06:31:04Z</time>
      </trkpt>
      <trkpt lat="45.91759" lon="4.69194">
        <ele>313.79327392578</ele>
        <time>2015-02-24T06:31:07Z</time>
      </trkpt>
      <trkpt lat="45.91753" lon="4.6919">
        <ele>314.00885009766</ele>
        <time>2015-02-24T06:31:10Z</time>
      </trkpt>
      <trkpt lat="45.91748" lon="4.69185">
        <ele>314.49520874023</ele>
        <time>2015-02-24T06:31:12Z</time>
      </trkpt>
      <trkpt lat="45.91744" lon="4.6918">
        <ele>315.0910949707</ele>
        <time>2015-02-24T06:31:14Z</time>
      </trkpt>
      <trkpt lat="45.91737" lon="4.69173">
        <ele>315.68115234375</ele>
        <time>2015-02-24T06:31:17Z</time>
      </trkpt>
      <trkpt lat="45.91731" lon="4.69166">
        <ele>316.34539794922</ele>
        <time>2015-02-24T06:31:20Z</time>
      </trkpt>
      <trkpt lat="45.91727" lon="4.69162">
        <ele>316.70074462891</ele>
        <time>2015-02-24T06:31:22Z</time>
      </trkpt>
      <trkpt lat="45.91721" lon="4.69154">
        <ele>317.4560546875</ele>
        <time>2015-02-24T06:31:25Z</time>
      </trkpt>
      <trkpt lat="45.91716" lon="4.69149">
        <ele>317.70153808594</ele>
        <time>2015-02-24T06:31:27Z</time>
      </trkpt>
      <trkpt lat="45.91712" lon="4.69145">
        <ele>317.91436767578</ele>
        <time>2015-02-24T06:31:29Z</time>
      </trkpt>
      <trkpt lat="45.91706" lon="4.69138">
        <ele>318.58215332031</ele>
        <time>2015-02-24T06:31:32Z</time>
      </trkpt>
      <trkpt lat="45.91703" lon="4.69135">
        <ele>318.82019042969</ele>
        <time>2015-02-24T06:31:33Z</time>
      </trkpt>
      <trkpt lat="45.91695" lon="4.69125">
        <ele>319.57662963867</ele>
        <time>2015-02-24T06:31:37Z</time>
      </trkpt>
      <trkpt lat="45.91693" lon="4.69124">
        <ele>319.54516601562</ele>
        <time>2015-02-24T06:31:38Z</time>
      </trkpt>
      <trkpt lat="45.91687" lon="4.69117">
        <ele>319.94400024414</ele>
        <time>2015-02-24T06:31:41Z</time>
      </trkpt>
      <trkpt lat="45.91681" lon="4.6911">
        <ele>320.53393554688</ele>
        <time>2015-02-24T06:31:44Z</time>
      </trkpt>
      <trkpt lat="45.91673" lon="4.69101">
        <ele>321.34817504883</ele>
        <time>2015-02-24T06:31:48Z</time>
      </trkpt>
      <trkpt lat="45.91671" lon="4.691">
        <ele>321.30068969727</ele>
        <time>2015-02-24T06:31:49Z</time>
      </trkpt>
      <trkpt lat="45.91663" lon="4.6909">
        <ele>321.9382019043</ele>
        <time>2015-02-24T06:31:53Z</time>
      </trkpt>
      <trkpt lat="45.91661" lon="4.69089">
        <ele>321.8283996582</ele>
        <time>2015-02-24T06:31:54Z</time>
      </trkpt>
      <trkpt lat="45.91653" lon="4.6908">
        <ele>321.93688964844</ele>
        <time>2015-02-24T06:31:58Z</time>
      </trkpt>
      <trkpt lat="45.91644" lon="4.69069">
        <ele>321.94171142578</ele>
        <time>2015-02-24T06:32:03Z</time>
      </trkpt>
      <trkpt lat="45.91638" lon="4.69058">
        <ele>322.51434326172</ele>
        <time>2015-02-24T06:32:07Z</time>
      </trkpt>
      <trkpt lat="45.91629" lon="4.69041">
        <ele>323.16607666016</ele>
        <time>2015-02-24T06:32:13Z</time>
      </trkpt>
      <trkpt lat="45.91622" lon="4.69024">
        <ele>324.2219543457</ele>
        <time>2015-02-24T06:32:19Z</time>
      </trkpt>
      <trkpt lat="45.91617" lon="4.69012">
        <ele>324.83251953125</ele>
        <time>2015-02-24T06:32:23Z</time>
      </trkpt>
      <trkpt lat="45.91613" lon="4.68999">
        <ele>326.01214599609</ele>
        <time>2015-02-24T06:32:27Z</time>
      </trkpt>
      <trkpt lat="45.91612" lon="4.68997">
        <ele>326.0188293457</ele>
        <time>2015-02-24T06:32:28Z</time>
      </trkpt>
      <trkpt lat="45.91611" lon="4.68991">
        <ele>326.58624267578</ele>
        <time>2015-02-24T06:32:30Z</time>
      </trkpt>
      <trkpt lat="45.91609" lon="4.68982">
        <ele>327.56604003906</ele>
        <time>2015-02-24T06:32:33Z</time>
      </trkpt>
      <trkpt lat="45.91608" lon="4.6898">
        <ele>327.76654052734</ele>
        <time>2015-02-24T06:32:34Z</time>
      </trkpt>
      <trkpt lat="45.91605" lon="4.6897">
        <ele>328.52264404297</ele>
        <time>2015-02-24T06:32:37Z</time>
      </trkpt>
      <trkpt lat="45.91605" lon="4.68965">
        <ele>329.21670532227</ele>
        <time>2015-02-24T06:32:39Z</time>
      </trkpt>
      <trkpt lat="45.91603" lon="4.68958">
        <ele>329.87319946289</ele>
        <time>2015-02-24T06:32:41Z</time>
      </trkpt>
      <trkpt lat="45.91601" lon="4.68949">
        <ele>330.94104003906</ele>
        <time>2015-02-24T06:32:44Z</time>
      </trkpt>
      <trkpt lat="45.916" lon="4.68946">
        <ele>331.31359863281</ele>
        <time>2015-02-24T06:32:45Z</time>
      </trkpt>
      <trkpt lat="45.91598" lon="4.68932">
        <ele>333.03344726562</ele>
        <time>2015-02-24T06:32:49Z</time>
      </trkpt>
      <trkpt lat="45.91597" lon="4.68928">
        <ele>333.57507324219</ele>
        <time>2015-02-24T06:32:50Z</time>
      </trkpt>
      <trkpt lat="45.91597" lon="4.68918">
        <ele>335.04995727539</ele>
        <time>2015-02-24T06:32:53Z</time>
      </trkpt>
      <trkpt lat="45.91596" lon="4.68914">
        <ele>335.39511108398</ele>
        <time>2015-02-24T06:32:54Z</time>
      </trkpt>
      <trkpt lat="45.91596" lon="4.68907">
        <ele>336.02575683594</ele>
        <time>2015-02-24T06:32:56Z</time>
      </trkpt>
      <trkpt lat="45.91595" lon="4.68897">
        <ele>336.95391845703</ele>
        <time>2015-02-24T06:32:59Z</time>
      </trkpt>
      <trkpt lat="45.91595" lon="4.68884">
        <ele>338.24032592773</ele>
        <time>2015-02-24T06:33:03Z</time>
      </trkpt>
      <trkpt lat="45.91596" lon="4.68881">
        <ele>338.59533691406</ele>
        <time>2015-02-24T06:33:04Z</time>
      </trkpt>
      <trkpt lat="45.91596" lon="4.68871">
        <ele>339.63195800781</ele>
        <time>2015-02-24T06:33:07Z</time>
      </trkpt>
      <trkpt lat="45.91597" lon="4.68864">
        <ele>340.3381652832</ele>
        <time>2015-02-24T06:33:09Z</time>
      </trkpt>
      <trkpt lat="45.91597" lon="4.68858">
        <ele>341.08438110352</ele>
        <time>2015-02-24T06:33:11Z</time>
      </trkpt>
      <trkpt lat="45.91598" lon="4.68845">
        <ele>342.47515869141</ele>
        <time>2015-02-24T06:33:15Z</time>
      </trkpt>
      <trkpt lat="45.91599" lon="4.68835">
        <ele>343.74563598633</ele>
        <time>2015-02-24T06:33:18Z</time>
      </trkpt>
      <trkpt lat="45.91601" lon="4.68828">
        <ele>344.64028930664</ele>
        <time>2015-02-24T06:33:20Z</time>
      </trkpt>
      <trkpt lat="45.91601" lon="4.68825">
        <ele>345.00433349609</ele>
        <time>2015-02-24T06:33:21Z</time>
      </trkpt>
      <trkpt lat="45.91603" lon="4.68812">
        <ele>346.66473388672</ele>
        <time>2015-02-24T06:33:25Z</time>
      </trkpt>
      <trkpt lat="45.91604" lon="4.68809">
        <ele>347.14016723633</ele>
        <time>2015-02-24T06:33:26Z</time>
      </trkpt>
      <trkpt lat="45.91605" lon="4.68797">
        <ele>348.59124755859</ele>
        <time>2015-02-24T06:33:30Z</time>
      </trkpt>
      <trkpt lat="45.91606" lon="4.68793">
        <ele>349.01483154297</ele>
        <time>2015-02-24T06:33:31Z</time>
      </trkpt>
      <trkpt lat="45.91607" lon="4.68781">
        <ele>350.31155395508</ele>
        <time>2015-02-24T06:33:35Z</time>
      </trkpt>
      <trkpt lat="45.91607" lon="4.68775">
        <ele>350.92825317383</ele>
        <time>2015-02-24T06:33:37Z</time>
      </trkpt>
      <trkpt lat="45.91605" lon="4.68769">
        <ele>351.35235595703</ele>
        <time>2015-02-24T06:33:39Z</time>
      </trkpt>
      <trkpt lat="45.91604" lon="4.68758">
        <ele>352.16949462891</ele>
        <time>2015-02-24T06:33:42Z</time>
      </trkpt>
      <trkpt lat="45.91603" lon="4.68749">
        <ele>352.9501953125</ele>
        <time>2015-02-24T06:33:45Z</time>
      </trkpt>
      <trkpt lat="45.91603" lon="4.68739">
        <ele>353.66830444336</ele>
        <time>2015-02-24T06:33:48Z</time>
      </trkpt>
      <trkpt lat="45.91603" lon="4.68722">
        <ele>355.01138305664</ele>
        <time>2015-02-24T06:33:53Z</time>
      </trkpt>
      <trkpt lat="45.91604" lon="4.68719">
        <ele>355.33917236328</ele>
        <time>2015-02-24T06:33:54Z</time>
      </trkpt>
      <trkpt lat="45.91605" lon="4.68708">
        <ele>356.23498535156</ele>
        <time>2015-02-24T06:33:57Z</time>
      </trkpt>
      <trkpt lat="45.91606" lon="4.68698">
        <ele>357.05456542969</ele>
        <time>2015-02-24T06:34:00Z</time>
      </trkpt>
      <trkpt lat="45.91607" lon="4.68692">
        <ele>357.60009765625</ele>
        <time>2015-02-24T06:34:02Z</time>
      </trkpt>
      <trkpt lat="45.9161" lon="4.68682">
        <ele>358.48123168945</ele>
        <time>2015-02-24T06:34:05Z</time>
      </trkpt>
      <trkpt lat="45.91611" lon="4.68679">
        <ele>358.84341430664</ele>
        <time>2015-02-24T06:34:06Z</time>
      </trkpt>
      <trkpt lat="45.91612" lon="4.68673">
        <ele>359.31817626953</ele>
        <time>2015-02-24T06:34:08Z</time>
      </trkpt>
      <trkpt lat="45.91616" lon="4.6866">
        <ele>360.38095092773</ele>
        <time>2015-02-24T06:34:12Z</time>
      </trkpt>
      <trkpt lat="45.91621" lon="4.68644">
        <ele>361.67010498047</ele>
        <time>2015-02-24T06:34:17Z</time>
      </trkpt>
      <trkpt lat="45.91622" lon="4.6864">
        <ele>361.97732543945</ele>
        <time>2015-02-24T06:34:18Z</time>
      </trkpt>
      <trkpt lat="45.91623" lon="4.68627">
        <ele>362.79235839844</ele>
        <time>2015-02-24T06:34:21Z</time>
      </trkpt>
      <trkpt lat="45.91623" lon="4.6862">
        <ele>363.24304199219</ele>
        <time>2015-02-24T06:34:23Z</time>
      </trkpt>
      <trkpt lat="45.91621" lon="4.68604">
        <ele>364.16510009766</ele>
        <time>2015-02-24T06:34:27Z</time>
      </trkpt>
      <trkpt lat="45.9162" lon="4.68601">
        <ele>364.32702636719</ele>
        <time>2015-02-24T06:34:28Z</time>
      </trkpt>
      <trkpt lat="45.91616" lon="4.6859">
        <ele>364.92593383789</ele>
        <time>2015-02-24T06:34:31Z</time>
      </trkpt>
      <trkpt lat="45.91613" lon="4.68584">
        <ele>365.3424987793</ele>
        <time>2015-02-24T06:34:33Z</time>
      </trkpt>
      <trkpt lat="45.91608" lon="4.68575">
        <ele>365.64633178711</ele>
        <time>2015-02-24T06:34:36Z</time>
      </trkpt>
      <trkpt lat="45.91604" lon="4.68565">
        <ele>365.96087646484</ele>
        <time>2015-02-24T06:34:39Z</time>
      </trkpt>
      <trkpt lat="45.91598" lon="4.68551">
        <ele>366.41165161133</ele>
        <time>2015-02-24T06:34:43Z</time>
      </trkpt>
      <trkpt lat="45.91597" lon="4.68549">
        <ele>366.47299194336</ele>
        <time>2015-02-24T06:34:44Z</time>
      </trkpt>
      <trkpt lat="45.9159" lon="4.68536">
        <ele>366.84945678711</ele>
        <time>2015-02-24T06:34:48Z</time>
      </trkpt>
      <trkpt lat="45.91589" lon="4.68532">
        <ele>366.93807983398</ele>
        <time>2015-02-24T06:34:49Z</time>
      </trkpt>
      <trkpt lat="45.91584" lon="4.68523">
        <ele>367.20513916016</ele>
        <time>2015-02-24T06:34:52Z</time>
      </trkpt>
      <trkpt lat="45.91582" lon="4.68516">
        <ele>367.52224731445</ele>
        <time>2015-02-24T06:34:54Z</time>
      </trkpt>
      <trkpt lat="45.9158" lon="4.68514">
        <ele>367.68502807617</ele>
        <time>2015-02-24T06:34:55Z</time>
      </trkpt>
      <trkpt lat="45.91576" lon="4.68504">
        <ele>368.37030029297</ele>
        <time>2015-02-24T06:34:58Z</time>
      </trkpt>
      <trkpt lat="45.91573" lon="4.68498">
        <ele>368.88903808594</ele>
        <time>2015-02-24T06:35:00Z</time>
      </trkpt>
      <trkpt lat="45.91571" lon="4.68495">
        <ele>369.23306274414</ele>
        <time>2015-02-24T06:35:01Z</time>
      </trkpt>
      <trkpt lat="45.9157" lon="4.68491">
        <ele>369.55532836914</ele>
        <time>2015-02-24T06:35:02Z</time>
      </trkpt>
      <trkpt lat="45.91566" lon="4.68481">
        <ele>370.53500366211</ele>
        <time>2015-02-24T06:35:05Z</time>
      </trkpt>
      <trkpt lat="45.91564" lon="4.68478">
        <ele>370.89501953125</ele>
        <time>2015-02-24T06:35:06Z</time>
      </trkpt>
      <trkpt lat="45.91558" lon="4.68465">
        <ele>372.23123168945</ele>
        <time>2015-02-24T06:35:10Z</time>
      </trkpt>
      <trkpt lat="45.91557" lon="4.68461">
        <ele>372.55755615234</ele>
        <time>2015-02-24T06:35:11Z</time>
      </trkpt>
      <trkpt lat="45.91554" lon="4.68454">
        <ele>373.20669555664</ele>
        <time>2015-02-24T06:35:13Z</time>
      </trkpt>
      <trkpt lat="45.91549" lon="4.6844">
        <ele>374.47253417969</ele>
        <time>2015-02-24T06:35:17Z</time>
      </trkpt>
      <trkpt lat="45.91546" lon="4.68424">
        <ele>375.72439575195</ele>
        <time>2015-02-24T06:35:21Z</time>
      </trkpt>
      <trkpt lat="45.91546" lon="4.68421">
        <ele>375.95413208008</ele>
        <time>2015-02-24T06:35:22Z</time>
      </trkpt>
      <trkpt lat="45.91545" lon="4.684">
        <ele>376.93823242188</ele>
        <time>2015-02-24T06:35:27Z</time>
      </trkpt>
      <trkpt lat="45.91545" lon="4.68396">
        <ele>377.06838989258</ele>
        <time>2015-02-24T06:35:28Z</time>
      </trkpt>
      <trkpt lat="45.91547" lon="4.68376">
        <ele>377.73971557617</ele>
        <time>2015-02-24T06:35:33Z</time>
      </trkpt>
      <trkpt lat="45.91547" lon="4.68371">
        <ele>377.89321899414</ele>
        <time>2015-02-24T06:35:34Z</time>
      </trkpt>
      <trkpt lat="45.91547" lon="4.68357">
        <ele>378.41973876953</ele>
        <time>2015-02-24T06:35:37Z</time>
      </trkpt>
      <trkpt lat="45.91548" lon="4.6834">
        <ele>379.02056884766</ele>
        <time>2015-02-24T06:35:41Z</time>
      </trkpt>
      <trkpt lat="45.91549" lon="4.68332">
        <ele>379.27200317383</ele>
        <time>2015-02-24T06:35:43Z</time>
      </trkpt>
      <trkpt lat="45.91548" lon="4.68327">
        <ele>379.34066772461</ele>
        <time>2015-02-24T06:35:44Z</time>
      </trkpt>
      <trkpt lat="45.91549" lon="4.68314">
        <ele>379.48715209961</ele>
        <time>2015-02-24T06:35:47Z</time>
      </trkpt>
      <trkpt lat="45.91549" lon="4.68296">
        <ele>379.69714355469</ele>
        <time>2015-02-24T06:35:51Z</time>
      </trkpt>
      <trkpt lat="45.91549" lon="4.68293">
        <ele>379.74179077148</ele>
        <time>2015-02-24T06:35:52Z</time>
      </trkpt>
      <trkpt lat="45.9155" lon="4.68284">
        <ele>379.8030090332</ele>
        <time>2015-02-24T06:35:54Z</time>
      </trkpt>
      <trkpt lat="45.9155" lon="4.68275">
        <ele>379.88427734375</ele>
        <time>2015-02-24T06:35:56Z</time>
      </trkpt>
      <trkpt lat="45.9155" lon="4.68258">
        <ele>380.11083984375</ele>
        <time>2015-02-24T06:36:00Z</time>
      </trkpt>
      <trkpt lat="45.9155" lon="4.68253">
        <ele>380.14346313477</ele>
        <time>2015-02-24T06:36:01Z</time>
      </trkpt>
      <trkpt lat="45.91551" lon="4.6825">
        <ele>380.15148925781</ele>
        <time>2015-02-24T06:36:02Z</time>
      </trkpt>
      <trkpt lat="45.91554" lon="4.68243">
        <ele>379.98880004883</ele>
        <time>2015-02-24T06:36:04Z</time>
      </trkpt>
      <trkpt lat="45.91554" lon="4.68243">
        <ele>379.98880004883</ele>
        <time>2015-02-24T06:36:04Z</time>
      </trkpt>
      <trkpt lat="45.91555" lon="4.68239">
        <ele>379.93255615234</ele>
        <time>2015-02-24T06:36:05Z</time>
      </trkpt>
      <trkpt lat="45.91561" lon="4.68223">
        <ele>379.57489013672</ele>
        <time>2015-02-24T06:36:09Z</time>
      </trkpt>
      <trkpt lat="45.91562" lon="4.6822">
        <ele>379.49005126953</ele>
        <time>2015-02-24T06:36:10Z</time>
      </trkpt>
      <trkpt lat="45.91568" lon="4.68202">
        <ele>379.09512329102</ele>
        <time>2015-02-24T06:36:14Z</time>
      </trkpt>
      <trkpt lat="45.91575" lon="4.68179">
        <ele>378.54159545898</ele>
        <time>2015-02-24T06:36:19Z</time>
      </trkpt>
      <trkpt lat="45.91576" lon="4.6817">
        <ele>378.36569213867</ele>
        <time>2015-02-24T06:36:21Z</time>
      </trkpt>
      <trkpt lat="45.91578" lon="4.68156">
        <ele>377.62475585938</ele>
        <time>2015-02-24T06:36:24Z</time>
      </trkpt>
      <trkpt lat="45.9158" lon="4.6813">
        <ele>376.04782104492</ele>
        <time>2015-02-24T06:36:29Z</time>
      </trkpt>
      <trkpt lat="45.9158" lon="4.68119">
        <ele>375.42279052734</ele>
        <time>2015-02-24T06:36:31Z</time>
      </trkpt>
      <trkpt lat="45.91579" lon="4.68105">
        <ele>374.70248413086</ele>
        <time>2015-02-24T06:36:34Z</time>
      </trkpt>
      <trkpt lat="45.91578" lon="4.681">
        <ele>374.52182006836</ele>
        <time>2015-02-24T06:36:35Z</time>
      </trkpt>
      <trkpt lat="45.91575" lon="4.68081">
        <ele>373.93490600586</ele>
        <time>2015-02-24T06:36:39Z</time>
      </trkpt>
      <trkpt lat="45.91573" lon="4.68062">
        <ele>374.60882568359</ele>
        <time>2015-02-24T06:36:43Z</time>
      </trkpt>
      <trkpt lat="45.91571" lon="4.68053">
        <ele>374.90783691406</ele>
        <time>2015-02-24T06:36:45Z</time>
      </trkpt>
      <trkpt lat="45.9157" lon="4.68029">
        <ele>375.50790405273</ele>
        <time>2015-02-24T06:36:50Z</time>
      </trkpt>
      <trkpt lat="45.9157" lon="4.68">
        <ele>376.08700561523</ele>
        <time>2015-02-24T06:36:56Z</time>
      </trkpt>
      <trkpt lat="45.91573" lon="4.67976">
        <ele>376.94445800781</ele>
        <time>2015-02-24T06:37:02Z</time>
      </trkpt>
      <trkpt lat="45.91582" lon="4.67964">
        <ele>376.86987304688</ele>
        <time>2015-02-24T06:37:06Z</time>
      </trkpt>
      <trkpt lat="45.91583" lon="4.67961">
        <ele>376.87670898438</ele>
        <time>2015-02-24T06:37:07Z</time>
      </trkpt>
      <trkpt lat="45.91591" lon="4.67954">
        <ele>376.37564086914</ele>
        <time>2015-02-24T06:37:10Z</time>
      </trkpt>
      <trkpt lat="45.91599" lon="4.6794">
        <ele>376.2099609375</ele>
        <time>2015-02-24T06:37:14Z</time>
      </trkpt>
      <trkpt lat="45.91607" lon="4.67931">
        <ele>375.82217407227</ele>
        <time>2015-02-24T06:37:17Z</time>
      </trkpt>
      <trkpt lat="45.91608" lon="4.67926">
        <ele>375.85733032227</ele>
        <time>2015-02-24T06:37:18Z</time>
      </trkpt>
      <trkpt lat="45.91611" lon="4.67911">
        <ele>376.01919555664</ele>
        <time>2015-02-24T06:37:22Z</time>
      </trkpt>
      <trkpt lat="45.91613" lon="4.67906">
        <ele>375.75942993164</ele>
        <time>2015-02-24T06:37:23Z</time>
      </trkpt>
      <trkpt lat="45.91615" lon="4.67881">
        <ele>375.52258300781</ele>
        <time>2015-02-24T06:37:29Z</time>
      </trkpt>
      <trkpt lat="45.91614" lon="4.67876">
        <ele>375.58245849609</ele>
        <time>2015-02-24T06:37:30Z</time>
      </trkpt>
      <trkpt lat="45.91609" lon="4.67849">
        <ele>375.93127441406</ele>
        <time>2015-02-24T06:37:36Z</time>
      </trkpt>
      <trkpt lat="45.91602" lon="4.6783">
        <ele>376.349609375</ele>
        <time>2015-02-24T06:37:41Z</time>
      </trkpt>
      <trkpt lat="45.91599" lon="4.67828">
        <ele>376.53271484375</ele>
        <time>2015-02-24T06:37:42Z</time>
      </trkpt>
      <trkpt lat="45.91591" lon="4.67829">
        <ele>377.25598144531</ele>
        <time>2015-02-24T06:37:45Z</time>
      </trkpt>
      <trkpt lat="45.91583" lon="4.67832">
        <ele>377.99005126953</ele>
        <time>2015-02-24T06:37:48Z</time>
      </trkpt>
      <trkpt lat="45.91581" lon="4.67833">
        <ele>378.11022949219</ele>
        <time>2015-02-24T06:37:49Z</time>
      </trkpt>
      <trkpt lat="45.91576" lon="4.67835">
        <ele>378.37789916992</ele>
        <time>2015-02-24T06:37:51Z</time>
      </trkpt>
      <trkpt lat="45.91568" lon="4.67847">
        <ele>378.93139648438</ele>
        <time>2015-02-24T06:37:55Z</time>
      </trkpt>
      <trkpt lat="45.91559" lon="4.6786">
        <ele>379.59033203125</ele>
        <time>2015-02-24T06:37:59Z</time>
      </trkpt>
      <trkpt lat="45.91557" lon="4.67863">
        <ele>379.75662231445</ele>
        <time>2015-02-24T06:38:00Z</time>
      </trkpt>
      <trkpt lat="45.91549" lon="4.67872">
        <ele>380.32870483398</ele>
        <time>2015-02-24T06:38:03Z</time>
      </trkpt>
      <trkpt lat="45.91545" lon="4.67874">
        <ele>380.54187011719</ele>
        <time>2015-02-24T06:38:04Z</time>
      </trkpt>
      <trkpt lat="45.91531" lon="4.67876">
        <ele>381.37240600586</ele>
        <time>2015-02-24T06:38:08Z</time>
      </trkpt>
      <trkpt lat="45.91527" lon="4.67878">
        <ele>381.60504150391</ele>
        <time>2015-02-24T06:38:09Z</time>
      </trkpt>
      <trkpt lat="45.91521" lon="4.67881">
        <ele>381.99212646484</ele>
        <time>2015-02-24T06:38:11Z</time>
      </trkpt>
      <trkpt lat="45.91518" lon="4.67881">
        <ele>382.17855834961</ele>
        <time>2015-02-24T06:38:12Z</time>
      </trkpt>
      <trkpt lat="45.91514" lon="4.67885">
        <ele>382.45803833008</ele>
        <time>2015-02-24T06:38:14Z</time>
      </trkpt>
      <trkpt lat="45.91508" lon="4.67892">
        <ele>382.95233154297</ele>
        <time>2015-02-24T06:38:16Z</time>
      </trkpt>
      <trkpt lat="45.91495" lon="4.67905">
        <ele>383.49111938477</ele>
        <time>2015-02-24T06:38:21Z</time>
      </trkpt>
      <trkpt lat="45.91481" lon="4.67909">
        <ele>382.94781494141</ele>
        <time>2015-02-24T06:38:25Z</time>
      </trkpt>
      <trkpt lat="45.91465" lon="4.67907">
        <ele>382.11245727539</ele>
        <time>2015-02-24T06:38:30Z</time>
      </trkpt>
      <trkpt lat="45.91449" lon="4.67904">
        <ele>381.34454345703</ele>
        <time>2015-02-24T06:38:35Z</time>
      </trkpt>
      <trkpt lat="45.91444" lon="4.67908">
        <ele>381.1799621582</ele>
        <time>2015-02-24T06:38:37Z</time>
      </trkpt>
      <trkpt lat="45.9144" lon="4.67914">
        <ele>381.06399536133</ele>
        <time>2015-02-24T06:38:39Z</time>
      </trkpt>
      <trkpt lat="45.91426" lon="4.67934">
        <ele>381.31777954102</ele>
        <time>2015-02-24T06:38:45Z</time>
      </trkpt>
      <trkpt lat="45.91424" lon="4.67938">
        <ele>381.48373413086</ele>
        <time>2015-02-24T06:38:46Z</time>
      </trkpt>
      <trkpt lat="45.91419" lon="4.67945">
        <ele>381.76351928711</ele>
        <time>2015-02-24T06:38:48Z</time>
      </trkpt>
      <trkpt lat="45.91412" lon="4.67953">
        <ele>381.99746704102</ele>
        <time>2015-02-24T06:38:51Z</time>
      </trkpt>
      <trkpt lat="45.91405" lon="4.67954">
        <ele>381.70837402344</ele>
        <time>2015-02-24T06:38:53Z</time>
      </trkpt>
      <trkpt lat="45.91402" lon="4.67951">
        <ele>381.40325927734</ele>
        <time>2015-02-24T06:38:54Z</time>
      </trkpt>
      <trkpt lat="45.91389" lon="4.67941">
        <ele>380.27389526367</ele>
        <time>2015-02-24T06:38:58Z</time>
      </trkpt>
      <trkpt lat="45.91381" lon="4.67934">
        <ele>379.40844726562</ele>
        <time>2015-02-24T06:39:01Z</time>
      </trkpt>
      <trkpt lat="45.91378" lon="4.67931">
        <ele>379.07562255859</ele>
        <time>2015-02-24T06:39:02Z</time>
      </trkpt>
      <trkpt lat="45.91369" lon="4.67926">
        <ele>378.30917358398</ele>
        <time>2015-02-24T06:39:05Z</time>
      </trkpt>
      <trkpt lat="45.91366" lon="4.67924">
        <ele>378.05432128906</ele>
        <time>2015-02-24T06:39:06Z</time>
      </trkpt>
      <trkpt lat="45.91357" lon="4.67918">
        <ele>377.23037719727</ele>
        <time>2015-02-24T06:39:09Z</time>
      </trkpt>
      <trkpt lat="45.91354" lon="4.67915">
        <ele>376.9289855957</ele>
        <time>2015-02-24T06:39:10Z</time>
      </trkpt>
      <trkpt lat="45.91346" lon="4.67906">
        <ele>375.84051513672</ele>
        <time>2015-02-24T06:39:13Z</time>
      </trkpt>
      <trkpt lat="45.91343" lon="4.67903">
        <ele>375.44091796875</ele>
        <time>2015-02-24T06:39:14Z</time>
      </trkpt>
      <trkpt lat="45.91335" lon="4.6789">
        <ele>373.87832641602</ele>
        <time>2015-02-24T06:39:18Z</time>
      </trkpt>
      <trkpt lat="45.91332" lon="4.67886">
        <ele>373.40390014648</ele>
        <time>2015-02-24T06:39:19Z</time>
      </trkpt>
      <trkpt lat="45.91325" lon="4.6787">
        <ele>371.97082519531</ele>
        <time>2015-02-24T06:39:23Z</time>
      </trkpt>
      <trkpt lat="45.91322" lon="4.67861">
        <ele>371.17565917969</ele>
        <time>2015-02-24T06:39:25Z</time>
      </trkpt>
      <trkpt lat="45.91316" lon="4.67854">
        <ele>370.45892333984</ele>
        <time>2015-02-24T06:39:27Z</time>
      </trkpt>
      <trkpt lat="45.91311" lon="4.67843">
        <ele>369.35424804688</ele>
        <time>2015-02-24T06:39:30Z</time>
      </trkpt>
      <trkpt lat="45.91302" lon="4.67829">
        <ele>368.15777587891</ele>
        <time>2015-02-24T06:39:34Z</time>
      </trkpt>
      <trkpt lat="45.913" lon="4.67826">
        <ele>368.01702880859</ele>
        <time>2015-02-24T06:39:35Z</time>
      </trkpt>
      <trkpt lat="45.9129" lon="4.67812">
        <ele>367.45397949219</ele>
        <time>2015-02-24T06:39:39Z</time>
      </trkpt>
      <trkpt lat="45.91285" lon="4.67807">
        <ele>367.19534301758</ele>
        <time>2015-02-24T06:39:41Z</time>
      </trkpt>
      <trkpt lat="45.91277" lon="4.67796">
        <ele>366.76159667969</ele>
        <time>2015-02-24T06:39:44Z</time>
      </trkpt>
      <trkpt lat="45.91273" lon="4.6779">
        <ele>366.51214599609</ele>
        <time>2015-02-24T06:39:46Z</time>
      </trkpt>
      <trkpt lat="45.91264" lon="4.67781">
        <ele>366.07269287109</ele>
        <time>2015-02-24T06:39:49Z</time>
      </trkpt>
      <trkpt lat="45.91253" lon="4.6777">
        <ele>365.55883789062</ele>
        <time>2015-02-24T06:39:53Z</time>
      </trkpt>
      <trkpt lat="45.91249" lon="4.67767">
        <ele>365.4001159668</ele>
        <time>2015-02-24T06:39:54Z</time>
      </trkpt>
      <trkpt lat="45.91239" lon="4.67757">
        <ele>364.92367553711</ele>
        <time>2015-02-24T06:39:58Z</time>
      </trkpt>
      <trkpt lat="45.91233" lon="4.67752">
        <ele>364.65414428711</ele>
        <time>2015-02-24T06:40:00Z</time>
      </trkpt>
      <trkpt lat="45.91218" lon="4.67733">
        <ele>364.59963989258</ele>
        <time>2015-02-24T06:40:06Z</time>
      </trkpt>
      <trkpt lat="45.91212" lon="4.67721">
        <ele>364.63970947266</ele>
        <time>2015-02-24T06:40:09Z</time>
      </trkpt>
      <trkpt lat="45.91208" lon="4.67714">
        <ele>364.62478637695</ele>
        <time>2015-02-24T06:40:11Z</time>
      </trkpt>
      <trkpt lat="45.912" lon="4.67694">
        <ele>364.61880493164</ele>
        <time>2015-02-24T06:40:16Z</time>
      </trkpt>
      <trkpt lat="45.91193" lon="4.67674">
        <ele>364.49578857422</ele>
        <time>2015-02-24T06:40:21Z</time>
      </trkpt>
      <trkpt lat="45.91184" lon="4.6765">
        <ele>363.41345214844</ele>
        <time>2015-02-24T06:40:27Z</time>
      </trkpt>
      <trkpt lat="45.9118" lon="4.67641">
        <ele>362.91564941406</ele>
        <time>2015-02-24T06:40:29Z</time>
      </trkpt>
      <trkpt lat="45.91177" lon="4.67634">
        <ele>362.44186401367</ele>
        <time>2015-02-24T06:40:31Z</time>
      </trkpt>
      <trkpt lat="45.91171" lon="4.67617">
        <ele>361.49600219727</ele>
        <time>2015-02-24T06:40:35Z</time>
      </trkpt>
      <trkpt lat="45.91169" lon="4.67613">
        <ele>361.19903564453</ele>
        <time>2015-02-24T06:40:36Z</time>
      </trkpt>
      <trkpt lat="45.91167" lon="4.67607">
        <ele>360.90490722656</ele>
        <time>2015-02-24T06:40:37Z</time>
      </trkpt>
      <trkpt lat="45.91163" lon="4.67596">
        <ele>360.38500976562</ele>
        <time>2015-02-24T06:40:40Z</time>
      </trkpt>
      <trkpt lat="45.91163" lon="4.67596">
        <ele>360.38500976562</ele>
        <time>2015-02-24T06:40:40Z</time>
      </trkpt>
      <trkpt lat="45.91158" lon="4.67582">
        <ele>359.77844238281</ele>
        <time>2015-02-24T06:40:43Z</time>
      </trkpt>
      <trkpt lat="45.91153" lon="4.6757">
        <ele>359.4345703125</ele>
        <time>2015-02-24T06:40:46Z</time>
      </trkpt>
      <trkpt lat="45.9115" lon="4.67561">
        <ele>359.23382568359</ele>
        <time>2015-02-24T06:40:48Z</time>
      </trkpt>
      <trkpt lat="45.91147" lon="4.67552">
        <ele>359.04751586914</ele>
        <time>2015-02-24T06:40:50Z</time>
      </trkpt>
      <trkpt lat="45.91143" lon="4.6754">
        <ele>358.83493041992</ele>
        <time>2015-02-24T06:40:53Z</time>
      </trkpt>
      <trkpt lat="45.91141" lon="4.67531">
        <ele>358.70614624023</ele>
        <time>2015-02-24T06:40:55Z</time>
      </trkpt>
      <trkpt lat="45.91137" lon="4.67505">
        <ele>358.41128540039</ele>
        <time>2015-02-24T06:41:00Z</time>
      </trkpt>
      <trkpt lat="45.91137" lon="4.67496">
        <ele>358.47494506836</ele>
        <time>2015-02-24T06:41:02Z</time>
      </trkpt>
      <trkpt lat="45.91134" lon="4.67473">
        <ele>359.15240478516</ele>
        <time>2015-02-24T06:41:07Z</time>
      </trkpt>
      <trkpt lat="45.91124" lon="4.67464">
        <ele>359.61022949219</ele>
        <time>2015-02-24T06:41:11Z</time>
      </trkpt>
      <trkpt lat="45.91112" lon="4.67463">
        <ele>359.82681274414</ele>
        <time>2015-02-24T06:41:15Z</time>
      </trkpt>
      <trkpt lat="45.91096" lon="4.67464">
        <ele>360.07086181641</ele>
        <time>2015-02-24T06:41:20Z</time>
      </trkpt>
      <trkpt lat="45.91081" lon="4.67465">
        <ele>360.25073242188</ele>
        <time>2015-02-24T06:41:25Z</time>
      </trkpt>
      <trkpt lat="45.91066" lon="4.67464">
        <ele>360.29193115234</ele>
        <time>2015-02-24T06:41:30Z</time>
      </trkpt>
      <trkpt lat="45.9106" lon="4.67463">
        <ele>360.34170532227</ele>
        <time>2015-02-24T06:41:32Z</time>
      </trkpt>
      <trkpt lat="45.91048" lon="4.6746">
        <ele>360.42239379883</ele>
        <time>2015-02-24T06:41:36Z</time>
      </trkpt>
      <trkpt lat="45.91032" lon="4.67456">
        <ele>360.59060668945</ele>
        <time>2015-02-24T06:41:42Z</time>
      </trkpt>
      <trkpt lat="45.91024" lon="4.67452">
        <ele>360.73309326172</ele>
        <time>2015-02-24T06:41:45Z</time>
      </trkpt>
      <trkpt lat="45.91021" lon="4.67451">
        <ele>360.76742553711</ele>
        <time>2015-02-24T06:41:46Z</time>
      </trkpt>
      <trkpt lat="45.91004" lon="4.67446">
        <ele>360.94940185547</ele>
        <time>2015-02-24T06:41:52Z</time>
      </trkpt>
      <trkpt lat="45.9099" lon="4.6744">
        <ele>361.69900512695</ele>
        <time>2015-02-24T06:41:57Z</time>
      </trkpt>
      <trkpt lat="45.90981" lon="4.67438">
        <ele>362.2951965332</ele>
        <time>2015-02-24T06:42:00Z</time>
      </trkpt>
      <trkpt lat="45.90972" lon="4.67435">
        <ele>362.89276123047</ele>
        <time>2015-02-24T06:42:03Z</time>
      </trkpt>
      <trkpt lat="45.90966" lon="4.67433">
        <ele>363.30001831055</ele>
        <time>2015-02-24T06:42:05Z</time>
      </trkpt>
      <trkpt lat="45.90952" lon="4.67428">
        <ele>364.30926513672</ele>
        <time>2015-02-24T06:42:10Z</time>
      </trkpt>
      <trkpt lat="45.90941" lon="4.67425">
        <ele>365.09915161133</ele>
        <time>2015-02-24T06:42:14Z</time>
      </trkpt>
      <trkpt lat="45.90932" lon="4.67422">
        <ele>365.75436401367</ele>
        <time>2015-02-24T06:42:17Z</time>
      </trkpt>
      <trkpt lat="45.90921" lon="4.6742">
        <ele>366.57354736328</ele>
        <time>2015-02-24T06:42:21Z</time>
      </trkpt>
      <trkpt lat="45.90912" lon="4.67418">
        <ele>367.0387878418</ele>
        <time>2015-02-24T06:42:24Z</time>
      </trkpt>
      <trkpt lat="45.90903" lon="4.67416">
        <ele>367.40780639648</ele>
        <time>2015-02-24T06:42:27Z</time>
      </trkpt>
      <trkpt lat="45.90897" lon="4.67414">
        <ele>367.76150512695</ele>
        <time>2015-02-24T06:42:29Z</time>
      </trkpt>
      <trkpt lat="45.90886" lon="4.6741">
        <ele>368.43566894531</ele>
        <time>2015-02-24T06:42:33Z</time>
      </trkpt>
      <trkpt lat="45.90879" lon="4.67409">
        <ele>368.76953125</ele>
        <time>2015-02-24T06:42:35Z</time>
      </trkpt>
      <trkpt lat="45.90864" lon="4.67406">
        <ele>369.56631469727</ele>
        <time>2015-02-24T06:42:40Z</time>
      </trkpt>
      <trkpt lat="45.90853" lon="4.67403">
        <ele>370.17282104492</ele>
        <time>2015-02-24T06:42:44Z</time>
      </trkpt>
      <trkpt lat="45.90846" lon="4.67402">
        <ele>370.49822998047</ele>
        <time>2015-02-24T06:42:46Z</time>
      </trkpt>
      <trkpt lat="45.90835" lon="4.674">
        <ele>371.201171875</ele>
        <time>2015-02-24T06:42:50Z</time>
      </trkpt>
      <trkpt lat="45.90827" lon="4.67397">
        <ele>372.1276550293</ele>
        <time>2015-02-24T06:42:53Z</time>
      </trkpt>
      <trkpt lat="45.90812" lon="4.67395">
        <ele>373.65408325195</ele>
        <time>2015-02-24T06:42:58Z</time>
      </trkpt>
      <trkpt lat="45.9081" lon="4.67395">
        <ele>373.87426757812</ele>
        <time>2015-02-24T06:42:59Z</time>
      </trkpt>
      <trkpt lat="45.908" lon="4.67396">
        <ele>374.63247680664</ele>
        <time>2015-02-24T06:43:02Z</time>
      </trkpt>
      <trkpt lat="45.90795" lon="4.67396">
        <ele>375.04452514648</ele>
        <time>2015-02-24T06:43:04Z</time>
      </trkpt>
      <trkpt lat="45.90783" lon="4.67399">
        <ele>375.84124755859</ele>
        <time>2015-02-24T06:43:08Z</time>
      </trkpt>
      <trkpt lat="45.90768" lon="4.67404">
        <ele>376.82827758789</ele>
        <time>2015-02-24T06:43:13Z</time>
      </trkpt>
      <trkpt lat="45.9076" lon="4.67407">
        <ele>377.4963684082</ele>
        <time>2015-02-24T06:43:16Z</time>
      </trkpt>
      <trkpt lat="45.90751" lon="4.67412">
        <ele>378.11456298828</ele>
        <time>2015-02-24T06:43:19Z</time>
      </trkpt>
      <trkpt lat="45.90734" lon="4.6742">
        <ele>378.74005126953</ele>
        <time>2015-02-24T06:43:25Z</time>
      </trkpt>
      <trkpt lat="45.90729" lon="4.67423">
        <ele>378.88345336914</ele>
        <time>2015-02-24T06:43:27Z</time>
      </trkpt>
      <trkpt lat="45.90717" lon="4.67428">
        <ele>379.25262451172</ele>
        <time>2015-02-24T06:43:31Z</time>
      </trkpt>
      <trkpt lat="45.90702" lon="4.67435">
        <ele>379.62002563477</ele>
        <time>2015-02-24T06:43:36Z</time>
      </trkpt>
      <trkpt lat="45.90697" lon="4.67437">
        <ele>379.81259155273</ele>
        <time>2015-02-24T06:43:38Z</time>
      </trkpt>
      <trkpt lat="45.90685" lon="4.67441">
        <ele>380.19116210938</ele>
        <time>2015-02-24T06:43:42Z</time>
      </trkpt>
      <trkpt lat="45.90677" lon="4.67444">
        <ele>380.42977905273</ele>
        <time>2015-02-24T06:43:45Z</time>
      </trkpt>
      <trkpt lat="45.90671" lon="4.67447">
        <ele>380.61157226562</ele>
        <time>2015-02-24T06:43:47Z</time>
      </trkpt>
      <trkpt lat="45.90659" lon="4.67451">
        <ele>381.0178527832</ele>
        <time>2015-02-24T06:43:51Z</time>
      </trkpt>
      <trkpt lat="45.90656" lon="4.67452">
        <ele>381.16345214844</ele>
        <time>2015-02-24T06:43:52Z</time>
      </trkpt>
      <trkpt lat="45.90639" lon="4.67459">
        <ele>381.78857421875</ele>
        <time>2015-02-24T06:43:58Z</time>
      </trkpt>
      <trkpt lat="45.90633" lon="4.67461">
        <ele>382.0412902832</ele>
        <time>2015-02-24T06:44:00Z</time>
      </trkpt>
      <trkpt lat="45.90622" lon="4.67465">
        <ele>382.52301025391</ele>
        <time>2015-02-24T06:44:04Z</time>
      </trkpt>
      <trkpt lat="45.90607" lon="4.6747">
        <ele>383.19784545898</ele>
        <time>2015-02-24T06:44:09Z</time>
      </trkpt>
      <trkpt lat="45.90593" lon="4.67475">
        <ele>383.89801025391</ele>
        <time>2015-02-24T06:44:14Z</time>
      </trkpt>
      <trkpt lat="45.90583" lon="4.67478">
        <ele>384.32901000977</ele>
        <time>2015-02-24T06:44:17Z</time>
      </trkpt>
      <trkpt lat="45.90578" lon="4.6748">
        <ele>384.51522827148</ele>
        <time>2015-02-24T06:44:19Z</time>
      </trkpt>
      <trkpt lat="45.90563" lon="4.67483">
        <ele>385.06002807617</ele>
        <time>2015-02-24T06:44:24Z</time>
      </trkpt>
      <trkpt lat="45.9056" lon="4.67484">
        <ele>385.18298339844</ele>
        <time>2015-02-24T06:44:25Z</time>
      </trkpt>
      <trkpt lat="45.90546" lon="4.67487">
        <ele>385.73681640625</ele>
        <time>2015-02-24T06:44:30Z</time>
      </trkpt>
      <trkpt lat="45.90533" lon="4.67484">
        <ele>386.62243652344</ele>
        <time>2015-02-24T06:44:35Z</time>
      </trkpt>
      <trkpt lat="45.90523" lon="4.67481">
        <ele>387.32928466797</ele>
        <time>2015-02-24T06:44:39Z</time>
      </trkpt>
      <trkpt lat="45.9052" lon="4.67481">
        <ele>387.54061889648</ele>
        <time>2015-02-24T06:44:40Z</time>
      </trkpt>
      <trkpt lat="45.90512" lon="4.67478">
        <ele>388.18218994141</ele>
        <time>2015-02-24T06:44:43Z</time>
      </trkpt>
      <trkpt lat="45.90503" lon="4.67476">
        <ele>388.81155395508</ele>
        <time>2015-02-24T06:44:46Z</time>
      </trkpt>
      <trkpt lat="45.90492" lon="4.67475">
        <ele>389.8860168457</ele>
        <time>2015-02-24T06:44:50Z</time>
      </trkpt>
      <trkpt lat="45.90489" lon="4.67474">
        <ele>390.22705078125</ele>
        <time>2015-02-24T06:44:51Z</time>
      </trkpt>
      <trkpt lat="45.90483" lon="4.67473">
        <ele>390.92514038086</ele>
        <time>2015-02-24T06:44:53Z</time>
      </trkpt>
      <trkpt lat="45.90472" lon="4.67469">
        <ele>392.34762573242</ele>
        <time>2015-02-24T06:44:57Z</time>
      </trkpt>
      <trkpt lat="45.90469" lon="4.67468">
        <ele>392.6354675293</ele>
        <time>2015-02-24T06:44:58Z</time>
      </trkpt>
      <trkpt lat="45.90459" lon="4.67464">
        <ele>393.95666503906</ele>
        <time>2015-02-24T06:45:02Z</time>
      </trkpt>
      <trkpt lat="45.9045" lon="4.67461">
        <ele>395.09994506836</ele>
        <time>2015-02-24T06:45:06Z</time>
      </trkpt>
      <trkpt lat="45.90446" lon="4.67458">
        <ele>395.70303344727</ele>
        <time>2015-02-24T06:45:08Z</time>
      </trkpt>
      <trkpt lat="45.90439" lon="4.67455">
        <ele>396.5739440918</ele>
        <time>2015-02-24T06:45:11Z</time>
      </trkpt>
      <trkpt lat="45.90435" lon="4.67454">
        <ele>397.13354492188</ele>
        <time>2015-02-24T06:45:13Z</time>
      </trkpt>
      <trkpt lat="45.90432" lon="4.67454">
        <ele>397.3733215332</ele>
        <time>2015-02-24T06:45:14Z</time>
      </trkpt>
      <trkpt lat="45.90422" lon="4.67452">
        <ele>398.49768066406</ele>
        <time>2015-02-24T06:45:18Z</time>
      </trkpt>
      <trkpt lat="45.9042" lon="4.67452">
        <ele>398.67337036133</ele>
        <time>2015-02-24T06:45:19Z</time>
      </trkpt>
      <trkpt lat="45.90414" lon="4.67455">
        <ele>398.85464477539</ele>
        <time>2015-02-24T06:45:21Z</time>
      </trkpt>
      <trkpt lat="45.90411" lon="4.67456">
        <ele>398.75314331055</ele>
        <time>2015-02-24T06:45:22Z</time>
      </trkpt>
      <trkpt lat="45.90396" lon="4.67463">
        <ele>398.48648071289</ele>
        <time>2015-02-24T06:45:27Z</time>
      </trkpt>
      <trkpt lat="45.9038" lon="4.67468">
        <ele>398.42913818359</ele>
        <time>2015-02-24T06:45:32Z</time>
      </trkpt>
      <trkpt lat="45.90364" lon="4.67469">
        <ele>398.59655761719</ele>
        <time>2015-02-24T06:45:37Z</time>
      </trkpt>
      <trkpt lat="45.90355" lon="4.67469">
        <ele>398.80456542969</ele>
        <time>2015-02-24T06:45:40Z</time>
      </trkpt>
      <trkpt lat="45.9035" lon="4.67468">
        <ele>398.98013305664</ele>
        <time>2015-02-24T06:45:42Z</time>
      </trkpt>
      <trkpt lat="45.90347" lon="4.67468">
        <ele>399.07427978516</ele>
        <time>2015-02-24T06:45:43Z</time>
      </trkpt>
      <trkpt lat="45.90334" lon="4.6746">
        <ele>399.89556884766</ele>
        <time>2015-02-24T06:45:48Z</time>
      </trkpt>
      <trkpt lat="45.90322" lon="4.67449">
        <ele>400.4501953125</ele>
        <time>2015-02-24T06:45:53Z</time>
      </trkpt>
      <trkpt lat="45.90317" lon="4.67445">
        <ele>400.70043945312</ele>
        <time>2015-02-24T06:45:55Z</time>
      </trkpt>
      <trkpt lat="45.90308" lon="4.67435">
        <ele>401.2926940918</ele>
        <time>2015-02-24T06:45:59Z</time>
      </trkpt>
      <trkpt lat="45.90303" lon="4.6743">
        <ele>401.6003112793</ele>
        <time>2015-02-24T06:46:01Z</time>
      </trkpt>
      <trkpt lat="45.90296" lon="4.67423">
        <ele>402.09292602539</ele>
        <time>2015-02-24T06:46:04Z</time>
      </trkpt>
      <trkpt lat="45.90287" lon="4.67413">
        <ele>402.64025878906</ele>
        <time>2015-02-24T06:46:08Z</time>
      </trkpt>
      <trkpt lat="45.90282" lon="4.67408">
        <ele>402.83374023438</ele>
        <time>2015-02-24T06:46:10Z</time>
      </trkpt>
      <trkpt lat="45.90273" lon="4.674">
        <ele>403.14739990234</ele>
        <time>2015-02-24T06:46:14Z</time>
      </trkpt>
      <trkpt lat="45.9026" lon="4.6739">
        <ele>403.45791625977</ele>
        <time>2015-02-24T06:46:19Z</time>
      </trkpt>
      <trkpt lat="45.90247" lon="4.6738">
        <ele>403.8212890625</ele>
        <time>2015-02-24T06:46:24Z</time>
      </trkpt>
      <trkpt lat="45.90239" lon="4.67375">
        <ele>404.22222900391</ele>
        <time>2015-02-24T06:46:27Z</time>
      </trkpt>
      <trkpt lat="45.90221" lon="4.67366">
        <ele>405.14645385742</ele>
        <time>2015-02-24T06:46:33Z</time>
      </trkpt>
      <trkpt lat="45.90219" lon="4.67364">
        <ele>405.35681152344</ele>
        <time>2015-02-24T06:46:34Z</time>
      </trkpt>
      <trkpt lat="45.90204" lon="4.67354">
        <ele>406.48794555664</ele>
        <time>2015-02-24T06:46:39Z</time>
      </trkpt>
      <trkpt lat="45.90191" lon="4.67344">
        <ele>407.84136962891</ele>
        <time>2015-02-24T06:46:44Z</time>
      </trkpt>
      <trkpt lat="45.9018" lon="4.67336">
        <ele>409.04721069336</ele>
        <time>2015-02-24T06:46:48Z</time>
      </trkpt>
      <trkpt lat="45.90173" lon="4.6733">
        <ele>409.84173583984</ele>
        <time>2015-02-24T06:46:51Z</time>
      </trkpt>
      <trkpt lat="45.9017" lon="4.67329">
        <ele>410.03399658203</ele>
        <time>2015-02-24T06:46:52Z</time>
      </trkpt>
      <trkpt lat="45.90162" lon="4.67325">
        <ele>410.27310180664</ele>
        <time>2015-02-24T06:46:55Z</time>
      </trkpt>
      <trkpt lat="45.9016" lon="4.67323">
        <ele>410.30764770508</ele>
        <time>2015-02-24T06:46:56Z</time>
      </trkpt>
      <trkpt lat="45.9015" lon="4.67317">
        <ele>410.47821044922</ele>
        <time>2015-02-24T06:47:00Z</time>
      </trkpt>
      <trkpt lat="45.90142" lon="4.67311">
        <ele>410.64834594727</ele>
        <time>2015-02-24T06:47:04Z</time>
      </trkpt>
      <trkpt lat="45.90126" lon="4.67304">
        <ele>410.89303588867</ele>
        <time>2015-02-24T06:47:09Z</time>
      </trkpt>
      <trkpt lat="45.90116" lon="4.67302">
        <ele>410.9987487793</ele>
        <time>2015-02-24T06:47:13Z</time>
      </trkpt>
      <trkpt lat="45.90101" lon="4.67296">
        <ele>411.25247192383</ele>
        <time>2015-02-24T06:47:18Z</time>
      </trkpt>
      <trkpt lat="45.90089" lon="4.67291">
        <ele>411.53771972656</ele>
        <time>2015-02-24T06:47:22Z</time>
      </trkpt>
      <trkpt lat="45.90069" lon="4.67282">
        <ele>412.35690307617</ele>
        <time>2015-02-24T06:47:28Z</time>
      </trkpt>
      <trkpt lat="45.90054" lon="4.67275">
        <ele>413.48287963867</ele>
        <time>2015-02-24T06:47:33Z</time>
      </trkpt>
      <trkpt lat="45.90038" lon="4.67267">
        <ele>415.06619262695</ele>
        <time>2015-02-24T06:47:38Z</time>
      </trkpt>
      <trkpt lat="45.90025" lon="4.67262">
        <ele>416.33474731445</ele>
        <time>2015-02-24T06:47:42Z</time>
      </trkpt>
      <trkpt lat="45.90015" lon="4.67258">
        <ele>417.6471862793</ele>
        <time>2015-02-24T06:47:46Z</time>
      </trkpt>
      <trkpt lat="45.90012" lon="4.67257">
        <ele>417.98843383789</ele>
        <time>2015-02-24T06:47:47Z</time>
      </trkpt>
      <trkpt lat="45.90001" lon="4.67252">
        <ele>419.55084228516</ele>
        <time>2015-02-24T06:47:51Z</time>
      </trkpt>
      <trkpt lat="45.89994" lon="4.67247">
        <ele>420.39059448242</ele>
        <time>2015-02-24T06:47:54Z</time>
      </trkpt>
      <trkpt lat="45.89992" lon="4.67246">
        <ele>420.53747558594</ele>
        <time>2015-02-24T06:47:55Z</time>
      </trkpt>
      <trkpt lat="45.89988" lon="4.67244">
        <ele>420.68487548828</ele>
        <time>2015-02-24T06:47:57Z</time>
      </trkpt>
      <trkpt lat="45.89983" lon="4.67243">
        <ele>420.91583251953</ele>
        <time>2015-02-24T06:47:59Z</time>
      </trkpt>
      <trkpt lat="45.89978" lon="4.6724">
        <ele>421.27062988281</ele>
        <time>2015-02-24T06:48:01Z</time>
      </trkpt>
      <trkpt lat="45.8997" lon="4.67237">
        <ele>421.67770385742</ele>
        <time>2015-02-24T06:48:04Z</time>
      </trkpt>
      <trkpt lat="45.8996" lon="4.67232">
        <ele>422.48892211914</ele>
        <time>2015-02-24T06:48:08Z</time>
      </trkpt>
      <trkpt lat="45.89958" lon="4.67231">
        <ele>422.62933349609</ele>
        <time>2015-02-24T06:48:09Z</time>
      </trkpt>
      <trkpt lat="45.89946" lon="4.67229">
        <ele>423.0485534668</ele>
        <time>2015-02-24T06:48:13Z</time>
      </trkpt>
      <trkpt lat="45.89935" lon="4.67228">
        <ele>423.17144775391</ele>
        <time>2015-02-24T06:48:17Z</time>
      </trkpt>
      <trkpt lat="45.89923" lon="4.67227">
        <ele>423.45571899414</ele>
        <time>2015-02-24T06:48:21Z</time>
      </trkpt>
      <trkpt lat="45.89915" lon="4.67224">
        <ele>424.04272460938</ele>
        <time>2015-02-24T06:48:24Z</time>
      </trkpt>
      <trkpt lat="45.89909" lon="4.67225">
        <ele>424.27505493164</ele>
        <time>2015-02-24T06:48:26Z</time>
      </trkpt>
      <trkpt lat="45.899" lon="4.67224">
        <ele>424.89611816406</ele>
        <time>2015-02-24T06:48:29Z</time>
      </trkpt>
      <trkpt lat="45.89898" lon="4.67224">
        <ele>425.01617431641</ele>
        <time>2015-02-24T06:48:30Z</time>
      </trkpt>
      <trkpt lat="45.89884" lon="4.67223">
        <ele>425.84970092773</ele>
        <time>2015-02-24T06:48:35Z</time>
      </trkpt>
      <trkpt lat="45.89873" lon="4.67225">
        <ele>426.14004516602</ele>
        <time>2015-02-24T06:48:39Z</time>
      </trkpt>
      <trkpt lat="45.89857" lon="4.67225">
        <ele>426.98199462891</ele>
        <time>2015-02-24T06:48:44Z</time>
      </trkpt>
      <trkpt lat="45.89846" lon="4.67227">
        <ele>427.24197387695</ele>
        <time>2015-02-24T06:48:48Z</time>
      </trkpt>
      <trkpt lat="45.89833" lon="4.6723">
        <ele>427.42007446289</ele>
        <time>2015-02-24T06:48:52Z</time>
      </trkpt>
      <trkpt lat="45.89831" lon="4.6723">
        <ele>427.46203613281</ele>
        <time>2015-02-24T06:48:53Z</time>
      </trkpt>
      <trkpt lat="45.89823" lon="4.67231">
        <ele>427.6354675293</ele>
        <time>2015-02-24T06:48:56Z</time>
      </trkpt>
      <trkpt lat="45.8982" lon="4.67231">
        <ele>427.67858886719</ele>
        <time>2015-02-24T06:48:57Z</time>
      </trkpt>
      <trkpt lat="45.89817" lon="4.67233">
        <ele>427.65383911133</ele>
        <time>2015-02-24T06:48:58Z</time>
      </trkpt>
      <trkpt lat="45.89812" lon="4.67234">
        <ele>427.59579467773</ele>
        <time>2015-02-24T06:49:00Z</time>
      </trkpt>
      <trkpt lat="45.89809" lon="4.67235">
        <ele>427.51968383789</ele>
        <time>2015-02-24T06:49:01Z</time>
      </trkpt>
      <trkpt lat="45.89804" lon="4.67237">
        <ele>427.47183227539</ele>
        <time>2015-02-24T06:49:03Z</time>
      </trkpt>
      <trkpt lat="45.89802" lon="4.67236">
        <ele>427.66409301758</ele>
        <time>2015-02-24T06:49:04Z</time>
      </trkpt>
      <trkpt lat="45.89796" lon="4.67238">
        <ele>427.62948608398</ele>
        <time>2015-02-24T06:49:06Z</time>
      </trkpt>
      <trkpt lat="45.8979" lon="4.67239">
        <ele>427.70874023438</ele>
        <time>2015-02-24T06:49:08Z</time>
      </trkpt>
      <trkpt lat="45.89787" lon="4.67239">
        <ele>427.87545776367</ele>
        <time>2015-02-24T06:49:09Z</time>
      </trkpt>
      <trkpt lat="45.89778" lon="4.6724">
        <ele>428.16595458984</ele>
        <time>2015-02-24T06:49:12Z</time>
      </trkpt>
      <trkpt lat="45.89775" lon="4.67241">
        <ele>428.20288085938</ele>
        <time>2015-02-24T06:49:13Z</time>
      </trkpt>
      <trkpt lat="45.89772" lon="4.67241">
        <ele>428.2236328125</ele>
        <time>2015-02-24T06:49:14Z</time>
      </trkpt>
      <trkpt lat="45.89762" lon="4.67245">
        <ele>428.11978149414</ele>
        <time>2015-02-24T06:49:17Z</time>
      </trkpt>
      <trkpt lat="45.89757" lon="4.67248">
        <ele>427.95123291016</ele>
        <time>2015-02-24T06:49:19Z</time>
      </trkpt>
      <trkpt lat="45.8975" lon="4.6725">
        <ele>427.95666503906</ele>
        <time>2015-02-24T06:49:21Z</time>
      </trkpt>
      <trkpt lat="45.89735" lon="4.67255">
        <ele>428.80688476562</ele>
        <time>2015-02-24T06:49:25Z</time>
      </trkpt>
      <trkpt lat="45.89731" lon="4.67256">
        <ele>428.88876342773</ele>
        <time>2015-02-24T06:49:26Z</time>
      </trkpt>
      <trkpt lat="45.89716" lon="4.67261">
        <ele>429.61581420898</ele>
        <time>2015-02-24T06:49:31Z</time>
      </trkpt>
      <trkpt lat="45.897" lon="4.67267">
        <ele>430.17575073242</ele>
        <time>2015-02-24T06:49:36Z</time>
      </trkpt>
      <trkpt lat="45.8969" lon="4.67268">
        <ele>430.83352661133</ele>
        <time>2015-02-24T06:49:39Z</time>
      </trkpt>
      <trkpt lat="45.89684" lon="4.67268">
        <ele>431.24432373047</ele>
        <time>2015-02-24T06:49:41Z</time>
      </trkpt>
      <trkpt lat="45.89669" lon="4.67269">
        <ele>432.36288452148</ele>
        <time>2015-02-24T06:49:46Z</time>
      </trkpt>
      <trkpt lat="45.89653" lon="4.6727">
        <ele>432.62582397461</ele>
        <time>2015-02-24T06:49:51Z</time>
      </trkpt>
      <trkpt lat="45.89647" lon="4.67269">
        <ele>432.91220092773</ele>
        <time>2015-02-24T06:49:53Z</time>
      </trkpt>
      <trkpt lat="45.8964" lon="4.6727">
        <ele>432.82629394531</ele>
        <time>2015-02-24T06:49:55Z</time>
      </trkpt>
      <trkpt lat="45.89625" lon="4.6727">
        <ele>433.06677246094</ele>
        <time>2015-02-24T06:50:00Z</time>
      </trkpt>
      <trkpt lat="45.89615" lon="4.67271">
        <ele>433.17202758789</ele>
        <time>2015-02-24T06:50:03Z</time>
      </trkpt>
      <trkpt lat="45.89612" lon="4.6727">
        <ele>433.34826660156</ele>
        <time>2015-02-24T06:50:04Z</time>
      </trkpt>
      <trkpt lat="45.896" lon="4.67269">
        <ele>433.90017700195</ele>
        <time>2015-02-24T06:50:08Z</time>
      </trkpt>
      <trkpt lat="45.89597" lon="4.67268">
        <ele>434.01672363281</ele>
        <time>2015-02-24T06:50:09Z</time>
      </trkpt>
      <trkpt lat="45.89581" lon="4.67264">
        <ele>434.87689208984</ele>
        <time>2015-02-24T06:50:14Z</time>
      </trkpt>
      <trkpt lat="45.89568" lon="4.67257">
        <ele>435.01055908203</ele>
        <time>2015-02-24T06:50:18Z</time>
      </trkpt>
      <trkpt lat="45.89566" lon="4.67255">
        <ele>435.1076965332</ele>
        <time>2015-02-24T06:50:19Z</time>
      </trkpt>
      <trkpt lat="45.89553" lon="4.67248">
        <ele>434.95880126953</ele>
        <time>2015-02-24T06:50:23Z</time>
      </trkpt>
      <trkpt lat="45.89543" lon="4.67239">
        <ele>434.75674438477</ele>
        <time>2015-02-24T06:50:27Z</time>
      </trkpt>
      <trkpt lat="45.8954" lon="4.67236">
        <ele>434.70330810547</ele>
        <time>2015-02-24T06:50:28Z</time>
      </trkpt>
      <trkpt lat="45.89537" lon="4.67233">
        <ele>434.78921508789</ele>
        <time>2015-02-24T06:50:29Z</time>
      </trkpt>
      <trkpt lat="45.89533" lon="4.67227">
        <ele>435.05743408203</ele>
        <time>2015-02-24T06:50:31Z</time>
      </trkpt>
      <trkpt lat="45.89522" lon="4.67205">
        <ele>436.64379882812</ele>
        <time>2015-02-24T06:50:37Z</time>
      </trkpt>
      <trkpt lat="45.8952" lon="4.67191">
        <ele>438.02294921875</ele>
        <time>2015-02-24T06:50:40Z</time>
      </trkpt>
      <trkpt lat="45.89518" lon="4.67183">
        <ele>438.87619018555</ele>
        <time>2015-02-24T06:50:42Z</time>
      </trkpt>
      <trkpt lat="45.89511" lon="4.67161">
        <ele>440.85800170898</ele>
        <time>2015-02-24T06:50:48Z</time>
      </trkpt>
      <trkpt lat="45.89508" lon="4.6715">
        <ele>441.36114501953</ele>
        <time>2015-02-24T06:50:51Z</time>
      </trkpt>
      <trkpt lat="45.89505" lon="4.67135">
        <ele>442.07537841797</ele>
        <time>2015-02-24T06:50:54Z</time>
      </trkpt>
      <trkpt lat="45.89495" lon="4.67111">
        <ele>442.69119262695</ele>
        <time>2015-02-24T06:51:00Z</time>
      </trkpt>
      <trkpt lat="45.89485" lon="4.67092">
        <ele>442.48068237305</ele>
        <time>2015-02-24T06:51:05Z</time>
      </trkpt>
      <trkpt lat="45.89477" lon="4.6708">
        <ele>442.0817565918</ele>
        <time>2015-02-24T06:51:09Z</time>
      </trkpt>
      <trkpt lat="45.8947" lon="4.67071">
        <ele>441.49951171875</ele>
        <time>2015-02-24T06:51:12Z</time>
      </trkpt>
      <trkpt lat="45.89463" lon="4.67062">
        <ele>440.8991394043</ele>
        <time>2015-02-24T06:51:15Z</time>
      </trkpt>
      <trkpt lat="45.89453" lon="4.67052">
        <ele>440.21160888672</ele>
        <time>2015-02-24T06:51:19Z</time>
      </trkpt>
      <trkpt lat="45.89447" lon="4.67048">
        <ele>439.841796875</ele>
        <time>2015-02-24T06:51:21Z</time>
      </trkpt>
      <trkpt lat="45.89439" lon="4.6704">
        <ele>439.34481811523</ele>
        <time>2015-02-24T06:51:24Z</time>
      </trkpt>
      <trkpt lat="45.89425" lon="4.67027">
        <ele>438.82479858398</ele>
        <time>2015-02-24T06:51:29Z</time>
      </trkpt>
      <trkpt lat="45.89412" lon="4.67012">
        <ele>438.50134277344</ele>
        <time>2015-02-24T06:51:34Z</time>
      </trkpt>
      <trkpt lat="45.89398" lon="4.66998">
        <ele>437.83377075195</ele>
        <time>2015-02-24T06:51:39Z</time>
      </trkpt>
      <trkpt lat="45.89383" lon="4.66984">
        <ele>436.33651733398</ele>
        <time>2015-02-24T06:51:44Z</time>
      </trkpt>
      <trkpt lat="45.8937" lon="4.66969">
        <ele>434.82775878906</ele>
        <time>2015-02-24T06:51:49Z</time>
      </trkpt>
      <trkpt lat="45.89355" lon="4.66956">
        <ele>433.07748413086</ele>
        <time>2015-02-24T06:51:54Z</time>
      </trkpt>
      <trkpt lat="45.89349" lon="4.66951">
        <ele>432.20974731445</ele>
        <time>2015-02-24T06:51:56Z</time>
      </trkpt>
      <trkpt lat="45.8934" lon="4.66945">
        <ele>430.93447875977</ele>
        <time>2015-02-24T06:51:59Z</time>
      </trkpt>
      <trkpt lat="45.89333" lon="4.6694">
        <ele>430.00149536133</ele>
        <time>2015-02-24T06:52:01Z</time>
      </trkpt>
      <trkpt lat="45.89321" lon="4.66934">
        <ele>428.37072753906</ele>
        <time>2015-02-24T06:52:05Z</time>
      </trkpt>
      <trkpt lat="45.89317" lon="4.66932">
        <ele>427.92272949219</ele>
        <time>2015-02-24T06:52:06Z</time>
      </trkpt>
      <trkpt lat="45.89305" lon="4.66927">
        <ele>426.2685546875</ele>
        <time>2015-02-24T06:52:10Z</time>
      </trkpt>
      <trkpt lat="45.89304" lon="4.66922">
        <ele>426.09451293945</ele>
        <time>2015-02-24T06:52:59Z</time>
      </trkpt>
      <trkpt lat="45.89303" lon="4.66922">
        <ele>425.9953918457</ele>
        <time>2015-02-24T06:53:00Z</time>
      </trkpt>
      <trkpt lat="45.89297" lon="4.66921">
        <ele>425.19067382812</ele>
        <time>2015-02-24T06:53:02Z</time>
      </trkpt>
      <trkpt lat="45.89277" lon="4.66912">
        <ele>422.35656738281</ele>
        <time>2015-02-24T06:53:07Z</time>
      </trkpt>
      <trkpt lat="45.89273" lon="4.6691">
        <ele>421.77484130859</ele>
        <time>2015-02-24T06:53:08Z</time>
      </trkpt>
      <trkpt lat="45.89266" lon="4.66907">
        <ele>420.72534179688</ele>
        <time>2015-02-24T06:53:10Z</time>
      </trkpt>
      <trkpt lat="45.89258" lon="4.66903">
        <ele>419.47830200195</ele>
        <time>2015-02-24T06:53:12Z</time>
      </trkpt>
      <trkpt lat="45.89254" lon="4.66901">
        <ele>418.8688659668</ele>
        <time>2015-02-24T06:53:13Z</time>
      </trkpt>
      <trkpt lat="45.89251" lon="4.66899">
        <ele>418.30508422852</ele>
        <time>2015-02-24T06:53:14Z</time>
      </trkpt>
      <trkpt lat="45.89242" lon="4.66895">
        <ele>417.66003417969</ele>
        <time>2015-02-24T06:53:17Z</time>
      </trkpt>
      <trkpt lat="45.89236" lon="4.66891">
        <ele>417.26989746094</ele>
        <time>2015-02-24T06:53:19Z</time>
      </trkpt>
      <trkpt lat="45.89233" lon="4.6689">
        <ele>417.11636352539</ele>
        <time>2015-02-24T06:53:20Z</time>
      </trkpt>
      <trkpt lat="45.89223" lon="4.66885">
        <ele>416.54614257812</ele>
        <time>2015-02-24T06:53:23Z</time>
      </trkpt>
      <trkpt lat="45.89217" lon="4.66881">
        <ele>416.2292175293</ele>
        <time>2015-02-24T06:53:25Z</time>
      </trkpt>
      <trkpt lat="45.8921" lon="4.66878">
        <ele>415.8883972168</ele>
        <time>2015-02-24T06:53:27Z</time>
      </trkpt>
      <trkpt lat="45.892" lon="4.66871">
        <ele>415.40148925781</ele>
        <time>2015-02-24T06:53:30Z</time>
      </trkpt>
      <trkpt lat="45.89193" lon="4.66868">
        <ele>415.12692260742</ele>
        <time>2015-02-24T06:53:32Z</time>
      </trkpt>
      <trkpt lat="45.89183" lon="4.66865">
        <ele>414.78747558594</ele>
        <time>2015-02-24T06:53:35Z</time>
      </trkpt>
      <trkpt lat="45.89169" lon="4.66858">
        <ele>414.35598754883</ele>
        <time>2015-02-24T06:53:39Z</time>
      </trkpt>
      <trkpt lat="45.89167" lon="4.66856">
        <ele>414.29162597656</ele>
        <time>2015-02-24T06:53:40Z</time>
      </trkpt>
      <trkpt lat="45.89155" lon="4.6685">
        <ele>414.25915527344</ele>
        <time>2015-02-24T06:53:44Z</time>
      </trkpt>
      <trkpt lat="45.89152" lon="4.66848">
        <ele>414.25573730469</ele>
        <time>2015-02-24T06:53:45Z</time>
      </trkpt>
      <trkpt lat="45.89151" lon="4.66843">
        <ele>414.2405090332</ele>
        <time>2015-02-24T06:53:46Z</time>
      </trkpt>
      <trkpt lat="45.8915" lon="4.66837">
        <ele>414.21688842773</ele>
        <time>2015-02-24T06:53:47Z</time>
      </trkpt>
      <trkpt lat="45.89148" lon="4.66821">
        <ele>412.51693725586</ele>
        <time>2015-02-24T06:53:51Z</time>
      </trkpt>
      <trkpt lat="45.89146" lon="4.66818">
        <ele>412.12899780273</ele>
        <time>2015-02-24T06:53:52Z</time>
      </trkpt>
      <trkpt lat="45.89138" lon="4.66812">
        <ele>411.65509033203</ele>
        <time>2015-02-24T06:53:55Z</time>
      </trkpt>
      <trkpt lat="45.89125" lon="4.66808">
        <ele>410.7</ele>
        <extensions>
          <visugpx:TrkExtension xmlns:visugpx="https://www.visugpx.com/editgpx/">
            <visugpx:node>9</visugpx:node>
            </visugpx:TrkExtension>
        </extensions>
      </trkpt>
      <trkpt lat="45.89126" lon="4.66809">
        <ele>411.69985961914</ele>
        <time>2015-02-24T06:53:59Z</time>
      </trkpt>
      <trkpt lat="45.89116" lon="4.66806">
        <ele>411.77688598633</ele>
        <time>2015-02-24T06:54:02Z</time>
        <extensions>
          <visugpx:TrkExtension xmlns:visugpx="https://www.visugpx.com/editgpx/">
            <visugpx:node>11</visugpx:node>
            </visugpx:TrkExtension>
        </extensions>
      </trkpt>
    </trkseg>
  </trk>
</gpx>